Darstellungsparameter: Aktuell verwendete Einstellungen:
Skalierung der Graphiken ... ?
xyx+y,   Skalierungsfaktor:      Skalierung: Modus: x, Faktor: 1
Darstellungszeitraum ... ?
Vom - - bis: - -   Zeitraum: 10.02.2021 - 09.05.2021
Min/Max/Avg-Anzeige ... ?
Zeige MMA aktuell
Zeige MMA Monat
Zeige MMA alles
Zeige --A aktuell
Zeige --A Monat
Zeige --A alles
Keine MMA-Anzeige
MMA:
Minimum Maximum Average (ber die Originaldaten)
MMA-Basis: 27.05.2020 - 29.06.2020
Quicknavigation für Darstellung... ?
Tage:      1T, 2T, 3T, 5T -1T -2T -3T -5T +1T +2T +3T +5T
Wochen: 1W, 2W, 3W -1W -2W -3W +1W +2W +3W
Monate: 1M, 3M, 6M -1M -3M -6M +1M +3M +6M
Jahre:    1J, 3J, 5J, 10J -1J -3J -5J -10J +1J +3J +5J +10J
Nutze für die Darstellung ... ?
Originaldaten oder Mittelwerte auf ...
Stundenbasis Tagesbasis Wochenbasis
Monatsbasis Jahresbasis      Datenbasis: Original-Daten
Darstellen als:
Statistik (Auto) Statistik J:M      Darstellung:
Zur Graphik,    zurück zur Übersicht aller Sensoren.
 
Tabellarische Datenbersicht: ?
 
Sensor: Nr:Datum:Temp:Abs-Feuchte:Windchill:Wind:
Aussen-T/F 1 10-02-2021 00:00:00 -7.2 C 2.29 g/m*3 -7.2 C 3.2 km/h
2 10-02-2021 00:05:00 -7.3 C 2.28 g/m*3 -7.3 C 3.2 km/h
3 10-02-2021 00:10:00 -7.4 C 2.26 g/m*3 -7.4 C 4.8 km/h
4 10-02-2021 00:15:00 -7.5 C 2.24 g/m*3 -7.5 C 4.8 km/h
5 10-02-2021 00:20:00 -7.6 C 2.23 g/m*3 -7.6 C 1.6 km/h
6 10-02-2021 00:25:00 -7.7 C 2.21 g/m*3 -11.08 C 6.4 km/h
7 10-02-2021 00:30:00 -7.7 C 2.21 g/m*3 -7.7 C 4.8 km/h
8 10-02-2021 00:35:00 -7.7 C 2.21 g/m*3 -7.7 C 4.8 km/h
9 10-02-2021 00:40:00 -7.8 C 2.19 g/m*3 -7.8 C 1.6 km/h
10 10-02-2021 00:45:00 -7.8 C 2.19 g/m*3 -7.8 C 3.2 km/h
11 10-02-2021 00:50:00 -7.8 C 2.22 g/m*3 -7.8 C 1.6 km/h
12 10-02-2021 00:55:00 -7.9 C 2.2 g/m*3 -7.9 C 3.2 km/h
13 10-02-2021 01:00:00 -8 C 2.19 g/m*3 -8 C 1.6 km/h
14 10-02-2021 01:05:00 -8.1 C 2.17 g/m*3 -8.1 C 4.8 km/h
15 10-02-2021 01:10:00 -8.1 C 2.17 g/m*3 -8.1 C 3.2 km/h
16 10-02-2021 01:15:00 -8.2 C 2.16 g/m*3 -8.2 C 0 km/h
17 10-02-2021 01:20:00 -8.2 C 2.18 g/m*3 -8.2 C 0 km/h
18 10-02-2021 01:25:00 -8.3 C 2.17 g/m*3 -8.3 C 3.2 km/h
19 10-02-2021 01:30:00 -8.4 C 2.15 g/m*3 -8.4 C 3.2 km/h
20 10-02-2021 01:35:00 -8.5 C 2.16 g/m*3 -8.5 C 0 km/h
21 10-02-2021 01:40:00 -8.6 C 2.14 g/m*3 -8.6 C 0 km/h
22 10-02-2021 01:45:00 -8.7 C 2.13 g/m*3 -8.7 C 0 km/h
23 10-02-2021 01:50:00 -8.7 C 2.15 g/m*3 -8.7 C 1.6 km/h
24 10-02-2021 01:55:00 -8.8 C 2.14 g/m*3 -8.8 C 0 km/h
25 10-02-2021 02:00:00 -8.8 C 2.14 g/m*3 -8.8 C 1.6 km/h
Sensor: Nr:Datum:Temp:Abs-Feuchte:Windchill:Wind:
Aussen-T/F 26 10-02-2021 02:05:00 -8.9 C 2.12 g/m*3 -8.9 C 3.2 km/h
27 10-02-2021 02:10:00 -8.9 C 2.12 g/m*3 -8.9 C 1.6 km/h
28 10-02-2021 02:15:00 -8.9 C 2.12 g/m*3 -8.9 C 0 km/h
29 10-02-2021 02:20:00 -9 C 2.13 g/m*3 -9 C 4.8 km/h
30 10-02-2021 02:25:00 -9 C 2.13 g/m*3 -9 C 1.6 km/h
31 10-02-2021 02:30:00 -9 C 2.13 g/m*3 -9 C 1.6 km/h
32 10-02-2021 02:35:00 -9.1 C 2.12 g/m*3 -9.1 C 3.2 km/h
33 10-02-2021 02:40:00 -9.1 C 2.14 g/m*3 -9.1 C 1.6 km/h
34 10-02-2021 02:45:00 -9.1 C 2.14 g/m*3 -9.1 C 3.2 km/h
35 10-02-2021 02:50:00 -9.1 C 2.14 g/m*3 -9.1 C 3.2 km/h
36 10-02-2021 02:55:00 -9.1 C 2.14 g/m*3 -9.1 C 1.6 km/h
37 10-02-2021 03:00:00 -9.1 C 2.14 g/m*3 -9.1 C 3.2 km/h
38 10-02-2021 03:05:00 -8.9 C 2.17 g/m*3 -12.46 C 6.4 km/h
39 10-02-2021 03:10:00 -8.8 C 2.16 g/m*3 -8.8 C 3.2 km/h
40 10-02-2021 03:15:00 -8.8 C 2.16 g/m*3 -8.8 C 1.6 km/h
41 10-02-2021 03:20:00 -8.8 C 2.14 g/m*3 -8.8 C 3.2 km/h
42 10-02-2021 03:25:00 -8.9 C 2.12 g/m*3 -13.84 C 9.7 km/h
43 10-02-2021 03:30:00 -8.8 C 2.14 g/m*3 -12.35 C 6.4 km/h
44 10-02-2021 03:35:00 -8.8 C 2.14 g/m*3 -8.8 C 3.2 km/h
45 10-02-2021 03:40:00 -8.8 C 2.14 g/m*3 -13.12 C 8.1 km/h
46 10-02-2021 03:45:00 -8.8 C 2.11 g/m*3 -13.12 C 8.1 km/h
47 10-02-2021 03:50:00 -8.8 C 2.14 g/m*3 -8.8 C 1.6 km/h
48 10-02-2021 03:55:00 -8.9 C 2.1 g/m*3 -8.9 C 4.8 km/h
49 10-02-2021 04:00:00 -8.9 C 2.1 g/m*3 -12.46 C 6.4 km/h
50 10-02-2021 04:05:00 -9 C 2.08 g/m*3 -9 C 3.2 km/h
Sensor: Nr:Datum:Temp:Abs-Feuchte:Windchill:Wind:
Aussen-T/F 51 10-02-2021 04:10:00 -9.1 C 2.07 g/m*3 -9.1 C 1.6 km/h
52 10-02-2021 04:15:00 -9.1 C 2.09 g/m*3 -9.1 C 1.6 km/h
53 10-02-2021 04:20:00 -9.2 C 2.08 g/m*3 -9.2 C 1.6 km/h
54 10-02-2021 04:25:00 -9.2 C 2.08 g/m*3 -9.2 C 1.6 km/h
55 10-02-2021 04:30:00 -9.2 C 2.08 g/m*3 -9.2 C 3.2 km/h
56 10-02-2021 04:35:00 -9.3 C 2.06 g/m*3 -9.3 C 1.6 km/h
57 10-02-2021 04:40:00 -9.3 C 2.06 g/m*3 -12.92 C 6.4 km/h
58 10-02-2021 04:45:00 -9.2 C 2.08 g/m*3 -9.2 C 3.2 km/h
59 10-02-2021 04:50:00 -9.2 C 2.1 g/m*3 -9.2 C 3.2 km/h
60 10-02-2021 04:55:00 -9.2 C 2.08 g/m*3 -9.2 C 0 km/h
61 10-02-2021 05:00:00 -9.2 C 2.1 g/m*3 -9.2 C 3.2 km/h
62 10-02-2021 05:05:00 -9.2 C 2.1 g/m*3 -12.81 C 6.4 km/h
63 10-02-2021 05:10:00 -9.2 C 2.1 g/m*3 -13.59 C 8.1 km/h
64 10-02-2021 05:15:00 -9.2 C 2.1 g/m*3 -9.2 C 4.8 km/h
65 10-02-2021 05:20:00 -9.1 C 2.09 g/m*3 -9.1 C 3.2 km/h
66 10-02-2021 05:25:00 -9.1 C 2.09 g/m*3 -9.1 C 4.8 km/h
67 10-02-2021 05:30:00 -9.1 C 2.09 g/m*3 -9.1 C 0 km/h
68 10-02-2021 05:35:00 -9 C 2.11 g/m*3 -12.58 C 6.4 km/h
69 10-02-2021 05:40:00 -9 C 2.11 g/m*3 -9 C 1.6 km/h
70 10-02-2021 05:45:00 -9 C 2.08 g/m*3 -9 C 4.8 km/h
71 10-02-2021 05:50:00 -9 C 2.11 g/m*3 -9 C 1.6 km/h
72 10-02-2021 05:55:00 -9 C 2.08 g/m*3 -9 C 3.2 km/h
73 10-02-2021 06:00:00 -9 C 2.08 g/m*3 -9 C 3.2 km/h
74 10-02-2021 06:05:00 -9 C 2.11 g/m*3 -9 C 4.8 km/h
75 10-02-2021 06:10:00 -9 C 2.08 g/m*3 -9 C 4.8 km/h
Sensor: Nr:Datum:Temp:Abs-Feuchte:Windchill:Wind:
Aussen-T/F 76 10-02-2021 06:15:00 -9 C 2.08 g/m*3 -9 C 4.8 km/h
77 10-02-2021 06:20:00 -9 C 2.08 g/m*3 -9 C 4.8 km/h
78 10-02-2021 06:25:00 -9 C 2.11 g/m*3 -9 C 3.2 km/h
79 10-02-2021 06:30:00 -9.1 C 2.09 g/m*3 -9.1 C 1.6 km/h
80 10-02-2021 06:35:00 -9.1 C 2.09 g/m*3 -9.1 C 0 km/h
81 10-02-2021 06:40:00 -9.1 C 2.09 g/m*3 -9.1 C 1.6 km/h
82 10-02-2021 06:45:00 -9.2 C 2.08 g/m*3 -9.2 C 1.6 km/h
83 10-02-2021 06:50:00 -9.2 C 2.08 g/m*3 -9.2 C 1.6 km/h
84 10-02-2021 06:55:00 -9.2 C 2.08 g/m*3 -9.2 C 4.8 km/h
85 10-02-2021 07:00:00 -9.2 C 2.08 g/m*3 -9.2 C 4.8 km/h
86 10-02-2021 07:05:00 -9.2 C 2.08 g/m*3 -9.2 C 0 km/h
87 10-02-2021 07:10:00 -9.1 C 2.09 g/m*3 -9.1 C 1.6 km/h
88 10-02-2021 07:15:00 -9.1 C 2.09 g/m*3 -9.1 C 1.6 km/h
89 10-02-2021 07:20:00 -9.1 C 2.12 g/m*3 -9.1 C 3.2 km/h
90 10-02-2021 07:25:00 -8.9 C 2.17 g/m*3 -8.9 C 4.8 km/h
91 10-02-2021 07:30:00 -8.8 C 2.19 g/m*3 -13.12 C 8.1 km/h
92 10-02-2021 07:35:00 -8.7 C 2.18 g/m*3 -8.7 C 1.6 km/h
93 10-02-2021 07:40:00 -8.7 C 2.21 g/m*3 -12.23 C 6.4 km/h
94 10-02-2021 07:45:00 -8.6 C 2.2 g/m*3 -12.12 C 6.4 km/h
95 10-02-2021 07:50:00 -8.6 C 2.2 g/m*3 -12.12 C 6.4 km/h
96 10-02-2021 07:55:00 -8.6 C 2.2 g/m*3 -8.6 C 3.2 km/h
97 10-02-2021 08:00:00 -8.6 C 2.2 g/m*3 -8.6 C 3.2 km/h
98 10-02-2021 08:05:00 -8.6 C 2.2 g/m*3 -12.12 C 6.4 km/h
99 10-02-2021 08:10:00 -8.6 C 2.2 g/m*3 -8.6 C 1.6 km/h
100 10-02-2021 08:15:00 -8.6 C 2.2 g/m*3 -12.12 C 6.4 km/h
Sensor: Nr:Datum:Temp:Abs-Feuchte:Windchill:Wind:
Aussen-T/F 101 10-02-2021 08:20:00 -8.6 C 2.2 g/m*3 -8.6 C 0 km/h
102 10-02-2021 08:25:00 -8.7 C 2.21 g/m*3 -8.7 C 0 km/h
103 10-02-2021 08:30:00 -8.7 C 2.21 g/m*3 -8.7 C 3.2 km/h
104 10-02-2021 08:35:00 -8.7 C 2.21 g/m*3 -8.7 C 4.8 km/h
105 10-02-2021 08:40:00 -8.6 C 2.22 g/m*3 -8.6 C 4.8 km/h
106 10-02-2021 08:45:00 -8.5 C 2.24 g/m*3 -13.37 C 9.7 km/h
107 10-02-2021 08:50:00 -8.4 C 2.23 g/m*3 -8.4 C 4.8 km/h
108 10-02-2021 08:55:00 -8.4 C 2.2 g/m*3 -13.25 C 9.7 km/h
109 10-02-2021 09:00:00 -8.3 C 2.22 g/m*3 -13.13 C 9.7 km/h
110 10-02-2021 09:05:00 -8.3 C 2.22 g/m*3 -11.77 C 6.4 km/h
111 10-02-2021 09:10:00 -8.3 C 2.22 g/m*3 -11.77 C 6.4 km/h
112 10-02-2021 09:15:00 -8.3 C 2.22 g/m*3 -13.13 C 9.7 km/h
113 10-02-2021 09:20:00 -8.2 C 2.24 g/m*3 -11.65 C 6.4 km/h
114 10-02-2021 09:25:00 -8.2 C 2.24 g/m*3 -13.01 C 9.7 km/h
115 10-02-2021 09:30:00 -8.1 C 2.23 g/m*3 -8.1 C 4.8 km/h
116 10-02-2021 09:35:00 -8.1 C 2.23 g/m*3 -11.54 C 6.4 km/h
117 10-02-2021 09:40:00 -8 C 2.24 g/m*3 -11.42 C 6.4 km/h
118 10-02-2021 09:45:00 -8 C 2.22 g/m*3 -13.29 C 11.3 km/h
119 10-02-2021 09:50:00 -8 C 2.22 g/m*3 -12.17 C 8.1 km/h
120 10-02-2021 09:55:00 -7.9 C 2.23 g/m*3 -12.65 C 9.7 km/h
121 10-02-2021 10:00:00 -7.9 C 2.2 g/m*3 -12.65 C 9.7 km/h
122 10-02-2021 10:05:00 -7.8 C 2.22 g/m*3 -11.94 C 8.1 km/h
123 10-02-2021 10:10:00 -7.8 C 2.19 g/m*3 -12.53 C 9.7 km/h
124 10-02-2021 10:15:00 -7.7 C 2.24 g/m*3 -11.08 C 6.4 km/h
125 10-02-2021 10:20:00 -7.7 C 2.21 g/m*3 -11.82 C 8.1 km/h
Sensor: Nr:Datum:Temp:Abs-Feuchte:Windchill:Wind:
Aussen-T/F 126 10-02-2021 10:25:00 -7.6 C 2.23 g/m*3 -12.8 C 11.3 km/h
127 10-02-2021 10:30:00 -7.6 C 2.23 g/m*3 -11.7 C 8.1 km/h
128 10-02-2021 10:35:00 -7.5 C 2.24 g/m*3 -7.5 C 4.8 km/h
129 10-02-2021 10:40:00 -7.4 C 2.23 g/m*3 -12.05 C 9.7 km/h
130 10-02-2021 10:45:00 -7.4 C 2.26 g/m*3 -7.4 C 3.2 km/h
131 10-02-2021 10:50:00 -7.3 C 2.3 g/m*3 -7.3 C 1.6 km/h
132 10-02-2021 10:55:00 -7.3 C 2.28 g/m*3 -7.3 C 1.6 km/h
133 10-02-2021 11:00:00 -7.2 C 2.29 g/m*3 -7.2 C 4.8 km/h
134 10-02-2021 11:05:00 -7.2 C 2.29 g/m*3 -7.2 C 3.2 km/h
135 10-02-2021 11:10:00 -7.1 C 2.31 g/m*3 -11.7 C 9.7 km/h
136 10-02-2021 11:15:00 -6.9 C 2.34 g/m*3 -6.9 C 4.8 km/h
137 10-02-2021 11:20:00 -6.8 C 2.36 g/m*3 -6.8 C 3.2 km/h
138 10-02-2021 11:25:00 -6.7 C 2.38 g/m*3 -6.7 C 1.6 km/h
139 10-02-2021 11:30:00 -6.4 C 2.43 g/m*3 -10.29 C 8.1 km/h
140 10-02-2021 11:35:00 -6.2 C 2.43 g/m*3 -6.2 C 3.2 km/h
141 10-02-2021 11:40:00 -6 C 2.44 g/m*3 -9.82 C 8.1 km/h
142 10-02-2021 11:45:00 -5.9 C 2.39 g/m*3 -10.75 C 11.3 km/h
143 10-02-2021 11:50:00 -5.7 C 2.46 g/m*3 -10.03 C 9.7 km/h
144 10-02-2021 11:55:00 -5.5 C 2.5 g/m*3 -10.27 C 11.3 km/h
145 10-02-2021 12:00:00 -5.4 C 2.48 g/m*3 -9.12 C 8.1 km/h
146 10-02-2021 12:05:00 -5.2 C 2.52 g/m*3 -8.19 C 6.4 km/h
147 10-02-2021 12:10:00 -5.1 C 2.54 g/m*3 -5.1 C 4.8 km/h
148 10-02-2021 12:15:00 -5 C 2.59 g/m*3 -7.96 C 6.4 km/h
149 10-02-2021 12:20:00 -4.8 C 2.59 g/m*3 -9.85 C 12.9 km/h
150 10-02-2021 12:25:00 -4.5 C 2.58 g/m*3 -10.2 C 16.1 km/h
Sensor: Nr:Datum:Temp:Abs-Feuchte:Windchill:Wind:
Aussen-T/F 151 10-02-2021 12:30:00 -4.3 C 2.58 g/m*3 -8.36 C 9.7 km/h
152 10-02-2021 12:35:00 -4.2 C 2.63 g/m*3 -9.12 C 12.9 km/h
153 10-02-2021 12:40:00 -4.2 C 2.63 g/m*3 -8.24 C 9.7 km/h
154 10-02-2021 12:45:00 -4.2 C 2.63 g/m*3 -4.2 C 4.8 km/h
155 10-02-2021 12:50:00 -4.1 C 2.65 g/m*3 -9.36 C 14.5 km/h
156 10-02-2021 12:55:00 -4.1 C 2.65 g/m*3 -8.99 C 12.9 km/h
157 10-02-2021 13:00:00 -4.1 C 2.65 g/m*3 -8.99 C 12.9 km/h
158 10-02-2021 13:05:00 -4.1 C 2.69 g/m*3 -8.12 C 9.7 km/h
159 10-02-2021 13:10:00 -3.9 C 2.69 g/m*3 -7.35 C 8.1 km/h
160 10-02-2021 13:15:00 -3.8 C 2.75 g/m*3 -7.24 C 8.1 km/h
161 10-02-2021 13:20:00 -3.8 C 2.71 g/m*3 -7.24 C 8.1 km/h
162 10-02-2021 13:25:00 -3.7 C 2.69 g/m*3 -7.64 C 9.7 km/h
163 10-02-2021 13:30:00 -3.6 C 2.75 g/m*3 -7.98 C 11.3 km/h
164 10-02-2021 13:35:00 -3.5 C 2.73 g/m*3 -8.26 C 12.9 km/h
165 10-02-2021 13:40:00 -3.4 C 2.79 g/m*3 -7.29 C 9.7 km/h
166 10-02-2021 13:45:00 -3.3 C 2.77 g/m*3 -9.55 C 20.9 km/h
167 10-02-2021 13:50:00 -3.2 C 2.79 g/m*3 -6.53 C 8.1 km/h
168 10-02-2021 13:55:00 -3 C 2.83 g/m*3 -7.26 C 11.3 km/h
169 10-02-2021 14:00:00 -2.9 C 2.81 g/m*3 -6.69 C 9.7 km/h
170 10-02-2021 14:05:00 -2.8 C 2.83 g/m*3 -7.41 C 12.9 km/h
171 10-02-2021 14:10:00 -2.7 C 2.85 g/m*3 -6.45 C 9.7 km/h
172 10-02-2021 14:15:00 -2.7 C 2.81 g/m*3 -5.94 C 8.1 km/h
173 10-02-2021 14:20:00 -2.7 C 2.81 g/m*3 -5.94 C 8.1 km/h
174 10-02-2021 14:25:00 -2.7 C 2.81 g/m*3 -7.96 C 16.1 km/h
175 10-02-2021 14:30:00 -2.6 C 2.83 g/m*3 -7.84 C 16.1 km/h
Sensor: Nr:Datum:Temp:Abs-Feuchte:Windchill:Wind:
Aussen-T/F 176 10-02-2021 14:35:00 -2.6 C 2.83 g/m*3 -7.17 C 12.9 km/h
177 10-02-2021 14:40:00 -2.6 C 2.83 g/m*3 -8.66 C 20.9 km/h
178 10-02-2021 14:45:00 -2.6 C 2.83 g/m*3 -8.41 C 19.3 km/h
179 10-02-2021 14:50:00 -2.5 C 2.81 g/m*3 -7.4 C 14.5 km/h
180 10-02-2021 14:55:00 -2.4 C 2.87 g/m*3 -7.59 C 16.1 km/h
181 10-02-2021 15:00:00 -2.4 C 2.87 g/m*3 -4.95 C 6.4 km/h
182 10-02-2021 15:05:00 -2.4 C 2.87 g/m*3 -6.1 C 9.7 km/h
183 10-02-2021 15:10:00 -2.4 C 2.83 g/m*3 -6.92 C 12.9 km/h
184 10-02-2021 15:15:00 -2.3 C 2.89 g/m*3 -5.98 C 9.7 km/h
185 10-02-2021 15:20:00 -2.3 C 2.89 g/m*3 -5.98 C 9.7 km/h
186 10-02-2021 15:25:00 -2.3 C 2.89 g/m*3 -4.84 C 6.4 km/h
187 10-02-2021 15:30:00 -2.2 C 2.91 g/m*3 -4.72 C 6.4 km/h
188 10-02-2021 15:35:00 -2.1 C 2.85 g/m*3 -7.51 C 17.7 km/h
189 10-02-2021 15:40:00 -2 C 2.91 g/m*3 -6.43 C 12.9 km/h
190 10-02-2021 15:45:00 -1.9 C 2.93 g/m*3 -5.5 C 9.7 km/h
191 10-02-2021 15:50:00 -1.9 C 2.93 g/m*3 -1.9 C 4.8 km/h
192 10-02-2021 15:55:00 -1.8 C 2.95 g/m*3 -1.8 C 3.2 km/h
193 10-02-2021 16:00:00 -1.8 C 2.99 g/m*3 -4.89 C 8.1 km/h
194 10-02-2021 16:05:00 -1.7 C 2.97 g/m*3 -5.69 C 11.3 km/h
195 10-02-2021 16:10:00 -1.6 C 2.99 g/m*3 -5.14 C 9.7 km/h
196 10-02-2021 16:15:00 -1.6 C 2.95 g/m*3 -4.03 C 6.4 km/h
197 10-02-2021 16:20:00 -1.6 C 2.95 g/m*3 -4.03 C 6.4 km/h
198 10-02-2021 16:25:00 -1.5 C 3.01 g/m*3 -5.83 C 12.9 km/h
199 10-02-2021 16:30:00 -1.4 C 2.99 g/m*3 -4.42 C 8.1 km/h
200 10-02-2021 16:35:00 -1.4 C 2.99 g/m*3 -6.04 C 14.5 km/h
Sensor: Nr:Datum:Temp:Abs-Feuchte:Windchill:Wind:
Aussen-T/F 201 10-02-2021 16:40:00 -1.4 C 2.9 g/m*3 -6.64 C 17.7 km/h
202 10-02-2021 16:45:00 -1.4 C 2.99 g/m*3 -4.9 C 9.7 km/h
203 10-02-2021 16:50:00 -1.4 C 3.03 g/m*3 -3.8 C 6.4 km/h
204 10-02-2021 16:55:00 -1.5 C 3.01 g/m*3 -3.91 C 6.4 km/h
205 10-02-2021 17:00:00 -1.6 C 3.03 g/m*3 -1.6 C 4.8 km/h
206 10-02-2021 17:05:00 -1.6 C 3.08 g/m*3 -1.6 C 3.2 km/h
207 10-02-2021 17:10:00 -1.7 C 3.06 g/m*3 -1.7 C 3.2 km/h
208 10-02-2021 17:15:00 -1.7 C 3.1 g/m*3 -1.7 C 0 km/h
209 10-02-2021 17:20:00 -1.7 C 3.1 g/m*3 -1.7 C 4.8 km/h
210 10-02-2021 17:25:00 -1.8 C 3.08 g/m*3 -5.38 C 9.7 km/h
211 10-02-2021 17:30:00 -1.8 C 3.08 g/m*3 -4.89 C 8.1 km/h
212 10-02-2021 17:35:00 -1.9 C 3.1 g/m*3 -1.9 C 4.8 km/h
213 10-02-2021 17:40:00 -2 C 3.08 g/m*3 -2 C 4.8 km/h
214 10-02-2021 17:45:00 -2.1 C 3.1 g/m*3 -4.61 C 6.4 km/h
215 10-02-2021 17:50:00 -2.1 C 3.1 g/m*3 -2.1 C 1.6 km/h
216 10-02-2021 17:55:00 -2.2 C 3.08 g/m*3 -5.86 C 9.7 km/h
217 10-02-2021 18:00:00 -2.3 C 3.05 g/m*3 -5.98 C 9.7 km/h
218 10-02-2021 18:05:00 -2.3 C 3.05 g/m*3 -4.84 C 6.4 km/h
219 10-02-2021 18:10:00 -2.4 C 3.03 g/m*3 -7.27 C 14.5 km/h
220 10-02-2021 18:15:00 -2.4 C 3.03 g/m*3 -5.59 C 8.1 km/h
221 10-02-2021 18:20:00 -2.4 C 3.07 g/m*3 -6.1 C 9.7 km/h
222 10-02-2021 18:25:00 -2.4 C 3.03 g/m*3 -5.59 C 8.1 km/h
223 10-02-2021 18:30:00 -2.5 C 2.97 g/m*3 -2.5 C 4.8 km/h
224 10-02-2021 18:35:00 -2.6 C 2.95 g/m*3 -2.6 C 1.6 km/h
225 10-02-2021 18:40:00 -2.7 C 2.97 g/m*3 -2.7 C 3.2 km/h
Sensor: Nr:Datum:Temp:Abs-Feuchte:Windchill:Wind:
Aussen-T/F 226 10-02-2021 18:45:00 -2.8 C 2.99 g/m*3 -2.8 C 1.6 km/h
227 10-02-2021 18:50:00 -3.1 C 2.93 g/m*3 -3.1 C 3.2 km/h
228 10-02-2021 18:55:00 -3.3 C 2.96 g/m*3 -3.3 C 1.6 km/h
229 10-02-2021 19:00:00 -3.4 C 2.98 g/m*3 -3.4 C 3.2 km/h
230 10-02-2021 19:05:00 -3.6 C 2.94 g/m*3 -3.6 C 1.6 km/h
231 10-02-2021 19:10:00 -3.7 C 2.95 g/m*3 -3.7 C 0 km/h
232 10-02-2021 19:15:00 -3.8 C 3.01 g/m*3 -3.8 C 1.6 km/h
233 10-02-2021 19:20:00 -3.8 C 3.01 g/m*3 -3.8 C 0 km/h
234 10-02-2021 19:25:00 -3.8 C 3.04 g/m*3 -3.8 C 0 km/h
235 10-02-2021 19:30:00 -3.8 C 3.04 g/m*3 -3.8 C 0 km/h
236 10-02-2021 19:35:00 -3.8 C 3.04 g/m*3 -3.8 C 0 km/h
237 10-02-2021 19:40:00 -3.8 C 3.04 g/m*3 -3.8 C 0 km/h
238 10-02-2021 19:45:00 -3.8 C 3.08 g/m*3 -3.8 C 0 km/h
239 10-02-2021 19:50:00 -3.8 C 3.08 g/m*3 -3.8 C 0 km/h
240 10-02-2021 19:55:00 -3.8 C 3.08 g/m*3 -3.8 C 0 km/h
241 10-02-2021 20:00:00 -3.8 C 3.08 g/m*3 -3.8 C 3.2 km/h
242 10-02-2021 20:05:00 -3.6 C 3.12 g/m*3 -3.6 C 4.8 km/h
243 10-02-2021 20:10:00 -3.2 C 3.18 g/m*3 -3.2 C 4.8 km/h
244 10-02-2021 20:15:00 -2.9 C 3.2 g/m*3 -6.18 C 8.1 km/h
245 10-02-2021 20:20:00 -2.8 C 3.23 g/m*3 -7.41 C 12.9 km/h
246 10-02-2021 20:25:00 -2.7 C 3.21 g/m*3 -5.94 C 8.1 km/h
247 10-02-2021 20:30:00 -2.6 C 3.23 g/m*3 -7.17 C 12.9 km/h
248 10-02-2021 20:35:00 -2.5 C 3.26 g/m*3 -5.71 C 8.1 km/h
249 10-02-2021 20:40:00 -2.5 C 3.26 g/m*3 -6.65 C 11.3 km/h
250 10-02-2021 20:45:00 -2.5 C 3.26 g/m*3 -6.65 C 11.3 km/h
Sensor: Nr:Datum:Temp:Abs-Feuchte:Windchill:Wind:
Aussen-T/F 251 10-02-2021 20:50:00 -2.5 C 3.26 g/m*3 -7.04 C 12.9 km/h
252 10-02-2021 20:55:00 -2.5 C 3.26 g/m*3 -7.04 C 12.9 km/h
253 10-02-2021 21:00:00 -2.5 C 3.26 g/m*3 -6.65 C 11.3 km/h
254 10-02-2021 21:05:00 -2.5 C 3.3 g/m*3 -6.21 C 9.7 km/h
255 10-02-2021 21:10:00 -2.5 C 3.3 g/m*3 -7.04 C 12.9 km/h
256 10-02-2021 21:15:00 -2.5 C 3.3 g/m*3 -7.4 C 14.5 km/h
257 10-02-2021 21:20:00 -2.5 C 3.3 g/m*3 -5.07 C 6.4 km/h
258 10-02-2021 21:25:00 -2.6 C 3.27 g/m*3 -5.83 C 8.1 km/h
259 10-02-2021 21:30:00 -2.7 C 3.25 g/m*3 -2.7 C 4.8 km/h
260 10-02-2021 21:35:00 -2.7 C 3.29 g/m*3 -2.7 C 4.8 km/h
261 10-02-2021 21:40:00 -2.8 C 3.27 g/m*3 -5.42 C 6.4 km/h
262 10-02-2021 21:45:00 -2.8 C 3.27 g/m*3 -2.8 C 1.6 km/h
263 10-02-2021 21:50:00 -2.9 C 3.28 g/m*3 -2.9 C 4.8 km/h
264 10-02-2021 21:55:00 -2.9 C 3.28 g/m*3 -2.9 C 4.8 km/h
265 10-02-2021 22:00:00 -2.9 C 3.28 g/m*3 -2.9 C 3.2 km/h
266 10-02-2021 22:05:00 -2.9 C 3.28 g/m*3 -2.9 C 4.8 km/h
267 10-02-2021 22:10:00 -2.9 C 3.28 g/m*3 -2.9 C 1.6 km/h
268 10-02-2021 22:15:00 -2.9 C 3.28 g/m*3 -2.9 C 0 km/h
269 10-02-2021 22:20:00 -3 C 3.26 g/m*3 -3 C 1.6 km/h
270 10-02-2021 22:25:00 -3 C 3.3 g/m*3 -3 C 0 km/h
271 10-02-2021 22:30:00 -3.1 C 3.28 g/m*3 -3.1 C 0 km/h
272 10-02-2021 22:35:00 -3.1 C 3.28 g/m*3 -3.1 C 3.2 km/h
273 10-02-2021 22:40:00 -3.2 C 3.25 g/m*3 -3.2 C 0 km/h
274 10-02-2021 22:45:00 -3.2 C 3.25 g/m*3 -3.2 C 4.8 km/h
275 10-02-2021 22:50:00 -3.2 C 3.29 g/m*3 -3.2 C 4.8 km/h
Sensor: Nr:Datum:Temp:Abs-Feuchte:Windchill:Wind:
Aussen-T/F 276 10-02-2021 22:55:00 -3.2 C 3.29 g/m*3 -3.2 C 3.2 km/h
277 10-02-2021 23:00:00 -3.1 C 3.32 g/m*3 -3.1 C 1.6 km/h
278 10-02-2021 23:05:00 -3.1 C 3.32 g/m*3 -3.1 C 1.6 km/h
279 10-02-2021 23:10:00 -3.1 C 3.32 g/m*3 -3.1 C 1.6 km/h
280 10-02-2021 23:15:00 -3.1 C 3.32 g/m*3 -3.1 C 3.2 km/h
281 10-02-2021 23:20:00 -3.1 C 3.32 g/m*3 -3.1 C 3.2 km/h
282 10-02-2021 23:25:00 -3.2 C 3.29 g/m*3 -3.2 C 0 km/h
283 10-02-2021 23:30:00 -3.2 C 3.29 g/m*3 -3.2 C 3.2 km/h
284 10-02-2021 23:35:00 -3.2 C 3.29 g/m*3 -5.88 C 6.4 km/h
285 10-02-2021 23:40:00 -3.1 C 3.32 g/m*3 -3.1 C 3.2 km/h
286 10-02-2021 23:45:00 -3.1 C 3.28 g/m*3 -3.1 C 3.2 km/h
287 10-02-2021 23:50:00 -3.1 C 3.28 g/m*3 -3.1 C 4.8 km/h
288 10-02-2021 23:55:00 -3 C 3.3 g/m*3 -3 C 4.8 km/h
289 11-02-2021 00:00:00 -3.1 C 3.28 g/m*3 -3.1 C 3.2 km/h
290 11-02-2021 00:05:00 -3 C 3.3 g/m*3 -3 C 1.6 km/h
291 11-02-2021 00:10:00 -3 C 3.3 g/m*3 -3 C 3.2 km/h
292 11-02-2021 00:15:00 -2.9 C 3.32 g/m*3 -2.9 C 4.8 km/h
293 11-02-2021 00:20:00 -2.9 C 3.32 g/m*3 -2.9 C 4.8 km/h
294 11-02-2021 00:25:00 -2.9 C 3.32 g/m*3 -2.9 C 3.2 km/h
295 11-02-2021 00:30:00 -2.9 C 3.32 g/m*3 -2.9 C 3.2 km/h
296 11-02-2021 00:35:00 -2.9 C 3.32 g/m*3 -2.9 C 3.2 km/h
297 11-02-2021 00:40:00 -2.9 C 3.28 g/m*3 -2.9 C 4.8 km/h
298 11-02-2021 00:45:00 -2.9 C 3.32 g/m*3 -2.9 C 3.2 km/h
299 11-02-2021 00:50:00 -2.9 C 3.32 g/m*3 -2.9 C 3.2 km/h
300 11-02-2021 00:55:00 -3 C 3.26 g/m*3 -3 C 4.8 km/h
Sensor: Nr:Datum:Temp:Abs-Feuchte:Windchill:Wind:
Aussen-T/F 301 11-02-2021 01:00:00 -2.9 C 3.28 g/m*3 -6.18 C 8.1 km/h
302 11-02-2021 01:05:00 -2.9 C 3.28 g/m*3 -2.9 C 0 km/h
303 11-02-2021 01:10:00 -3 C 3.3 g/m*3 -3 C 3.2 km/h
304 11-02-2021 01:15:00 -3 C 3.3 g/m*3 -3 C 4.8 km/h
305 11-02-2021 01:20:00 -3 C 3.3 g/m*3 -3 C 3.2 km/h
306 11-02-2021 01:25:00 -3 C 3.3 g/m*3 -6.81 C 9.7 km/h
307 11-02-2021 01:30:00 -3 C 3.3 g/m*3 -3 C 0 km/h
308 11-02-2021 01:35:00 -3 C 3.3 g/m*3 -3 C 4.8 km/h
309 11-02-2021 01:40:00 -3 C 3.3 g/m*3 -3 C 4.8 km/h
310 11-02-2021 01:45:00 -3 C 3.3 g/m*3 -3 C 3.2 km/h
311 11-02-2021 01:50:00 -3 C 3.3 g/m*3 -5.65 C 6.4 km/h
312 11-02-2021 01:55:00 -3 C 3.3 g/m*3 -3 C 1.6 km/h
313 11-02-2021 02:00:00 -3 C 3.3 g/m*3 -3 C 4.8 km/h
314 11-02-2021 02:05:00 -3.1 C 3.28 g/m*3 -3.1 C 4.8 km/h
315 11-02-2021 02:10:00 -3.1 C 3.28 g/m*3 -3.1 C 3.2 km/h
316 11-02-2021 02:15:00 -3.1 C 3.28 g/m*3 -3.1 C 4.8 km/h
317 11-02-2021 02:20:00 -3.1 C 3.32 g/m*3 -6.41 C 8.1 km/h
318 11-02-2021 02:25:00 -3.1 C 3.32 g/m*3 -3.1 C 3.2 km/h
319 11-02-2021 02:30:00 -3.1 C 3.32 g/m*3 -6.41 C 8.1 km/h
320 11-02-2021 02:35:00 -3.1 C 3.32 g/m*3 -5.76 C 6.4 km/h
321 11-02-2021 02:40:00 -3.1 C 3.32 g/m*3 -6.41 C 8.1 km/h
322 11-02-2021 02:45:00 -3.2 C 3.29 g/m*3 -3.2 C 0 km/h
323 11-02-2021 02:50:00 -3.1 C 3.32 g/m*3 -3.1 C 1.6 km/h
324 11-02-2021 02:55:00 -3.2 C 3.29 g/m*3 -3.2 C 3.2 km/h
325 11-02-2021 03:00:00 -3.2 C 3.29 g/m*3 -3.2 C 3.2 km/h
Sensor: Nr:Datum:Temp:Abs-Feuchte:Windchill:Wind:
Aussen-T/F 326 11-02-2021 03:05:00 -3.2 C 3.29 g/m*3 -3.2 C 3.2 km/h
327 11-02-2021 03:10:00 -3.2 C 3.29 g/m*3 -3.2 C 0 km/h
328 11-02-2021 03:15:00 -3.2 C 3.33 g/m*3 -3.2 C 0 km/h
329 11-02-2021 03:20:00 -3.2 C 3.33 g/m*3 -3.2 C 1.6 km/h
330 11-02-2021 03:25:00 -3.2 C 3.33 g/m*3 -3.2 C 3.2 km/h
331 11-02-2021 03:30:00 -3.3 C 3.31 g/m*3 -3.3 C 4.8 km/h
332 11-02-2021 03:35:00 -3.3 C 3.31 g/m*3 -3.3 C 0 km/h
333 11-02-2021 03:40:00 -3.3 C 3.31 g/m*3 -3.3 C 3.2 km/h
334 11-02-2021 03:45:00 -3.4 C 3.28 g/m*3 -3.4 C 1.6 km/h
335 11-02-2021 03:50:00 -3.4 C 3.28 g/m*3 -6.11 C 6.4 km/h
336 11-02-2021 03:55:00 -3.4 C 3.28 g/m*3 -3.4 C 4.8 km/h
337 11-02-2021 04:00:00 -3.4 C 3.28 g/m*3 -6.11 C 6.4 km/h
338 11-02-2021 04:05:00 -3.4 C 3.28 g/m*3 -6.11 C 6.4 km/h
339 11-02-2021 04:10:00 -3.5 C 3.26 g/m*3 -3.5 C 4.8 km/h
340 11-02-2021 04:15:00 -3.5 C 3.26 g/m*3 -6.22 C 6.4 km/h
341 11-02-2021 04:20:00 -3.6 C 3.24 g/m*3 -3.6 C 4.8 km/h
342 11-02-2021 04:25:00 -3.6 C 3.24 g/m*3 -3.6 C 4.8 km/h
343 11-02-2021 04:30:00 -3.7 C 3.21 g/m*3 -3.7 C 3.2 km/h
344 11-02-2021 04:35:00 -3.7 C 3.21 g/m*3 -3.7 C 4.8 km/h
345 11-02-2021 04:40:00 -3.8 C 3.19 g/m*3 -7.24 C 8.1 km/h
346 11-02-2021 04:45:00 -3.8 C 3.23 g/m*3 -3.8 C 4.8 km/h
347 11-02-2021 04:50:00 -3.8 C 3.23 g/m*3 -3.8 C 4.8 km/h
348 11-02-2021 04:55:00 -3.9 C 3.21 g/m*3 -6.69 C 6.4 km/h
349 11-02-2021 05:00:00 -3.9 C 3.21 g/m*3 -3.9 C 4.8 km/h
350 11-02-2021 05:05:00 -4 C 3.18 g/m*3 -4 C 0 km/h
Sensor: Nr:Datum:Temp:Abs-Feuchte:Windchill:Wind:
Aussen-T/F 351 11-02-2021 05:10:00 -4.1 C 3.16 g/m*3 -4.1 C 1.6 km/h
352 11-02-2021 05:15:00 -4.2 C 3.14 g/m*3 -4.2 C 3.2 km/h
353 11-02-2021 05:20:00 -4.2 C 3.17 g/m*3 -4.2 C 1.6 km/h
354 11-02-2021 05:25:00 -4.2 C 3.17 g/m*3 -4.2 C 3.2 km/h
355 11-02-2021 05:30:00 -4.3 C 3.15 g/m*3 -4.3 C 0 km/h
356 11-02-2021 05:35:00 -4.3 C 3.15 g/m*3 -4.3 C 1.6 km/h
357 11-02-2021 05:40:00 -4.3 C 3.15 g/m*3 -4.3 C 0 km/h
358 11-02-2021 05:45:00 -4.3 C 3.19 g/m*3 -4.3 C 0 km/h
359 11-02-2021 05:50:00 -4.3 C 3.19 g/m*3 -4.3 C 0 km/h
360 11-02-2021 05:55:00 -4.3 C 3.19 g/m*3 -4.3 C 1.6 km/h
361 11-02-2021 06:00:00 -4.3 C 3.19 g/m*3 -4.3 C 1.6 km/h
362 11-02-2021 06:05:00 -4.4 C 3.13 g/m*3 -4.4 C 1.6 km/h
363 11-02-2021 06:10:00 -4.4 C 3.16 g/m*3 -4.4 C 1.6 km/h
364 11-02-2021 06:15:00 -4.5 C 3.14 g/m*3 -4.5 C 0 km/h
365 11-02-2021 06:20:00 -4.6 C 3.08 g/m*3 -4.6 C 0 km/h
366 11-02-2021 06:25:00 -4.7 C 3.06 g/m*3 -4.7 C 1.6 km/h
367 11-02-2021 06:30:00 -4.8 C 3.04 g/m*3 -4.8 C 1.6 km/h
368 11-02-2021 06:35:00 -5 C 3 g/m*3 -5 C 1.6 km/h
369 11-02-2021 06:40:00 -5.2 C 2.95 g/m*3 -5.2 C 3.2 km/h
370 11-02-2021 06:45:00 -5.2 C 2.99 g/m*3 -5.2 C 3.2 km/h
371 11-02-2021 06:50:00 -5.3 C 2.97 g/m*3 -5.3 C 1.6 km/h
372 11-02-2021 06:55:00 -5.4 C 2.94 g/m*3 -5.4 C 1.6 km/h
373 11-02-2021 07:00:00 -5.4 C 2.98 g/m*3 -5.4 C 0 km/h
374 11-02-2021 07:05:00 -5.5 C 2.96 g/m*3 -5.5 C 3.2 km/h
375 11-02-2021 07:10:00 -5.6 C 2.93 g/m*3 -5.6 C 0 km/h
Sensor: Nr:Datum:Temp:Abs-Feuchte:Windchill:Wind:
Aussen-T/F 376 11-02-2021 07:15:00 -5.7 C 2.91 g/m*3 -5.7 C 0 km/h
377 11-02-2021 07:20:00 -5.8 C 2.89 g/m*3 -5.8 C 0 km/h
378 11-02-2021 07:25:00 -5.8 C 2.89 g/m*3 -5.8 C 0 km/h
379 11-02-2021 07:30:00 -5.9 C 2.87 g/m*3 -5.9 C 0 km/h
380 11-02-2021 07:35:00 -6 C 2.85 g/m*3 -6 C 3.2 km/h
381 11-02-2021 07:40:00 -6.1 C 2.83 g/m*3 -6.1 C 1.6 km/h
382 11-02-2021 07:45:00 -6.1 C 2.83 g/m*3 -6.1 C 3.2 km/h
383 11-02-2021 07:50:00 -6.2 C 2.81 g/m*3 -6.2 C 1.6 km/h
384 11-02-2021 07:55:00 -6.3 C 2.79 g/m*3 -6.3 C 1.6 km/h
385 11-02-2021 08:00:00 -6.3 C 2.82 g/m*3 -6.3 C 1.6 km/h
386 11-02-2021 08:05:00 -6.4 C 2.8 g/m*3 -6.4 C 0 km/h
387 11-02-2021 08:10:00 -6.4 C 2.8 g/m*3 -6.4 C 0 km/h
388 11-02-2021 08:15:00 -6.5 C 2.78 g/m*3 -6.5 C 1.6 km/h
389 11-02-2021 08:20:00 -6.5 C 2.78 g/m*3 -6.5 C 3.2 km/h
390 11-02-2021 08:25:00 -6.5 C 2.78 g/m*3 -6.5 C 1.6 km/h
391 11-02-2021 08:30:00 -6.4 C 2.8 g/m*3 -6.4 C 1.6 km/h
392 11-02-2021 08:35:00 -6.3 C 2.85 g/m*3 -6.3 C 0 km/h
393 11-02-2021 08:40:00 -6.3 C 2.85 g/m*3 -6.3 C 0 km/h
394 11-02-2021 08:45:00 -6.2 C 2.87 g/m*3 -6.2 C 0 km/h
395 11-02-2021 08:50:00 -6.2 C 2.87 g/m*3 -6.2 C 0 km/h
396 11-02-2021 08:55:00 -6.2 C 2.87 g/m*3 -6.2 C 0 km/h
397 11-02-2021 09:00:00 -6.2 C 2.87 g/m*3 -6.2 C 0 km/h
398 11-02-2021 09:05:00 -6.2 C 2.87 g/m*3 -6.2 C 0 km/h
399 11-02-2021 09:10:00 -6.2 C 2.87 g/m*3 -6.2 C 1.6 km/h
400 11-02-2021 09:15:00 -6.2 C 2.87 g/m*3 -6.2 C 1.6 km/h
Sensor: Nr:Datum:Temp:Abs-Feuchte:Windchill:Wind:
Aussen-T/F 401 11-02-2021 09:20:00 -6.2 C 2.87 g/m*3 -6.2 C 0 km/h
402 11-02-2021 09:25:00 -6.2 C 2.87 g/m*3 -6.2 C 1.6 km/h
403 11-02-2021 09:30:00 -6.2 C 2.87 g/m*3 -6.2 C 0 km/h
404 11-02-2021 09:35:00 -6.2 C 2.87 g/m*3 -6.2 C 3.2 km/h
405 11-02-2021 09:40:00 -6.1 C 2.89 g/m*3 -6.1 C 0 km/h
406 11-02-2021 09:45:00 -6 C 2.91 g/m*3 -6 C 0 km/h
407 11-02-2021 09:50:00 -5.9 C 2.93 g/m*3 -5.9 C 1.6 km/h
408 11-02-2021 09:55:00 -5.8 C 2.96 g/m*3 -5.8 C 0 km/h
409 11-02-2021 10:00:00 -5.8 C 2.96 g/m*3 -5.8 C 0 km/h
410 11-02-2021 10:05:00 -5.7 C 2.98 g/m*3 -5.7 C 0 km/h
411 11-02-2021 10:10:00 -5.7 C 2.98 g/m*3 -5.7 C 1.6 km/h
412 11-02-2021 10:15:00 -5.6 C 3 g/m*3 -5.6 C 1.6 km/h
413 11-02-2021 10:20:00 -5.6 C 3 g/m*3 -5.6 C 0 km/h
414 11-02-2021 10:25:00 -5.6 C 3 g/m*3 -5.6 C 1.6 km/h
415 11-02-2021 10:30:00 -5.6 C 3 g/m*3 -5.6 C 1.6 km/h
416 11-02-2021 10:35:00 -5.5 C 3.02 g/m*3 -5.5 C 1.6 km/h
417 11-02-2021 10:40:00 -5.5 C 3.02 g/m*3 -5.5 C 1.6 km/h
418 11-02-2021 10:45:00 -5.4 C 3.04 g/m*3 -5.4 C 1.6 km/h
419 11-02-2021 10:50:00 -5.3 C 3.07 g/m*3 -5.3 C 0 km/h
420 11-02-2021 10:55:00 -5.3 C 3.07 g/m*3 -5.3 C 3.2 km/h
421 11-02-2021 11:00:00 -5.2 C 3.09 g/m*3 -5.2 C 3.2 km/h
422 11-02-2021 11:05:00 -5.2 C 3.09 g/m*3 -5.2 C 1.6 km/h
423 11-02-2021 11:10:00 -5.1 C 3.11 g/m*3 -5.1 C 3.2 km/h
424 11-02-2021 11:15:00 -4.9 C 3.16 g/m*3 -4.9 C 4.8 km/h
425 11-02-2021 11:20:00 -4.7 C 3.2 g/m*3 -4.7 C 3.2 km/h
Sensor: Nr:Datum:Temp:Abs-Feuchte:Windchill:Wind:
Aussen-T/F 426 11-02-2021 11:25:00 -4.5 C 3.25 g/m*3 -4.5 C 3.2 km/h
427 11-02-2021 11:30:00 -4.3 C 3.29 g/m*3 -4.3 C 3.2 km/h
428 11-02-2021 11:35:00 -4.2 C 3.32 g/m*3 -4.2 C 4.8 km/h
429 11-02-2021 11:40:00 -3.9 C 3.39 g/m*3 -3.9 C 3.2 km/h
430 11-02-2021 11:45:00 -3.8 C 3.38 g/m*3 -3.8 C 0 km/h
431 11-02-2021 11:50:00 -3.7 C 3.4 g/m*3 -3.7 C 0 km/h
432 11-02-2021 11:55:00 -3.6 C 3.43 g/m*3 -3.6 C 0 km/h
433 11-02-2021 12:00:00 -3.5 C 3.41 g/m*3 -3.5 C 0 km/h
434 11-02-2021 12:05:00 -3.4 C 3.44 g/m*3 -3.4 C 0 km/h
435 11-02-2021 12:10:00 -3.3 C 3.46 g/m*3 -3.3 C 0 km/h
436 11-02-2021 12:15:00 -3.2 C 3.49 g/m*3 -3.2 C 0 km/h
437 11-02-2021 12:20:00 -3 C 3.5 g/m*3 -3 C 0 km/h
438 11-02-2021 12:25:00 -2.9 C 3.52 g/m*3 -2.9 C 0 km/h
439 11-02-2021 12:30:00 -2.8 C 3.55 g/m*3 -2.8 C 0 km/h
440 11-02-2021 12:35:00 -2.8 C 3.55 g/m*3 -2.8 C 0 km/h
441 11-02-2021 12:40:00 -2.7 C 3.57 g/m*3 -2.7 C 0 km/h
442 11-02-2021 12:45:00 -2.5 C 3.62 g/m*3 -2.5 C 0 km/h
443 11-02-2021 12:50:00 -2.4 C 3.65 g/m*3 -2.4 C 0 km/h
444 11-02-2021 12:55:00 -2.2 C 3.7 g/m*3 -2.2 C 0 km/h
445 11-02-2021 13:00:00 -2.1 C 3.68 g/m*3 -2.1 C 0 km/h
446 11-02-2021 13:05:00 -1.9 C 3.69 g/m*3 -1.9 C 0 km/h
447 11-02-2021 13:10:00 -1.7 C 3.62 g/m*3 -1.7 C 0 km/h
448 11-02-2021 13:15:00 -1.5 C 3.58 g/m*3 -1.5 C 0 km/h
449 11-02-2021 13:20:00 -1.3 C 3.67 g/m*3 -1.3 C 0 km/h
450 11-02-2021 13:25:00 -1.1 C 3.59 g/m*3 -1.1 C 3.2 km/h
Sensor: Nr:Datum:Temp:Abs-Feuchte:Windchill:Wind:
Aussen-T/F 451 11-02-2021 13:30:00 -0.8 C 3.58 g/m*3 -0.8 C 1.6 km/h
452 11-02-2021 13:35:00 -0.7 C 3.46 g/m*3 -0.7 C 3.2 km/h
453 11-02-2021 13:40:00 -0.5 C 3.46 g/m*3 -0.5 C 3.2 km/h
454 11-02-2021 13:45:00 -0.4 C 3.44 g/m*3 -0.4 C 4.8 km/h
455 11-02-2021 13:50:00 -0.3 C 3.46 g/m*3 -0.3 C 4.8 km/h
456 11-02-2021 13:55:00 -0.2 C 3.44 g/m*3 -2.41 C 6.4 km/h
457 11-02-2021 14:00:00 -0.2 C 3.44 g/m*3 -3 C 8.1 km/h
458 11-02-2021 14:05:00 -0.2 C 3.39 g/m*3 -3 C 8.1 km/h
459 11-02-2021 14:10:00 -0.2 C 3.39 g/m*3 -3 C 8.1 km/h
460 11-02-2021 14:15:00 -0.2 C 3.35 g/m*3 -3 C 8.1 km/h
461 11-02-2021 14:20:00 -0.1 C 3.42 g/m*3 -0.1 C 4.8 km/h
462 11-02-2021 14:25:00 -0.1 C 3.37 g/m*3 -0.1 C 1.6 km/h
463 11-02-2021 14:30:00 0 C 3.39 g/m*3 0 C 4.8 km/h
464 11-02-2021 14:35:00 0.2 C 3.44 g/m*3 -1.95 C 6.4 km/h
465 11-02-2021 14:40:00 0.3 C 3.36 g/m*3 -2.88 C 9.7 km/h
466 11-02-2021 14:45:00 0.3 C 3.31 g/m*3 -2.42 C 8.1 km/h
467 11-02-2021 14:50:00 0.3 C 3.31 g/m*3 -1.84 C 6.4 km/h
468 11-02-2021 14:55:00 0.3 C 3.36 g/m*3 -1.84 C 6.4 km/h
469 11-02-2021 15:00:00 0.3 C 3.36 g/m*3 0.3 C 4.8 km/h
470 11-02-2021 15:05:00 0.4 C 3.39 g/m*3 -1.72 C 6.4 km/h
471 11-02-2021 15:10:00 0.6 C 3.53 g/m*3 -2.52 C 9.7 km/h
472 11-02-2021 15:15:00 0.6 C 3.48 g/m*3 -1.49 C 6.4 km/h
473 11-02-2021 15:20:00 0.6 C 3.43 g/m*3 0.6 C 4.8 km/h
474 11-02-2021 15:25:00 0.7 C 3.2 g/m*3 0.7 C 4.8 km/h
475 11-02-2021 15:30:00 0.7 C 3.1 g/m*3 0.7 C 4.8 km/h
Sensor: Nr:Datum:Temp:Abs-Feuchte:Windchill:Wind:
Aussen-T/F 476 11-02-2021 15:35:00 0.7 C 3.1 g/m*3 0.7 C 4.8 km/h
477 11-02-2021 15:40:00 0.7 C 3.25 g/m*3 0.7 C 4.8 km/h
478 11-02-2021 15:45:00 0.6 C 3.13 g/m*3 -1.49 C 6.4 km/h
479 11-02-2021 15:50:00 0.4 C 3.09 g/m*3 0.4 C 4.8 km/h
480 11-02-2021 15:55:00 0.3 C 3.07 g/m*3 -1.84 C 6.4 km/h
481 11-02-2021 16:00:00 0.2 C 3.19 g/m*3 0.2 C 1.6 km/h
482 11-02-2021 16:05:00 0.1 C 3.17 g/m*3 0.1 C 0 km/h
483 11-02-2021 16:10:00 0.1 C 3.27 g/m*3 0.1 C 0 km/h
484 11-02-2021 16:15:00 -0.1 C 3.32 g/m*3 -0.1 C 0 km/h
485 11-02-2021 16:20:00 -0.2 C 3.3 g/m*3 -0.2 C 1.6 km/h
486 11-02-2021 16:25:00 -0.3 C 3.32 g/m*3 -0.3 C 0 km/h
487 11-02-2021 16:30:00 -0.4 C 3.3 g/m*3 -0.4 C 1.6 km/h
488 11-02-2021 16:35:00 -0.5 C 3.32 g/m*3 -0.5 C 1.6 km/h
489 11-02-2021 16:40:00 -0.6 C 3.39 g/m*3 -0.6 C 3.2 km/h
490 11-02-2021 16:45:00 -0.7 C 3.37 g/m*3 -0.7 C 3.2 km/h
491 11-02-2021 16:50:00 -0.8 C 3.35 g/m*3 -0.8 C 1.6 km/h
492 11-02-2021 16:55:00 -0.8 C 3.35 g/m*3 -0.8 C 3.2 km/h
493 11-02-2021 17:00:00 -0.8 C 3.25 g/m*3 -0.8 C 1.6 km/h
494 11-02-2021 17:05:00 -0.8 C 3.39 g/m*3 -0.8 C 4.8 km/h
495 11-02-2021 17:10:00 -0.8 C 3.44 g/m*3 -0.8 C 3.2 km/h
496 11-02-2021 17:15:00 -0.9 C 3.46 g/m*3 -0.9 C 4.8 km/h
497 11-02-2021 17:20:00 -1 C 3.44 g/m*3 -1 C 4.8 km/h
498 11-02-2021 17:25:00 -1.1 C 3.46 g/m*3 -1.1 C 3.2 km/h
499 11-02-2021 17:30:00 -1.2 C 3.43 g/m*3 -1.2 C 3.2 km/h
500 11-02-2021 17:35:00 -1.3 C 3.41 g/m*3 -1.3 C 3.2 km/h
Sensor: Nr:Datum:Temp:Abs-Feuchte:Windchill:Wind:
Aussen-T/F 501 11-02-2021 17:40:00 -1.5 C 3.41 g/m*3 -1.5 C 3.2 km/h
502 11-02-2021 17:45:00 -1.7 C 3.36 g/m*3 -1.7 C 3.2 km/h
503 11-02-2021 17:50:00 -1.8 C 3.38 g/m*3 -1.8 C 3.2 km/h
504 11-02-2021 17:55:00 -1.9 C 3.4 g/m*3 -1.9 C 3.2 km/h
505 11-02-2021 18:00:00 -2 C 3.37 g/m*3 -2 C 3.2 km/h
506 11-02-2021 18:05:00 -2.1 C 3.39 g/m*3 -2.1 C 0 km/h
507 11-02-2021 18:10:00 -2.1 C 3.39 g/m*3 -2.1 C 0 km/h
508 11-02-2021 18:15:00 -2.1 C 3.39 g/m*3 -2.1 C 0 km/h
509 11-02-2021 18:20:00 -2.2 C 3.41 g/m*3 -2.2 C 4.8 km/h
510 11-02-2021 18:25:00 -2.2 C 3.41 g/m*3 -2.2 C 3.2 km/h
511 11-02-2021 18:30:00 -2.2 C 3.45 g/m*3 -2.2 C 3.2 km/h
512 11-02-2021 18:35:00 -2.2 C 3.45 g/m*3 -2.2 C 3.2 km/h
513 11-02-2021 18:40:00 -2.2 C 3.45 g/m*3 -2.2 C 1.6 km/h
514 11-02-2021 18:45:00 -2.3 C 3.43 g/m*3 -2.3 C 3.2 km/h
515 11-02-2021 18:50:00 -2.3 C 3.43 g/m*3 -2.3 C 3.2 km/h
516 11-02-2021 18:55:00 -2.4 C 3.4 g/m*3 -2.4 C 4.8 km/h
517 11-02-2021 19:00:00 -2.4 C 3.4 g/m*3 -2.4 C 3.2 km/h
518 11-02-2021 19:05:00 -2.6 C 3.35 g/m*3 -2.6 C 4.8 km/h
519 11-02-2021 19:10:00 -2.6 C 3.35 g/m*3 -2.6 C 4.8 km/h
520 11-02-2021 19:15:00 -2.7 C 3.33 g/m*3 -2.7 C 3.2 km/h
521 11-02-2021 19:20:00 -2.7 C 3.33 g/m*3 -5.3 C 6.4 km/h
522 11-02-2021 19:25:00 -2.7 C 3.33 g/m*3 -2.7 C 4.8 km/h
523 11-02-2021 19:30:00 -2.8 C 3.31 g/m*3 -2.8 C 3.2 km/h
524 11-02-2021 19:35:00 -2.8 C 3.31 g/m*3 -2.8 C 4.8 km/h
525 11-02-2021 19:40:00 -2.9 C 3.28 g/m*3 -2.9 C 4.8 km/h
Sensor: Nr:Datum:Temp:Abs-Feuchte:Windchill:Wind:
Aussen-T/F 526 11-02-2021 19:45:00 -3.1 C 3.24 g/m*3 -3.1 C 3.2 km/h
527 11-02-2021 19:50:00 -3.2 C 3.21 g/m*3 -3.2 C 3.2 km/h
528 11-02-2021 19:55:00 -3.3 C 3.19 g/m*3 -3.3 C 3.2 km/h
529 11-02-2021 20:00:00 -3.5 C 3.15 g/m*3 -3.5 C 4.8 km/h
530 11-02-2021 20:05:00 -3.7 C 3.14 g/m*3 -3.7 C 3.2 km/h
531 11-02-2021 20:10:00 -3.8 C 3.12 g/m*3 -3.8 C 4.8 km/h
532 11-02-2021 20:15:00 -3.9 C 3.09 g/m*3 -3.9 C 4.8 km/h
533 11-02-2021 20:20:00 -4 C 3.07 g/m*3 -4 C 4.8 km/h
534 11-02-2021 20:25:00 -4.1 C 3.09 g/m*3 -4.1 C 3.2 km/h
535 11-02-2021 20:30:00 -4.2 C 3.07 g/m*3 -4.2 C 4.8 km/h
536 11-02-2021 20:35:00 -4.2 C 3.07 g/m*3 -4.2 C 4.8 km/h
537 11-02-2021 20:40:00 -4.1 C 3.12 g/m*3 -6.92 C 6.4 km/h
538 11-02-2021 20:45:00 -4.1 C 3.09 g/m*3 -4.1 C 3.2 km/h
539 11-02-2021 20:50:00 -3.9 C 3.13 g/m*3 -3.9 C 1.6 km/h
540 11-02-2021 20:55:00 -3.9 C 3.17 g/m*3 -3.9 C 4.8 km/h
541 11-02-2021 21:00:00 -3.8 C 3.19 g/m*3 -3.8 C 3.2 km/h
542 11-02-2021 21:05:00 -3.8 C 3.19 g/m*3 -3.8 C 3.2 km/h
543 11-02-2021 21:10:00 -3.7 C 3.18 g/m*3 -3.7 C 0 km/h
544 11-02-2021 21:15:00 -3.7 C 3.18 g/m*3 -3.7 C 3.2 km/h
545 11-02-2021 21:20:00 -3.6 C 3.24 g/m*3 -3.6 C 1.6 km/h
546 11-02-2021 21:25:00 -3.6 C 3.2 g/m*3 -3.6 C 4.8 km/h
547 11-02-2021 21:30:00 -3.6 C 3.2 g/m*3 -3.6 C 0 km/h
548 11-02-2021 21:35:00 -3.7 C 3.18 g/m*3 -3.7 C 3.2 km/h
549 11-02-2021 21:40:00 -3.7 C 3.18 g/m*3 -3.7 C 0 km/h
550 11-02-2021 21:45:00 -3.7 C 3.18 g/m*3 -3.7 C 4.8 km/h
Sensor: Nr:Datum:Temp:Abs-Feuchte:Windchill:Wind:
Aussen-T/F 551 11-02-2021 21:50:00 -3.7 C 3.18 g/m*3 -3.7 C 1.6 km/h
552 11-02-2021 21:55:00 -3.7 C 3.18 g/m*3 -3.7 C 1.6 km/h
553 11-02-2021 22:00:00 -3.7 C 3.21 g/m*3 -3.7 C 1.6 km/h
554 11-02-2021 22:05:00 -3.7 C 3.21 g/m*3 -3.7 C 0 km/h
555 11-02-2021 22:10:00 -3.7 C 3.21 g/m*3 -3.7 C 0 km/h
556 11-02-2021 22:15:00 -3.8 C 3.19 g/m*3 -3.8 C 4.8 km/h
557 11-02-2021 22:20:00 -3.9 C 3.17 g/m*3 -3.9 C 3.2 km/h
558 11-02-2021 22:25:00 -3.9 C 3.17 g/m*3 -3.9 C 1.6 km/h
559 11-02-2021 22:30:00 -4 C 3.15 g/m*3 -4 C 0 km/h
560 11-02-2021 22:35:00 -4.1 C 3.16 g/m*3 -6.92 C 6.4 km/h
561 11-02-2021 22:40:00 -4 C 3.18 g/m*3 -4 C 4.8 km/h
562 11-02-2021 22:45:00 -3.8 C 3.19 g/m*3 -3.8 C 3.2 km/h
563 11-02-2021 22:50:00 -3.7 C 3.18 g/m*3 -3.7 C 4.8 km/h
564 11-02-2021 22:55:00 -3.8 C 3.15 g/m*3 -3.8 C 3.2 km/h
565 11-02-2021 23:00:00 -3.8 C 3.12 g/m*3 -6.57 C 6.4 km/h
566 11-02-2021 23:05:00 -3.9 C 3.09 g/m*3 -3.9 C 4.8 km/h
567 11-02-2021 23:10:00 -3.9 C 3.09 g/m*3 -3.9 C 3.2 km/h
568 11-02-2021 23:15:00 -4.1 C 3.05 g/m*3 -4.1 C 3.2 km/h
569 11-02-2021 23:20:00 -4.2 C 3.03 g/m*3 -4.2 C 4.8 km/h
570 11-02-2021 23:25:00 -4.2 C 2.99 g/m*3 -7.71 C 8.1 km/h
571 11-02-2021 23:30:00 -4.2 C 2.96 g/m*3 -7.03 C 6.4 km/h
572 11-02-2021 23:35:00 -4.2 C 2.96 g/m*3 -4.2 C 1.6 km/h
573 11-02-2021 23:40:00 -4.3 C 2.9 g/m*3 -7.15 C 6.4 km/h
574 11-02-2021 23:45:00 -4.4 C 2.88 g/m*3 -4.4 C 3.2 km/h
575 11-02-2021 23:50:00 -4.5 C 2.86 g/m*3 -4.5 C 3.2 km/h
Sensor: Nr:Datum:Temp:Abs-Feuchte:Windchill:Wind:
Aussen-T/F 576 11-02-2021 23:55:00 -4.6 C 2.84 g/m*3 -4.6 C 1.6 km/h
577 12-02-2021 00:00:00 -4.7 C 2.78 g/m*3 -7.61 C 6.4 km/h
578 12-02-2021 00:05:00 -4.7 C 2.82 g/m*3 -4.7 C 3.2 km/h
579 12-02-2021 00:10:00 -4.8 C 2.8 g/m*3 -4.8 C 4.8 km/h
580 12-02-2021 00:15:00 -4.9 C 2.78 g/m*3 -9.07 C 9.7 km/h
581 12-02-2021 00:20:00 -5 C 2.76 g/m*3 -5 C 0 km/h
582 12-02-2021 00:25:00 -5.1 C 2.74 g/m*3 -5.1 C 4.8 km/h
583 12-02-2021 00:30:00 -5.1 C 2.77 g/m*3 -5.1 C 0 km/h
584 12-02-2021 00:35:00 -5.2 C 2.75 g/m*3 -5.2 C 3.2 km/h
585 12-02-2021 00:40:00 -5.2 C 2.75 g/m*3 -5.2 C 4.8 km/h
586 12-02-2021 00:45:00 -5 C 2.76 g/m*3 -8.65 C 8.1 km/h
587 12-02-2021 00:50:00 -4.8 C 2.76 g/m*3 -8.96 C 9.7 km/h
588 12-02-2021 00:55:00 -4.8 C 2.76 g/m*3 -4.8 C 1.6 km/h
589 12-02-2021 01:00:00 -4.9 C 2.74 g/m*3 -4.9 C 3.2 km/h
590 12-02-2021 01:05:00 -5.1 C 2.74 g/m*3 -5.1 C 1.6 km/h
591 12-02-2021 01:10:00 -5.2 C 2.72 g/m*3 -5.2 C 1.6 km/h
592 12-02-2021 01:15:00 -5.3 C 2.7 g/m*3 -8.3 C 6.4 km/h
593 12-02-2021 01:20:00 -5.4 C 2.71 g/m*3 -5.4 C 3.2 km/h
594 12-02-2021 01:25:00 -5.4 C 2.71 g/m*3 -5.4 C 4.8 km/h
595 12-02-2021 01:30:00 -5.3 C 2.73 g/m*3 -5.3 C 3.2 km/h
596 12-02-2021 01:35:00 -5.4 C 2.71 g/m*3 -5.4 C 1.6 km/h
597 12-02-2021 01:40:00 -5.4 C 2.71 g/m*3 -5.4 C 0 km/h
598 12-02-2021 01:45:00 -5.6 C 2.67 g/m*3 -5.6 C 1.6 km/h
599 12-02-2021 01:50:00 -5.7 C 2.65 g/m*3 -5.7 C 1.6 km/h
600 12-02-2021 01:55:00 -5.8 C 2.64 g/m*3 -5.8 C 3.2 km/h
Sensor: Nr:Datum:Temp:Abs-Feuchte:Windchill:Wind:
Aussen-T/F 601 12-02-2021 02:00:00 -5.9 C 2.65 g/m*3 -5.9 C 1.6 km/h
602 12-02-2021 02:05:00 -6.1 C 2.61 g/m*3 -6.1 C 3.2 km/h
603 12-02-2021 02:10:00 -6.2 C 2.62 g/m*3 -6.2 C 0 km/h
604 12-02-2021 02:15:00 -6.3 C 2.6 g/m*3 -6.3 C 3.2 km/h
605 12-02-2021 02:20:00 -6.4 C 2.61 g/m*3 -6.4 C 3.2 km/h
606 12-02-2021 02:25:00 -6.4 C 2.61 g/m*3 -6.4 C 1.6 km/h
607 12-02-2021 02:30:00 -6.6 C 2.58 g/m*3 -6.6 C 4.8 km/h
608 12-02-2021 02:35:00 -6.6 C 2.61 g/m*3 -6.6 C 3.2 km/h
609 12-02-2021 02:40:00 -6.7 C 2.59 g/m*3 -6.7 C 1.6 km/h
610 12-02-2021 02:45:00 -6.8 C 2.57 g/m*3 -6.8 C 1.6 km/h
611 12-02-2021 02:50:00 -6.8 C 2.57 g/m*3 -6.8 C 1.6 km/h
612 12-02-2021 02:55:00 -6.8 C 2.6 g/m*3 -6.8 C 0 km/h
613 12-02-2021 03:00:00 -6.7 C 2.62 g/m*3 -6.7 C 1.6 km/h
614 12-02-2021 03:05:00 -6.7 C 2.62 g/m*3 -6.7 C 3.2 km/h
615 12-02-2021 03:10:00 -6.8 C 2.57 g/m*3 -6.8 C 1.6 km/h
616 12-02-2021 03:15:00 -6.9 C 2.58 g/m*3 -6.9 C 1.6 km/h
617 12-02-2021 03:20:00 -6.9 C 2.58 g/m*3 -6.9 C 3.2 km/h
618 12-02-2021 03:25:00 -6.9 C 2.58 g/m*3 -6.9 C 3.2 km/h
619 12-02-2021 03:30:00 -6.9 C 2.58 g/m*3 -6.9 C 1.6 km/h
620 12-02-2021 03:35:00 -6.9 C 2.61 g/m*3 -10.88 C 8.1 km/h
621 12-02-2021 03:40:00 -6.9 C 2.61 g/m*3 -6.9 C 1.6 km/h
622 12-02-2021 03:45:00 -6.9 C 2.61 g/m*3 -6.9 C 4.8 km/h
623 12-02-2021 03:50:00 -6.8 C 2.63 g/m*3 -6.8 C 3.2 km/h
624 12-02-2021 03:55:00 -6.6 C 2.67 g/m*3 -6.6 C 3.2 km/h
625 12-02-2021 04:00:00 -6.4 C 2.71 g/m*3 -6.4 C 1.6 km/h
Sensor: Nr:Datum:Temp:Abs-Feuchte:Windchill:Wind:
Aussen-T/F 626 12-02-2021 04:05:00 -6.3 C 2.73 g/m*3 -6.3 C 1.6 km/h
627 12-02-2021 04:10:00 -6.1 C 2.74 g/m*3 -6.1 C 3.2 km/h
628 12-02-2021 04:15:00 -6 C 2.76 g/m*3 -6 C 1.6 km/h
629 12-02-2021 04:20:00 -6 C 2.76 g/m*3 -6 C 0 km/h
630 12-02-2021 04:25:00 -6.1 C 2.74 g/m*3 -6.1 C 3.2 km/h
631 12-02-2021 04:30:00 -6.1 C 2.74 g/m*3 -6.1 C 1.6 km/h
632 12-02-2021 04:35:00 -6 C 2.76 g/m*3 -6 C 1.6 km/h
633 12-02-2021 04:40:00 -6 C 2.76 g/m*3 -9.11 C 6.4 km/h
634 12-02-2021 04:45:00 -5.9 C 2.78 g/m*3 -5.9 C 0 km/h
635 12-02-2021 04:50:00 -5.8 C 2.8 g/m*3 -5.8 C 4.8 km/h
636 12-02-2021 04:55:00 -5.7 C 2.78 g/m*3 -8.77 C 6.4 km/h
637 12-02-2021 05:00:00 -5.5 C 2.82 g/m*3 -8.54 C 6.4 km/h
638 12-02-2021 05:05:00 -5.4 C 2.81 g/m*3 -9.12 C 8.1 km/h
639 12-02-2021 05:10:00 -5.3 C 2.83 g/m*3 -8.3 C 6.4 km/h
640 12-02-2021 05:15:00 -5.3 C 2.8 g/m*3 -9.55 C 9.7 km/h
641 12-02-2021 05:20:00 -5.2 C 2.82 g/m*3 -8.88 C 8.1 km/h
642 12-02-2021 05:25:00 -5.2 C 2.82 g/m*3 -8.88 C 8.1 km/h
643 12-02-2021 05:30:00 -5.2 C 2.82 g/m*3 -9.43 C 9.7 km/h
644 12-02-2021 05:35:00 -5.2 C 2.79 g/m*3 -8.19 C 6.4 km/h
645 12-02-2021 05:40:00 -5.2 C 2.82 g/m*3 -8.19 C 6.4 km/h
646 12-02-2021 05:45:00 -5.3 C 2.77 g/m*3 -5.3 C 4.8 km/h
647 12-02-2021 05:50:00 -5.3 C 2.8 g/m*3 -5.3 C 1.6 km/h
648 12-02-2021 05:55:00 -5.4 C 2.78 g/m*3 -5.4 C 3.2 km/h
649 12-02-2021 06:00:00 -5.4 C 2.78 g/m*3 -5.4 C 3.2 km/h
650 12-02-2021 06:05:00 -5.5 C 2.76 g/m*3 -8.54 C 6.4 km/h
Sensor: Nr:Datum:Temp:Abs-Feuchte:Windchill:Wind:
Aussen-T/F 651 12-02-2021 06:10:00 -5.6 C 2.74 g/m*3 -9.35 C 8.1 km/h
652 12-02-2021 06:15:00 -5.6 C 2.74 g/m*3 -5.6 C 1.6 km/h
653 12-02-2021 06:20:00 -5.7 C 2.75 g/m*3 -5.7 C 0 km/h
654 12-02-2021 06:25:00 -5.7 C 2.75 g/m*3 -5.7 C 1.6 km/h
655 12-02-2021 06:30:00 -5.8 C 2.73 g/m*3 -5.8 C 0 km/h
656 12-02-2021 06:35:00 -5.9 C 2.71 g/m*3 -5.9 C 0 km/h
657 12-02-2021 06:40:00 -6 C 2.69 g/m*3 -6 C 0 km/h
658 12-02-2021 06:45:00 -6.1 C 2.7 g/m*3 -6.1 C 0 km/h
659 12-02-2021 06:50:00 -6.2 C 2.68 g/m*3 -6.2 C 0 km/h
660 12-02-2021 06:55:00 -6.3 C 2.66 g/m*3 -6.3 C 0 km/h
661 12-02-2021 07:00:00 -6.4 C 2.65 g/m*3 -6.4 C 1.6 km/h
662 12-02-2021 07:05:00 -6.5 C 2.63 g/m*3 -6.5 C 3.2 km/h
663 12-02-2021 07:10:00 -6.6 C 2.61 g/m*3 -6.6 C 3.2 km/h
664 12-02-2021 07:15:00 -6.7 C 2.62 g/m*3 -6.7 C 1.6 km/h
665 12-02-2021 07:20:00 -6.7 C 2.62 g/m*3 -6.7 C 1.6 km/h
666 12-02-2021 07:25:00 -6.8 C 2.6 g/m*3 -6.8 C 0 km/h
667 12-02-2021 07:30:00 -6.8 C 2.6 g/m*3 -6.8 C 0 km/h
668 12-02-2021 07:35:00 -6.9 C 2.58 g/m*3 -6.9 C 1.6 km/h
669 12-02-2021 07:40:00 -7 C 2.59 g/m*3 -7 C 0 km/h
670 12-02-2021 07:45:00 -7.1 C 2.57 g/m*3 -7.1 C 0 km/h
671 12-02-2021 07:50:00 -7.2 C 2.55 g/m*3 -7.2 C 0 km/h
672 12-02-2021 07:55:00 -7.2 C 2.55 g/m*3 -7.2 C 0 km/h
673 12-02-2021 08:00:00 -7.3 C 2.53 g/m*3 -7.3 C 0 km/h
674 12-02-2021 08:05:00 -7.3 C 2.53 g/m*3 -7.3 C 3.2 km/h
675 12-02-2021 08:10:00 -7.4 C 2.54 g/m*3 -7.4 C 1.6 km/h
Sensor: Nr:Datum:Temp:Abs-Feuchte:Windchill:Wind:
Aussen-T/F 676 12-02-2021 08:15:00 -7.4 C 2.54 g/m*3 -7.4 C 1.6 km/h
677 12-02-2021 08:20:00 -7.4 C 2.54 g/m*3 -7.4 C 0 km/h
678 12-02-2021 08:25:00 -7.4 C 2.54 g/m*3 -7.4 C 3.2 km/h
679 12-02-2021 08:30:00 -7.4 C 2.54 g/m*3 -7.4 C 0 km/h
680 12-02-2021 08:35:00 -7.4 C 2.54 g/m*3 -7.4 C 0 km/h
681 12-02-2021 08:40:00 -7.4 C 2.54 g/m*3 -7.4 C 1.6 km/h
682 12-02-2021 08:45:00 -7.4 C 2.57 g/m*3 -7.4 C 1.6 km/h
683 12-02-2021 08:50:00 -7.4 C 2.57 g/m*3 -7.4 C 3.2 km/h
684 12-02-2021 08:55:00 -7.4 C 2.57 g/m*3 -7.4 C 0 km/h
685 12-02-2021 09:00:00 -7.3 C 2.59 g/m*3 -7.3 C 0 km/h
686 12-02-2021 09:05:00 -7.3 C 2.59 g/m*3 -7.3 C 3.2 km/h
687 12-02-2021 09:10:00 -7.3 C 2.59 g/m*3 -7.3 C 0 km/h
688 12-02-2021 09:15:00 -7.3 C 2.59 g/m*3 -7.3 C 0 km/h
689 12-02-2021 09:20:00 -7.2 C 2.61 g/m*3 -7.2 C 1.6 km/h
690 12-02-2021 09:25:00 -7.2 C 2.61 g/m*3 -7.2 C 1.6 km/h
691 12-02-2021 09:30:00 -7.1 C 2.63 g/m*3 -7.1 C 4.8 km/h
692 12-02-2021 09:35:00 -7.1 C 2.63 g/m*3 -7.1 C 1.6 km/h
693 12-02-2021 09:40:00 -7 C 2.65 g/m*3 -7 C 1.6 km/h
694 12-02-2021 09:45:00 -6.9 C 2.67 g/m*3 -6.9 C 3.2 km/h
695 12-02-2021 09:50:00 -6.9 C 2.67 g/m*3 -6.9 C 0 km/h
696 12-02-2021 09:55:00 -6.8 C 2.69 g/m*3 -6.8 C 1.6 km/h
697 12-02-2021 10:00:00 -6.8 C 2.69 g/m*3 -6.8 C 1.6 km/h
698 12-02-2021 10:05:00 -6.8 C 2.69 g/m*3 -6.8 C 0 km/h
699 12-02-2021 10:10:00 -6.7 C 2.71 g/m*3 -6.7 C 4.8 km/h
700 12-02-2021 10:15:00 -6.5 C 2.75 g/m*3 -6.5 C 1.6 km/h
Sensor: Nr:Datum:Temp:Abs-Feuchte:Windchill:Wind:
Aussen-T/F 701 12-02-2021 10:20:00 -6.4 C 2.74 g/m*3 -6.4 C 3.2 km/h
702 12-02-2021 10:25:00 -6.2 C 2.78 g/m*3 -6.2 C 3.2 km/h
703 12-02-2021 10:30:00 -6.1 C 2.77 g/m*3 -6.1 C 3.2 km/h
704 12-02-2021 10:35:00 -6 C 2.79 g/m*3 -6 C 3.2 km/h
705 12-02-2021 10:40:00 -5.9 C 2.81 g/m*3 -5.9 C 3.2 km/h
706 12-02-2021 10:45:00 -5.7 C 2.82 g/m*3 -5.7 C 3.2 km/h
707 12-02-2021 10:50:00 -5.6 C 2.8 g/m*3 -9.35 C 8.1 km/h
708 12-02-2021 10:55:00 -5.3 C 2.83 g/m*3 -5.3 C 3.2 km/h
709 12-02-2021 11:00:00 -5.1 C 2.84 g/m*3 -5.1 C 3.2 km/h
710 12-02-2021 11:05:00 -4.8 C 2.83 g/m*3 -9.85 C 12.9 km/h
711 12-02-2021 11:10:00 -4.6 C 2.84 g/m*3 -4.6 C 4.8 km/h
712 12-02-2021 11:15:00 -4.3 C 2.79 g/m*3 -9.24 C 12.9 km/h
713 12-02-2021 11:20:00 -4.1 C 2.8 g/m*3 -8.12 C 9.7 km/h
714 12-02-2021 11:25:00 -3.9 C 2.8 g/m*3 -7.35 C 8.1 km/h
715 12-02-2021 11:30:00 -3.8 C 2.78 g/m*3 -8.22 C 11.3 km/h
716 12-02-2021 11:35:00 -3.7 C 2.77 g/m*3 -7.64 C 9.7 km/h
717 12-02-2021 11:40:00 -3.5 C 2.77 g/m*3 -8.26 C 12.9 km/h
718 12-02-2021 11:45:00 -3.4 C 2.79 g/m*3 -6.11 C 6.4 km/h
719 12-02-2021 11:50:00 -3.3 C 2.77 g/m*3 -5.99 C 6.4 km/h
720 12-02-2021 11:55:00 -3.2 C 2.79 g/m*3 -7.9 C 12.9 km/h
721 12-02-2021 12:00:00 -3.1 C 2.81 g/m*3 -6.93 C 9.7 km/h
722 12-02-2021 12:05:00 -2.9 C 2.85 g/m*3 -7.53 C 12.9 km/h
723 12-02-2021 12:10:00 -2.9 C 2.81 g/m*3 -7.89 C 14.5 km/h
724 12-02-2021 12:15:00 -2.8 C 2.83 g/m*3 -7.41 C 12.9 km/h
725 12-02-2021 12:20:00 -2.7 C 2.85 g/m*3 -5.94 C 8.1 km/h
Sensor: Nr:Datum:Temp:Abs-Feuchte:Windchill:Wind:
Aussen-T/F 726 12-02-2021 12:25:00 -2.5 C 2.89 g/m*3 -7.04 C 12.9 km/h
727 12-02-2021 12:30:00 -2.4 C 2.87 g/m*3 -6.1 C 9.7 km/h
728 12-02-2021 12:35:00 -2.3 C 2.85 g/m*3 -7.47 C 16.1 km/h
729 12-02-2021 12:40:00 -2.2 C 2.87 g/m*3 -7.03 C 14.5 km/h
730 12-02-2021 12:45:00 -2.1 C 2.85 g/m*3 -6.9 C 14.5 km/h
731 12-02-2021 12:50:00 -2.1 C 2.85 g/m*3 -5.74 C 9.7 km/h
732 12-02-2021 12:55:00 -2 C 2.82 g/m*3 -6.05 C 11.3 km/h
733 12-02-2021 13:00:00 -1.9 C 2.84 g/m*3 -5.93 C 11.3 km/h
734 12-02-2021 13:05:00 -1.9 C 2.8 g/m*3 -5.93 C 11.3 km/h
735 12-02-2021 13:10:00 -1.8 C 2.78 g/m*3 -6.19 C 12.9 km/h
736 12-02-2021 13:15:00 -1.8 C 2.78 g/m*3 -7.4 C 19.3 km/h
737 12-02-2021 13:20:00 -1.7 C 2.88 g/m*3 -4.15 C 6.4 km/h
738 12-02-2021 13:25:00 -1.4 C 2.86 g/m*3 -6.35 C 16.1 km/h
739 12-02-2021 13:30:00 -1.3 C 2.92 g/m*3 -3.68 C 6.4 km/h
740 12-02-2021 13:35:00 -1.3 C 2.88 g/m*3 -5.21 C 11.3 km/h
741 12-02-2021 13:40:00 -1.3 C 2.83 g/m*3 -4.78 C 9.7 km/h
742 12-02-2021 13:45:00 -1.3 C 2.88 g/m*3 -5.58 C 12.9 km/h
743 12-02-2021 13:50:00 -1.3 C 2.88 g/m*3 -6.23 C 16.1 km/h
744 12-02-2021 13:55:00 -1.3 C 2.88 g/m*3 -5.21 C 11.3 km/h
745 12-02-2021 14:00:00 -1.2 C 2.85 g/m*3 -4.66 C 9.7 km/h
746 12-02-2021 14:05:00 -1.2 C 2.9 g/m*3 -5.09 C 11.3 km/h
747 12-02-2021 14:10:00 -1.1 C 2.87 g/m*3 -4.55 C 9.7 km/h
748 12-02-2021 14:15:00 -1 C 2.94 g/m*3 -3.34 C 6.4 km/h
749 12-02-2021 14:20:00 -1 C 2.89 g/m*3 -5.55 C 14.5 km/h
750 12-02-2021 14:25:00 -1.1 C 2.83 g/m*3 -5.34 C 12.9 km/h
Sensor: Nr:Datum:Temp:Abs-Feuchte:Windchill:Wind:
Aussen-T/F 751 12-02-2021 14:30:00 -1 C 2.85 g/m*3 -5.86 C 16.1 km/h
752 12-02-2021 14:35:00 -1 C 2.8 g/m*3 -5.22 C 12.9 km/h
753 12-02-2021 14:40:00 -1.1 C 2.78 g/m*3 -4.97 C 11.3 km/h
754 12-02-2021 14:45:00 -1.1 C 2.83 g/m*3 -3.45 C 6.4 km/h
755 12-02-2021 14:50:00 -0.9 C 2.87 g/m*3 -4.31 C 9.7 km/h
756 12-02-2021 14:55:00 -0.7 C 2.91 g/m*3 -6.26 C 20.9 km/h
757 12-02-2021 15:00:00 -0.7 C 2.86 g/m*3 -7.28 C 29 km/h
758 12-02-2021 15:05:00 -0.8 C 2.84 g/m*3 -5.31 C 14.5 km/h
759 12-02-2021 15:10:00 -0.8 C 2.84 g/m*3 -4.97 C 12.9 km/h
760 12-02-2021 15:15:00 -0.8 C 2.89 g/m*3 -3.71 C 8.1 km/h
761 12-02-2021 15:20:00 -0.8 C 2.84 g/m*3 -5.31 C 14.5 km/h
762 12-02-2021 15:25:00 -1 C 2.8 g/m*3 -5.22 C 12.9 km/h
763 12-02-2021 15:30:00 -1.2 C 2.76 g/m*3 -6.39 C 17.7 km/h
764 12-02-2021 15:35:00 -1.2 C 2.76 g/m*3 -6.39 C 17.7 km/h
765 12-02-2021 15:40:00 -1.2 C 2.81 g/m*3 -5.46 C 12.9 km/h
766 12-02-2021 15:45:00 -1.2 C 2.81 g/m*3 -5.09 C 11.3 km/h
767 12-02-2021 15:50:00 -1.2 C 2.81 g/m*3 -3.57 C 6.4 km/h
768 12-02-2021 15:55:00 -1.2 C 2.81 g/m*3 -4.18 C 8.1 km/h
769 12-02-2021 16:00:00 -1.3 C 2.74 g/m*3 -5.58 C 12.9 km/h
770 12-02-2021 16:05:00 -1.4 C 2.77 g/m*3 -1.4 C 4.8 km/h
771 12-02-2021 16:10:00 -1.4 C 2.77 g/m*3 -4.9 C 9.7 km/h
772 12-02-2021 16:15:00 -1.4 C 2.81 g/m*3 -4.42 C 8.1 km/h
773 12-02-2021 16:20:00 -1.4 C 2.81 g/m*3 -3.8 C 6.4 km/h
774 12-02-2021 16:25:00 -1.3 C 2.83 g/m*3 -5.58 C 12.9 km/h
775 12-02-2021 16:30:00 -1.3 C 2.74 g/m*3 -6.77 C 19.3 km/h
Sensor: Nr:Datum:Temp:Abs-Feuchte:Windchill:Wind:
Aussen-T/F 776 12-02-2021 16:35:00 -1.2 C 2.85 g/m*3 -4.18 C 8.1 km/h
777 12-02-2021 16:40:00 -1.2 C 2.9 g/m*3 -4.18 C 8.1 km/h
778 12-02-2021 16:45:00 -1.2 C 2.9 g/m*3 -1.2 C 4.8 km/h
779 12-02-2021 16:50:00 -1.3 C 2.92 g/m*3 -3.68 C 6.4 km/h
780 12-02-2021 16:55:00 -1.3 C 2.88 g/m*3 -3.68 C 6.4 km/h
781 12-02-2021 17:00:00 -1.4 C 2.86 g/m*3 -6.35 C 16.1 km/h
782 12-02-2021 17:05:00 -1.5 C 2.84 g/m*3 -5.02 C 9.7 km/h
783 12-02-2021 17:10:00 -1.6 C 2.86 g/m*3 -1.6 C 4.8 km/h
784 12-02-2021 17:15:00 -1.6 C 2.9 g/m*3 -1.6 C 3.2 km/h
785 12-02-2021 17:20:00 -1.7 C 2.88 g/m*3 -1.7 C 4.8 km/h
786 12-02-2021 17:25:00 -1.7 C 2.97 g/m*3 -4.15 C 6.4 km/h
787 12-02-2021 17:30:00 -1.8 C 2.95 g/m*3 -5.38 C 9.7 km/h
788 12-02-2021 17:35:00 -1.9 C 2.93 g/m*3 -4.38 C 6.4 km/h
789 12-02-2021 17:40:00 -2 C 2.95 g/m*3 -5.12 C 8.1 km/h
790 12-02-2021 17:45:00 -2.1 C 2.93 g/m*3 -2.1 C 3.2 km/h
791 12-02-2021 17:50:00 -2.2 C 2.91 g/m*3 -4.72 C 6.4 km/h
792 12-02-2021 17:55:00 -2.3 C 2.93 g/m*3 -4.84 C 6.4 km/h
793 12-02-2021 18:00:00 -2.5 C 2.93 g/m*3 -2.5 C 4.8 km/h
794 12-02-2021 18:05:00 -2.6 C 2.95 g/m*3 -2.6 C 4.8 km/h
795 12-02-2021 18:10:00 -2.7 C 2.97 g/m*3 -2.7 C 4.8 km/h
796 12-02-2021 18:15:00 -2.9 C 2.93 g/m*3 -7.53 C 12.9 km/h
797 12-02-2021 18:20:00 -2.9 C 2.97 g/m*3 -2.9 C 4.8 km/h
798 12-02-2021 18:25:00 -3.1 C 2.93 g/m*3 -6.41 C 8.1 km/h
799 12-02-2021 18:30:00 -3.2 C 2.94 g/m*3 -3.2 C 3.2 km/h
800 12-02-2021 18:35:00 -3.4 C 2.9 g/m*3 -3.4 C 0 km/h
Sensor: Nr:Datum:Temp:Abs-Feuchte:Windchill:Wind:
Aussen-T/F 801 12-02-2021 18:40:00 -3.6 C 2.9 g/m*3 -3.6 C 4.8 km/h
802 12-02-2021 18:45:00 -3.7 C 2.92 g/m*3 -3.7 C 4.8 km/h
803 12-02-2021 18:50:00 -3.8 C 2.93 g/m*3 -3.8 C 3.2 km/h
804 12-02-2021 18:55:00 -3.9 C 2.95 g/m*3 -3.9 C 1.6 km/h
805 12-02-2021 19:00:00 -4.1 C 2.91 g/m*3 -4.1 C 3.2 km/h
806 12-02-2021 19:05:00 -4.2 C 2.89 g/m*3 -4.2 C 1.6 km/h
807 12-02-2021 19:10:00 -4.3 C 2.9 g/m*3 -4.3 C 4.8 km/h
808 12-02-2021 19:15:00 -4.4 C 2.88 g/m*3 -4.4 C 1.6 km/h
809 12-02-2021 19:20:00 -4.4 C 2.92 g/m*3 -7.26 C 6.4 km/h
810 12-02-2021 19:25:00 -4.5 C 2.89 g/m*3 -4.5 C 3.2 km/h
811 12-02-2021 19:30:00 -4.6 C 2.87 g/m*3 -4.6 C 4.8 km/h
812 12-02-2021 19:35:00 -4.7 C 2.85 g/m*3 -4.7 C 3.2 km/h
813 12-02-2021 19:40:00 -4.7 C 2.85 g/m*3 -4.7 C 4.8 km/h
814 12-02-2021 19:45:00 -4.8 C 2.83 g/m*3 -4.8 C 4.8 km/h
815 12-02-2021 19:50:00 -4.8 C 2.83 g/m*3 -7.73 C 6.4 km/h
816 12-02-2021 19:55:00 -4.8 C 2.83 g/m*3 -4.8 C 4.8 km/h
817 12-02-2021 20:00:00 -4.9 C 2.81 g/m*3 -4.9 C 1.6 km/h
818 12-02-2021 20:05:00 -5 C 2.79 g/m*3 -9.67 C 11.3 km/h
819 12-02-2021 20:10:00 -5 C 2.79 g/m*3 -5 C 3.2 km/h
820 12-02-2021 20:15:00 -5.1 C 2.77 g/m*3 -5.1 C 1.6 km/h
821 12-02-2021 20:20:00 -5.2 C 2.75 g/m*3 -5.2 C 3.2 km/h
822 12-02-2021 20:25:00 -5.3 C 2.73 g/m*3 -5.3 C 3.2 km/h
823 12-02-2021 20:30:00 -5.3 C 2.77 g/m*3 -10.03 C 11.3 km/h
824 12-02-2021 20:35:00 -5.2 C 2.75 g/m*3 -5.2 C 4.8 km/h
825 12-02-2021 20:40:00 -5.2 C 2.75 g/m*3 -5.2 C 3.2 km/h
Sensor: Nr:Datum:Temp:Abs-Feuchte:Windchill:Wind:
Aussen-T/F 826 12-02-2021 20:45:00 -5.3 C 2.73 g/m*3 -5.3 C 3.2 km/h
827 12-02-2021 20:50:00 -5.4 C 2.71 g/m*3 -5.4 C 3.2 km/h
828 12-02-2021 20:55:00 -5.5 C 2.73 g/m*3 -5.5 C 4.8 km/h
829 12-02-2021 21:00:00 -5.6 C 2.71 g/m*3 -5.6 C 3.2 km/h
830 12-02-2021 21:05:00 -5.7 C 2.69 g/m*3 -5.7 C 3.2 km/h
831 12-02-2021 21:10:00 -5.7 C 2.69 g/m*3 -5.7 C 4.8 km/h
832 12-02-2021 21:15:00 -5.7 C 2.72 g/m*3 -5.7 C 3.2 km/h
833 12-02-2021 21:20:00 -5.8 C 2.67 g/m*3 -5.8 C 3.2 km/h
834 12-02-2021 21:25:00 -5.8 C 2.7 g/m*3 -8.88 C 6.4 km/h
835 12-02-2021 21:30:00 -5.8 C 2.7 g/m*3 -5.8 C 3.2 km/h
836 12-02-2021 21:35:00 -5.8 C 2.67 g/m*3 -5.8 C 3.2 km/h
837 12-02-2021 21:40:00 -5.9 C 2.65 g/m*3 -5.9 C 1.6 km/h
838 12-02-2021 21:45:00 -6 C 2.66 g/m*3 -6 C 4.8 km/h
839 12-02-2021 21:50:00 -6.1 C 2.64 g/m*3 -9.23 C 6.4 km/h
840 12-02-2021 21:55:00 -6.2 C 2.62 g/m*3 -6.2 C 3.2 km/h
841 12-02-2021 22:00:00 -6.2 C 2.62 g/m*3 -6.2 C 3.2 km/h
842 12-02-2021 22:05:00 -6.2 C 2.62 g/m*3 -9.34 C 6.4 km/h
843 12-02-2021 22:10:00 -6.2 C 2.65 g/m*3 -6.2 C 4.8 km/h
844 12-02-2021 22:15:00 -6.2 C 2.65 g/m*3 -6.2 C 4.8 km/h
845 12-02-2021 22:20:00 -6.2 C 2.62 g/m*3 -6.2 C 1.6 km/h
846 12-02-2021 22:25:00 -6.3 C 2.6 g/m*3 -6.3 C 4.8 km/h
847 12-02-2021 22:30:00 -6.2 C 2.62 g/m*3 -6.2 C 3.2 km/h
848 12-02-2021 22:35:00 -6.3 C 2.6 g/m*3 -6.3 C 3.2 km/h
849 12-02-2021 22:40:00 -6.3 C 2.6 g/m*3 -6.3 C 1.6 km/h
850 12-02-2021 22:45:00 -6.5 C 2.57 g/m*3 -9.69 C 6.4 km/h
Sensor: Nr:Datum:Temp:Abs-Feuchte:Windchill:Wind:
Aussen-T/F 851 12-02-2021 22:50:00 -6.6 C 2.58 g/m*3 -6.6 C 0 km/h
852 12-02-2021 22:55:00 -6.6 C 2.58 g/m*3 -6.6 C 3.2 km/h
853 12-02-2021 23:00:00 -6.7 C 2.56 g/m*3 -6.7 C 4.8 km/h
854 12-02-2021 23:05:00 -6.7 C 2.56 g/m*3 -6.7 C 3.2 km/h
855 12-02-2021 23:10:00 -6.8 C 2.54 g/m*3 -6.8 C 3.2 km/h
856 12-02-2021 23:15:00 -6.7 C 2.56 g/m*3 -10.65 C 8.1 km/h
857 12-02-2021 23:20:00 -6.7 C 2.56 g/m*3 -6.7 C 0 km/h
858 12-02-2021 23:25:00 -6.8 C 2.54 g/m*3 -6.8 C 1.6 km/h
859 12-02-2021 23:30:00 -6.9 C 2.52 g/m*3 -6.9 C 0 km/h
860 12-02-2021 23:35:00 -7.2 C 2.47 g/m*3 -7.2 C 0 km/h
861 12-02-2021 23:40:00 -7.3 C 2.45 g/m*3 -7.3 C 1.6 km/h
862 12-02-2021 23:45:00 -7.3 C 2.48 g/m*3 -7.3 C 3.2 km/h
863 12-02-2021 23:50:00 -7.3 C 2.48 g/m*3 -7.3 C 3.2 km/h
864 12-02-2021 23:55:00 -7.2 C 2.49 g/m*3 -12.32 C 11.3 km/h
865 13-02-2021 00:00:00 -7 C 2.53 g/m*3 -7 C 3.2 km/h
866 13-02-2021 00:05:00 -7 C 2.5 g/m*3 -7 C 3.2 km/h
867 13-02-2021 00:10:00 -7 C 2.5 g/m*3 -7 C 4.8 km/h
868 13-02-2021 00:15:00 -7 C 2.5 g/m*3 -7 C 3.2 km/h
869 13-02-2021 00:20:00 -7.1 C 2.48 g/m*3 -10.38 C 6.4 km/h
870 13-02-2021 00:25:00 -7.1 C 2.48 g/m*3 -10.38 C 6.4 km/h
871 13-02-2021 00:30:00 -7.1 C 2.45 g/m*3 -7.1 C 3.2 km/h
872 13-02-2021 00:35:00 -7.2 C 2.44 g/m*3 -7.2 C 1.6 km/h
873 13-02-2021 00:40:00 -7.3 C 2.42 g/m*3 -7.3 C 3.2 km/h
874 13-02-2021 00:45:00 -7.5 C 2.38 g/m*3 -7.5 C 1.6 km/h
875 13-02-2021 00:50:00 -7.7 C 2.35 g/m*3 -7.7 C 1.6 km/h
Sensor: Nr:Datum:Temp:Abs-Feuchte:Windchill:Wind:
Aussen-T/F 876 13-02-2021 00:55:00 -7.8 C 2.36 g/m*3 -7.8 C 1.6 km/h
877 13-02-2021 01:00:00 -7.9 C 2.34 g/m*3 -7.9 C 3.2 km/h
878 13-02-2021 01:05:00 -8.1 C 2.31 g/m*3 -8.1 C 1.6 km/h
879 13-02-2021 01:10:00 -8.1 C 2.33 g/m*3 -8.1 C 3.2 km/h
880 13-02-2021 01:15:00 -8.1 C 2.33 g/m*3 -8.1 C 1.6 km/h
881 13-02-2021 01:20:00 -8.1 C 2.33 g/m*3 -8.1 C 3.2 km/h
882 13-02-2021 01:25:00 -8.1 C 2.33 g/m*3 -8.1 C 1.6 km/h
883 13-02-2021 01:30:00 -8.2 C 2.34 g/m*3 -8.2 C 0 km/h
884 13-02-2021 01:35:00 -8.2 C 2.34 g/m*3 -8.2 C 0 km/h
885 13-02-2021 01:40:00 -8.3 C 2.33 g/m*3 -8.3 C 0 km/h
886 13-02-2021 01:45:00 -8.3 C 2.33 g/m*3 -8.3 C 0 km/h
887 13-02-2021 01:50:00 -8.3 C 2.33 g/m*3 -8.3 C 3.2 km/h
888 13-02-2021 01:55:00 -8.3 C 2.33 g/m*3 -8.3 C 3.2 km/h
889 13-02-2021 02:00:00 -8.4 C 2.31 g/m*3 -8.4 C 0 km/h
890 13-02-2021 02:05:00 -8.4 C 2.31 g/m*3 -8.4 C 1.6 km/h
891 13-02-2021 02:10:00 -8.4 C 2.31 g/m*3 -8.4 C 3.2 km/h
892 13-02-2021 02:15:00 -8.4 C 2.31 g/m*3 -8.4 C 1.6 km/h
893 13-02-2021 02:20:00 -8.4 C 2.31 g/m*3 -8.4 C 1.6 km/h
894 13-02-2021 02:25:00 -8.5 C 2.29 g/m*3 -8.5 C 3.2 km/h
895 13-02-2021 02:30:00 -8.6 C 2.28 g/m*3 -8.6 C 1.6 km/h
896 13-02-2021 02:35:00 -8.6 C 2.3 g/m*3 -8.6 C 1.6 km/h
897 13-02-2021 02:40:00 -8.6 C 2.3 g/m*3 -8.6 C 1.6 km/h
898 13-02-2021 02:45:00 -8.7 C 2.28 g/m*3 -8.7 C 1.6 km/h
899 13-02-2021 02:50:00 -8.7 C 2.28 g/m*3 -8.7 C 1.6 km/h
900 13-02-2021 02:55:00 -8.8 C 2.24 g/m*3 -8.8 C 4.8 km/h
Sensor: Nr:Datum:Temp:Abs-Feuchte:Windchill:Wind:
Aussen-T/F 901 13-02-2021 03:00:00 -8.8 C 2.27 g/m*3 -8.8 C 1.6 km/h
902 13-02-2021 03:05:00 -8.9 C 2.25 g/m*3 -8.9 C 4.8 km/h
903 13-02-2021 03:10:00 -8.9 C 2.25 g/m*3 -8.9 C 3.2 km/h
904 13-02-2021 03:15:00 -8.9 C 2.25 g/m*3 -8.9 C 1.6 km/h
905 13-02-2021 03:20:00 -8.9 C 2.25 g/m*3 -8.9 C 3.2 km/h
906 13-02-2021 03:25:00 -8.9 C 2.25 g/m*3 -8.9 C 3.2 km/h
907 13-02-2021 03:30:00 -9 C 2.23 g/m*3 -9 C 3.2 km/h
908 13-02-2021 03:35:00 -9 C 2.23 g/m*3 -9 C 4.8 km/h
909 13-02-2021 03:40:00 -9 C 2.23 g/m*3 -9 C 3.2 km/h
910 13-02-2021 03:45:00 -8.9 C 2.25 g/m*3 -8.9 C 3.2 km/h
911 13-02-2021 03:50:00 -8.9 C 2.25 g/m*3 -8.9 C 4.8 km/h
912 13-02-2021 03:55:00 -8.9 C 2.25 g/m*3 -8.9 C 3.2 km/h
913 13-02-2021 04:00:00 -8.9 C 2.25 g/m*3 -8.9 C 3.2 km/h
914 13-02-2021 04:05:00 -8.9 C 2.25 g/m*3 -8.9 C 3.2 km/h
915 13-02-2021 04:10:00 -9 C 2.23 g/m*3 -9 C 4.8 km/h
916 13-02-2021 04:15:00 -9 C 2.23 g/m*3 -9 C 4.8 km/h
917 13-02-2021 04:20:00 -9 C 2.23 g/m*3 -12.58 C 6.4 km/h
918 13-02-2021 04:25:00 -9 C 2.23 g/m*3 -9 C 4.8 km/h
919 13-02-2021 04:30:00 -9.1 C 2.22 g/m*3 -9.1 C 3.2 km/h
920 13-02-2021 04:35:00 -9 C 2.23 g/m*3 -9 C 3.2 km/h
921 13-02-2021 04:40:00 -9 C 2.23 g/m*3 -9 C 3.2 km/h
922 13-02-2021 04:45:00 -9 C 2.23 g/m*3 -9 C 3.2 km/h
923 13-02-2021 04:50:00 -8.9 C 2.25 g/m*3 -8.9 C 1.6 km/h
924 13-02-2021 04:55:00 -9 C 2.23 g/m*3 -9 C 3.2 km/h
925 13-02-2021 05:00:00 -9 C 2.23 g/m*3 -9 C 3.2 km/h
Sensor: Nr:Datum:Temp:Abs-Feuchte:Windchill:Wind:
Aussen-T/F 926 13-02-2021 05:05:00 -9.1 C 2.22 g/m*3 -9.1 C 1.6 km/h
927 13-02-2021 05:10:00 -9.1 C 2.22 g/m*3 -9.1 C 3.2 km/h
928 13-02-2021 05:15:00 -9.2 C 2.2 g/m*3 -9.2 C 3.2 km/h
929 13-02-2021 05:20:00 -9.2 C 2.2 g/m*3 -9.2 C 4.8 km/h
930 13-02-2021 05:25:00 -9.3 C 2.18 g/m*3 -9.3 C 4.8 km/h
931 13-02-2021 05:30:00 -9.3 C 2.18 g/m*3 -9.3 C 3.2 km/h
932 13-02-2021 05:35:00 -9.3 C 2.18 g/m*3 -9.3 C 0 km/h
933 13-02-2021 05:40:00 -9.4 C 2.17 g/m*3 -9.4 C 0 km/h
934 13-02-2021 05:45:00 -9.5 C 2.15 g/m*3 -9.5 C 0 km/h
935 13-02-2021 05:50:00 -9.5 C 2.18 g/m*3 -9.5 C 0 km/h
936 13-02-2021 05:55:00 -9.4 C 2.19 g/m*3 -9.4 C 1.6 km/h
937 13-02-2021 06:00:00 -9.4 C 2.19 g/m*3 -9.4 C 1.6 km/h
938 13-02-2021 06:05:00 -9.3 C 2.21 g/m*3 -9.3 C 0 km/h
939 13-02-2021 06:10:00 -9.3 C 2.21 g/m*3 -9.3 C 3.2 km/h
940 13-02-2021 06:15:00 -9.3 C 2.21 g/m*3 -9.3 C 0 km/h
941 13-02-2021 06:20:00 -9.3 C 2.21 g/m*3 -9.3 C 3.2 km/h
942 13-02-2021 06:25:00 -9.3 C 2.21 g/m*3 -9.3 C 3.2 km/h
943 13-02-2021 06:30:00 -9.3 C 2.21 g/m*3 -9.3 C 3.2 km/h
944 13-02-2021 06:35:00 -9.3 C 2.21 g/m*3 -9.3 C 3.2 km/h
945 13-02-2021 06:40:00 -9.3 C 2.21 g/m*3 -9.3 C 3.2 km/h
946 13-02-2021 06:45:00 -9.3 C 2.21 g/m*3 -9.3 C 4.8 km/h
947 13-02-2021 06:50:00 -9.3 C 2.21 g/m*3 -9.3 C 3.2 km/h
948 13-02-2021 06:55:00 -9.3 C 2.21 g/m*3 -9.3 C 4.8 km/h
949 13-02-2021 07:00:00 -9.3 C 2.21 g/m*3 -9.3 C 3.2 km/h
950 13-02-2021 07:05:00 -9.2 C 2.23 g/m*3 -9.2 C 1.6 km/h
Sensor: Nr:Datum:Temp:Abs-Feuchte:Windchill:Wind:
Aussen-T/F 951 13-02-2021 07:10:00 -9.2 C 2.23 g/m*3 -9.2 C 3.2 km/h
952 13-02-2021 07:15:00 -9.2 C 2.23 g/m*3 -9.2 C 3.2 km/h
953 13-02-2021 07:20:00 -9.2 C 2.23 g/m*3 -9.2 C 3.2 km/h
954 13-02-2021 07:25:00 -9.2 C 2.23 g/m*3 -9.2 C 3.2 km/h
955 13-02-2021 07:30:00 -9.2 C 2.23 g/m*3 -9.2 C 3.2 km/h
956 13-02-2021 07:35:00 -9.2 C 2.23 g/m*3 -9.2 C 3.2 km/h
957 13-02-2021 07:40:00 -9.2 C 2.23 g/m*3 -9.2 C 3.2 km/h
958 13-02-2021 07:45:00 -9.2 C 2.23 g/m*3 -9.2 C 3.2 km/h
959 13-02-2021 07:50:00 -9.2 C 2.23 g/m*3 -9.2 C 4.8 km/h
960 13-02-2021 07:55:00 -9.2 C 2.23 g/m*3 -9.2 C 1.6 km/h
961 13-02-2021 08:00:00 -9.3 C 2.21 g/m*3 -9.3 C 3.2 km/h
962 13-02-2021 08:05:00 -9.3 C 2.21 g/m*3 -9.3 C 1.6 km/h
963 13-02-2021 08:10:00 -9.4 C 2.19 g/m*3 -9.4 C 1.6 km/h
964 13-02-2021 08:15:00 -9.4 C 2.19 g/m*3 -9.4 C 3.2 km/h
965 13-02-2021 08:20:00 -9.4 C 2.19 g/m*3 -9.4 C 1.6 km/h
966 13-02-2021 08:25:00 -9.4 C 2.19 g/m*3 -9.4 C 1.6 km/h
967 13-02-2021 08:30:00 -9.4 C 2.19 g/m*3 -9.4 C 0 km/h
968 13-02-2021 08:35:00 -9.4 C 2.19 g/m*3 -9.4 C 1.6 km/h
969 13-02-2021 08:40:00 -9.4 C 2.19 g/m*3 -9.4 C 0 km/h
970 13-02-2021 08:45:00 -9.4 C 2.22 g/m*3 -9.4 C 0 km/h
971 13-02-2021 08:50:00 -9.3 C 2.23 g/m*3 -9.3 C 0 km/h
972 13-02-2021 08:55:00 -9.3 C 2.23 g/m*3 -9.3 C 0 km/h
973 13-02-2021 09:00:00 -9.3 C 2.23 g/m*3 -9.3 C 0 km/h
974 13-02-2021 09:05:00 -9.3 C 2.23 g/m*3 -9.3 C 0 km/h
975 13-02-2021 09:10:00 -9.2 C 2.25 g/m*3 -9.2 C 0 km/h
Sensor: Nr:Datum:Temp:Abs-Feuchte:Windchill:Wind:
Aussen-T/F 976 13-02-2021 09:15:00 -9.2 C 2.25 g/m*3 -9.2 C 0 km/h
977 13-02-2021 09:20:00 -9.1 C 2.27 g/m*3 -9.1 C 0 km/h
978 13-02-2021 09:25:00 -8.9 C 2.33 g/m*3 -8.9 C 0 km/h
979 13-02-2021 09:30:00 -8.8 C 2.35 g/m*3 -8.8 C 0 km/h
980 13-02-2021 09:35:00 -8.7 C 2.36 g/m*3 -8.7 C 0 km/h
981 13-02-2021 09:40:00 -8.6 C 2.38 g/m*3 -8.6 C 0 km/h
982 13-02-2021 09:45:00 -8.5 C 2.4 g/m*3 -8.5 C 0 km/h
983 13-02-2021 09:50:00 -8.2 C 2.45 g/m*3 -13.53 C 11.3 km/h
984 13-02-2021 09:55:00 -8 C 2.49 g/m*3 -8 C 1.6 km/h
985 13-02-2021 10:00:00 -7.9 C 2.48 g/m*3 -7.9 C 3.2 km/h
986 13-02-2021 10:05:00 -7.8 C 2.5 g/m*3 -7.8 C 3.2 km/h
987 13-02-2021 10:10:00 -7.7 C 2.52 g/m*3 -7.7 C 3.2 km/h
988 13-02-2021 10:15:00 -7.6 C 2.54 g/m*3 -7.6 C 1.6 km/h
989 13-02-2021 10:20:00 -7.6 C 2.54 g/m*3 -7.6 C 1.6 km/h
990 13-02-2021 10:25:00 -7.4 C 2.57 g/m*3 -7.4 C 3.2 km/h
991 13-02-2021 10:30:00 -7.3 C 2.59 g/m*3 -7.3 C 3.2 km/h
992 13-02-2021 10:35:00 -7.2 C 2.61 g/m*3 -7.2 C 1.6 km/h
993 13-02-2021 10:40:00 -7 C 2.65 g/m*3 -7 C 4.8 km/h
994 13-02-2021 10:45:00 -6.9 C 2.64 g/m*3 -6.9 C 3.2 km/h
995 13-02-2021 10:50:00 -6.7 C 2.68 g/m*3 -6.7 C 3.2 km/h
996 13-02-2021 10:55:00 -6.4 C 2.74 g/m*3 -9.57 C 6.4 km/h
997 13-02-2021 11:00:00 -6.3 C 2.76 g/m*3 -6.3 C 3.2 km/h
998 13-02-2021 11:05:00 -5.9 C 2.81 g/m*3 -5.9 C 4.8 km/h
999 13-02-2021 11:10:00 -5.7 C 2.82 g/m*3 -5.7 C 3.2 km/h
1000 13-02-2021 11:15:00 -5.4 C 2.88 g/m*3 -5.4 C 4.8 km/h
Sensor: Nr:Datum:Temp:Abs-Feuchte:Windchill:Wind:
Aussen-T/F 1001 13-02-2021 11:20:00 -5.2 C 2.92 g/m*3 -5.2 C 3.2 km/h
1002 13-02-2021 11:25:00 -4.8 C 2.94 g/m*3 -10.22 C 14.5 km/h
1003 13-02-2021 11:30:00 -4.6 C 2.94 g/m*3 -4.6 C 1.6 km/h
1004 13-02-2021 11:35:00 -4.3 C 2.94 g/m*3 -8.36 C 9.7 km/h
1005 13-02-2021 11:40:00 -4 C 3 g/m*3 -4 C 1.6 km/h
1006 13-02-2021 11:45:00 -3.8 C 2.97 g/m*3 -6.57 C 6.4 km/h
1007 13-02-2021 11:50:00 -3.7 C 2.95 g/m*3 -3.7 C 4.8 km/h
1008 13-02-2021 11:55:00 -3.4 C 2.94 g/m*3 -6.77 C 8.1 km/h
1009 13-02-2021 12:00:00 -3.2 C 2.98 g/m*3 -3.2 C 4.8 km/h
1010 13-02-2021 12:05:00 -3.1 C 3 g/m*3 -6.41 C 8.1 km/h
1011 13-02-2021 12:10:00 -3 C 3.02 g/m*3 -3 C 4.8 km/h
1012 13-02-2021 12:15:00 -2.8 C 3.03 g/m*3 -6.06 C 8.1 km/h
1013 13-02-2021 12:20:00 -2.6 C 2.99 g/m*3 -6.33 C 9.7 km/h
1014 13-02-2021 12:25:00 -2.4 C 3.03 g/m*3 -5.59 C 8.1 km/h
1015 13-02-2021 12:30:00 -2.2 C 3.03 g/m*3 -5.86 C 9.7 km/h
1016 13-02-2021 12:35:00 -2 C 2.99 g/m*3 -6.78 C 14.5 km/h
1017 13-02-2021 12:40:00 -1.8 C 2.99 g/m*3 -1.8 C 3.2 km/h
1018 13-02-2021 12:45:00 -1.7 C 2.97 g/m*3 -5.26 C 9.7 km/h
1019 13-02-2021 12:50:00 -1.4 C 2.99 g/m*3 -5.33 C 11.3 km/h
1020 13-02-2021 12:55:00 -1.3 C 2.97 g/m*3 -4.78 C 9.7 km/h
1021 13-02-2021 13:00:00 -1.2 C 2.94 g/m*3 -4.66 C 9.7 km/h
1022 13-02-2021 13:05:00 -1.1 C 2.96 g/m*3 -1.1 C 3.2 km/h
1023 13-02-2021 13:10:00 -1 C 2.98 g/m*3 -1 C 3.2 km/h
1024 13-02-2021 13:15:00 -0.9 C 3.05 g/m*3 -0.9 C 3.2 km/h
1025 13-02-2021 13:20:00 -0.8 C 3.03 g/m*3 -0.8 C 4.8 km/h
Sensor: Nr:Datum:Temp:Abs-Feuchte:Windchill:Wind:
Aussen-T/F 1026 13-02-2021 13:25:00 -0.6 C 2.97 g/m*3 -2.88 C 6.4 km/h
1027 13-02-2021 13:30:00 -0.3 C 2.99 g/m*3 -3.59 C 9.7 km/h
1028 13-02-2021 13:35:00 -0.1 C 2.89 g/m*3 -3.35 C 9.7 km/h
1029 13-02-2021 13:40:00 0.1 C 2.78 g/m*3 -2.65 C 8.1 km/h
1030 13-02-2021 13:45:00 0.2 C 2.75 g/m*3 0.2 C 4.8 km/h
1031 13-02-2021 13:50:00 0.3 C 2.62 g/m*3 -2.42 C 8.1 km/h
1032 13-02-2021 13:55:00 0.4 C 2.59 g/m*3 -2.3 C 8.1 km/h
1033 13-02-2021 14:00:00 0.6 C 2.52 g/m*3 -3.27 C 12.9 km/h
1034 13-02-2021 14:05:00 0.7 C 2.54 g/m*3 -3.15 C 12.9 km/h
1035 13-02-2021 14:10:00 0.7 C 2.54 g/m*3 -3.46 C 14.5 km/h
1036 13-02-2021 14:15:00 0.7 C 2.49 g/m*3 -3.75 C 16.1 km/h
1037 13-02-2021 14:20:00 0.7 C 2.49 g/m*3 -3.75 C 16.1 km/h
1038 13-02-2021 14:25:00 0.7 C 2.54 g/m*3 -2.8 C 11.3 km/h
1039 13-02-2021 14:30:00 0.8 C 2.51 g/m*3 -3.34 C 14.5 km/h
1040 13-02-2021 14:35:00 0.8 C 2.51 g/m*3 -1.83 C 8.1 km/h
1041 13-02-2021 14:40:00 0.9 C 2.58 g/m*3 -1.14 C 6.4 km/h
1042 13-02-2021 14:45:00 1.1 C 2.56 g/m*3 -1.92 C 9.7 km/h
1043 13-02-2021 14:50:00 1.1 C 2.51 g/m*3 -1.48 C 8.1 km/h
1044 13-02-2021 14:55:00 1.1 C 2.56 g/m*3 -2.31 C 11.3 km/h
1045 13-02-2021 15:00:00 1 C 2.49 g/m*3 -1.59 C 8.1 km/h
1046 13-02-2021 15:05:00 0.8 C 2.51 g/m*3 -2.28 C 9.7 km/h
1047 13-02-2021 15:10:00 0.8 C 2.56 g/m*3 -1.26 C 6.4 km/h
1048 13-02-2021 15:15:00 0.8 C 2.56 g/m*3 -1.83 C 8.1 km/h
1049 13-02-2021 15:20:00 0.8 C 2.56 g/m*3 -2.67 C 11.3 km/h
1050 13-02-2021 15:25:00 0.7 C 2.54 g/m*3 -2.4 C 9.7 km/h
Sensor: Nr:Datum:Temp:Abs-Feuchte:Windchill:Wind:
Aussen-T/F 1051 13-02-2021 15:30:00 0.7 C 2.69 g/m*3 -1.37 C 6.4 km/h
1052 13-02-2021 15:35:00 0.7 C 2.59 g/m*3 -1.37 C 6.4 km/h
1053 13-02-2021 15:40:00 0.7 C 2.54 g/m*3 -1.37 C 6.4 km/h
1054 13-02-2021 15:45:00 0.7 C 2.49 g/m*3 -2.4 C 9.7 km/h
1055 13-02-2021 15:50:00 0.7 C 2.49 g/m*3 -1.95 C 8.1 km/h
1056 13-02-2021 15:55:00 0.8 C 2.61 g/m*3 -1.26 C 6.4 km/h
1057 13-02-2021 16:00:00 0.8 C 2.56 g/m*3 -3.02 C 12.9 km/h
1058 13-02-2021 16:05:00 0.8 C 2.61 g/m*3 -1.83 C 8.1 km/h
1059 13-02-2021 16:10:00 0.8 C 2.61 g/m*3 -1.26 C 6.4 km/h
1060 13-02-2021 16:15:00 0.8 C 2.61 g/m*3 -2.67 C 11.3 km/h
1061 13-02-2021 16:20:00 0.8 C 2.61 g/m*3 -1.26 C 6.4 km/h
1062 13-02-2021 16:25:00 0.8 C 2.61 g/m*3 -2.28 C 9.7 km/h
1063 13-02-2021 16:30:00 0.8 C 2.66 g/m*3 -2.28 C 9.7 km/h
1064 13-02-2021 16:35:00 0.8 C 2.61 g/m*3 -2.28 C 9.7 km/h
1065 13-02-2021 16:40:00 0.7 C 2.69 g/m*3 -1.95 C 8.1 km/h
1066 13-02-2021 16:45:00 0.7 C 2.64 g/m*3 -1.37 C 6.4 km/h
1067 13-02-2021 16:50:00 0.7 C 2.9 g/m*3 0.7 C 3.2 km/h
1068 13-02-2021 16:55:00 0.7 C 2.75 g/m*3 -1.37 C 6.4 km/h
1069 13-02-2021 17:00:00 0.6 C 2.93 g/m*3 0.6 C 1.6 km/h
1070 13-02-2021 17:05:00 0.5 C 2.76 g/m*3 0.5 C 4.8 km/h
1071 13-02-2021 17:10:00 0.4 C 2.79 g/m*3 -1.72 C 6.4 km/h
1072 13-02-2021 17:15:00 0.4 C 2.94 g/m*3 0.4 C 3.2 km/h
1073 13-02-2021 17:20:00 0.3 C 2.92 g/m*3 0.3 C 3.2 km/h
1074 13-02-2021 17:25:00 0.2 C 2.65 g/m*3 -1.95 C 6.4 km/h
1075 13-02-2021 17:30:00 0.1 C 2.78 g/m*3 0.1 C 3.2 km/h
Sensor: Nr:Datum:Temp:Abs-Feuchte:Windchill:Wind:
Aussen-T/F 1076 13-02-2021 17:35:00 -0.2 C 2.96 g/m*3 -0.2 C 3.2 km/h
1077 13-02-2021 17:40:00 -0.4 C 3.02 g/m*3 -0.4 C 1.6 km/h
1078 13-02-2021 17:45:00 -0.8 C 2.98 g/m*3 -0.8 C 3.2 km/h
1079 13-02-2021 17:50:00 -1.2 C 2.94 g/m*3 -1.2 C 3.2 km/h
1080 13-02-2021 17:55:00 -1.4 C 3.03 g/m*3 -1.4 C 3.2 km/h
1081 13-02-2021 18:00:00 -1.7 C 3.01 g/m*3 -1.7 C 3.2 km/h
1082 13-02-2021 18:05:00 -1.9 C 3.01 g/m*3 -1.9 C 4.8 km/h
1083 13-02-2021 18:10:00 -2.2 C 2.99 g/m*3 -2.2 C 3.2 km/h
1084 13-02-2021 18:15:00 -2.3 C 3.01 g/m*3 -2.3 C 4.8 km/h
1085 13-02-2021 18:20:00 -2.5 C 2.97 g/m*3 -2.5 C 3.2 km/h
1086 13-02-2021 18:25:00 -2.7 C 2.97 g/m*3 -2.7 C 4.8 km/h
1087 13-02-2021 18:30:00 -2.8 C 2.99 g/m*3 -2.8 C 3.2 km/h
1088 13-02-2021 18:35:00 -3 C 2.95 g/m*3 -3 C 4.8 km/h
1089 13-02-2021 18:40:00 -3.2 C 2.94 g/m*3 -3.2 C 4.8 km/h
1090 13-02-2021 18:45:00 -3.3 C 2.96 g/m*3 -3.3 C 3.2 km/h
1091 13-02-2021 18:50:00 -3.4 C 2.94 g/m*3 -3.4 C 4.8 km/h
1092 13-02-2021 18:55:00 -3.6 C 2.94 g/m*3 -3.6 C 3.2 km/h
1093 13-02-2021 19:00:00 -3.7 C 2.92 g/m*3 -3.7 C 0 km/h
1094 13-02-2021 19:05:00 -3.8 C 2.89 g/m*3 -3.8 C 3.2 km/h
1095 13-02-2021 19:10:00 -4 C 2.89 g/m*3 -4 C 3.2 km/h
1096 13-02-2021 19:15:00 -4.1 C 2.87 g/m*3 -4.1 C 3.2 km/h
1097 13-02-2021 19:20:00 -4.2 C 2.89 g/m*3 -4.2 C 1.6 km/h
1098 13-02-2021 19:25:00 -4.2 C 2.89 g/m*3 -4.2 C 3.2 km/h
1099 13-02-2021 19:30:00 -4.3 C 2.86 g/m*3 -4.3 C 1.6 km/h
1100 13-02-2021 19:35:00 -4.3 C 2.9 g/m*3 -4.3 C 4.8 km/h
Sensor: Nr:Datum:Temp:Abs-Feuchte:Windchill:Wind:
Aussen-T/F 1101 13-02-2021 19:40:00 -4.4 C 2.88 g/m*3 -4.4 C 4.8 km/h
1102 13-02-2021 19:45:00 -4.4 C 2.88 g/m*3 -7.26 C 6.4 km/h
1103 13-02-2021 19:50:00 -4.6 C 2.84 g/m*3 -4.6 C 3.2 km/h
1104 13-02-2021 19:55:00 -4.6 C 2.84 g/m*3 -4.6 C 3.2 km/h
1105 13-02-2021 20:00:00 -4.7 C 2.82 g/m*3 -4.7 C 3.2 km/h
1106 13-02-2021 20:05:00 -4.7 C 2.85 g/m*3 -4.7 C 3.2 km/h
1107 13-02-2021 20:10:00 -4.7 C 2.85 g/m*3 -4.7 C 3.2 km/h
1108 13-02-2021 20:15:00 -4.8 C 2.83 g/m*3 -4.8 C 3.2 km/h
1109 13-02-2021 20:20:00 -4.8 C 2.83 g/m*3 -4.8 C 3.2 km/h
1110 13-02-2021 20:25:00 -4.8 C 2.87 g/m*3 -4.8 C 3.2 km/h
1111 13-02-2021 20:30:00 -4.8 C 2.83 g/m*3 -4.8 C 1.6 km/h
1112 13-02-2021 20:35:00 -4.9 C 2.81 g/m*3 -4.9 C 1.6 km/h
1113 13-02-2021 20:40:00 -5 C 2.79 g/m*3 -5 C 4.8 km/h
1114 13-02-2021 20:45:00 -5.1 C 2.77 g/m*3 -5.1 C 4.8 km/h
1115 13-02-2021 20:50:00 -5.1 C 2.81 g/m*3 -5.1 C 4.8 km/h
1116 13-02-2021 20:55:00 -5.2 C 2.79 g/m*3 -5.2 C 4.8 km/h
1117 13-02-2021 21:00:00 -5.2 C 2.79 g/m*3 -5.2 C 4.8 km/h
1118 13-02-2021 21:05:00 -5.3 C 2.77 g/m*3 -5.3 C 1.6 km/h
1119 13-02-2021 21:10:00 -5.4 C 2.75 g/m*3 -5.4 C 3.2 km/h
1120 13-02-2021 21:15:00 -5.4 C 2.75 g/m*3 -5.4 C 1.6 km/h
1121 13-02-2021 21:20:00 -5.5 C 2.73 g/m*3 -5.5 C 0 km/h
1122 13-02-2021 21:25:00 -5.6 C 2.71 g/m*3 -5.6 C 3.2 km/h
1123 13-02-2021 21:30:00 -5.6 C 2.74 g/m*3 -5.6 C 3.2 km/h
1124 13-02-2021 21:35:00 -5.7 C 2.72 g/m*3 -5.7 C 4.8 km/h
1125 13-02-2021 21:40:00 -5.7 C 2.72 g/m*3 -5.7 C 3.2 km/h
Sensor: Nr:Datum:Temp:Abs-Feuchte:Windchill:Wind:
Aussen-T/F 1126 13-02-2021 21:45:00 -5.7 C 2.75 g/m*3 -5.7 C 0 km/h
1127 13-02-2021 21:50:00 -5.8 C 2.73 g/m*3 -5.8 C 3.2 km/h
1128 13-02-2021 21:55:00 -5.8 C 2.73 g/m*3 -5.8 C 3.2 km/h
1129 13-02-2021 22:00:00 -5.9 C 2.71 g/m*3 -5.9 C 3.2 km/h
1130 13-02-2021 22:05:00 -5.9 C 2.71 g/m*3 -5.9 C 3.2 km/h
1131 13-02-2021 22:10:00 -6 C 2.69 g/m*3 -6 C 3.2 km/h
1132 13-02-2021 22:15:00 -6.1 C 2.67 g/m*3 -6.1 C 1.6 km/h
1133 13-02-2021 22:20:00 -6.2 C 2.65 g/m*3 -6.2 C 4.8 km/h
1134 13-02-2021 22:25:00 -6.2 C 2.68 g/m*3 -6.2 C 4.8 km/h
1135 13-02-2021 22:30:00 -6.3 C 2.66 g/m*3 -6.3 C 4.8 km/h
1136 13-02-2021 22:35:00 -6.3 C 2.66 g/m*3 -6.3 C 4.8 km/h
1137 13-02-2021 22:40:00 -6.3 C 2.66 g/m*3 -6.3 C 4.8 km/h
1138 13-02-2021 22:45:00 -6.3 C 2.66 g/m*3 -6.3 C 4.8 km/h
1139 13-02-2021 22:50:00 -6.4 C 2.65 g/m*3 -6.4 C 3.2 km/h
1140 13-02-2021 22:55:00 -6.4 C 2.68 g/m*3 -6.4 C 4.8 km/h
1141 13-02-2021 23:00:00 -6.4 C 2.68 g/m*3 -9.57 C 6.4 km/h
1142 13-02-2021 23:05:00 -6.3 C 2.7 g/m*3 -6.3 C 3.2 km/h
1143 13-02-2021 23:10:00 -6.4 C 2.68 g/m*3 -6.4 C 3.2 km/h
1144 13-02-2021 23:15:00 -6.4 C 2.68 g/m*3 -6.4 C 3.2 km/h
1145 13-02-2021 23:20:00 -6.4 C 2.68 g/m*3 -6.4 C 4.8 km/h
1146 13-02-2021 23:25:00 -6.5 C 2.66 g/m*3 -6.5 C 1.6 km/h
1147 13-02-2021 23:30:00 -6.5 C 2.66 g/m*3 -6.5 C 3.2 km/h
1148 13-02-2021 23:35:00 -6.6 C 2.64 g/m*3 -6.6 C 1.6 km/h
1149 13-02-2021 23:40:00 -6.7 C 2.62 g/m*3 -6.7 C 3.2 km/h
1150 13-02-2021 23:45:00 -6.8 C 2.6 g/m*3 -6.8 C 0 km/h
Sensor: Nr:Datum:Temp:Abs-Feuchte:Windchill:Wind:
Aussen-T/F 1151 13-02-2021 23:50:00 -6.9 C 2.58 g/m*3 -6.9 C 0 km/h
1152 13-02-2021 23:55:00 -7.1 C 2.54 g/m*3 -7.1 C 1.6 km/h
1153 14-02-2021 00:00:00 -7.1 C 2.54 g/m*3 -7.1 C 0 km/h
1154 14-02-2021 00:05:00 -7.2 C 2.52 g/m*3 -7.2 C 3.2 km/h
1155 14-02-2021 00:10:00 -7.3 C 2.53 g/m*3 -7.3 C 3.2 km/h
1156 14-02-2021 00:15:00 -7.3 C 2.53 g/m*3 -7.3 C 3.2 km/h
1157 14-02-2021 00:20:00 -7.3 C 2.53 g/m*3 -7.3 C 3.2 km/h
1158 14-02-2021 00:25:00 -7.3 C 2.53 g/m*3 -7.3 C 3.2 km/h
1159 14-02-2021 00:30:00 -7.4 C 2.52 g/m*3 -7.4 C 0 km/h
1160 14-02-2021 00:35:00 -7.4 C 2.52 g/m*3 -7.4 C 0 km/h
1161 14-02-2021 00:40:00 -7.5 C 2.5 g/m*3 -7.5 C 0 km/h
1162 14-02-2021 00:45:00 -7.6 C 2.51 g/m*3 -7.6 C 0 km/h
1163 14-02-2021 00:50:00 -7.6 C 2.48 g/m*3 -7.6 C 0 km/h
1164 14-02-2021 00:55:00 -7.7 C 2.49 g/m*3 -7.7 C 0 km/h
1165 14-02-2021 01:00:00 -7.8 C 2.47 g/m*3 -7.8 C 0 km/h
1166 14-02-2021 01:05:00 -7.9 C 2.45 g/m*3 -7.9 C 0 km/h
1167 14-02-2021 01:10:00 -7.9 C 2.45 g/m*3 -7.9 C 0 km/h
1168 14-02-2021 01:15:00 -8 C 2.43 g/m*3 -8 C 0 km/h
1169 14-02-2021 01:20:00 -8.1 C 2.42 g/m*3 -8.1 C 1.6 km/h
1170 14-02-2021 01:25:00 -8.1 C 2.42 g/m*3 -8.1 C 3.2 km/h
1171 14-02-2021 01:30:00 -8.2 C 2.43 g/m*3 -8.2 C 1.6 km/h
1172 14-02-2021 01:35:00 -8.2 C 2.43 g/m*3 -8.2 C 1.6 km/h
1173 14-02-2021 01:40:00 -8.2 C 2.43 g/m*3 -8.2 C 0 km/h
1174 14-02-2021 01:45:00 -8.3 C 2.41 g/m*3 -8.3 C 0 km/h
1175 14-02-2021 01:50:00 -8.3 C 2.41 g/m*3 -8.3 C 3.2 km/h
Sensor: Nr:Datum:Temp:Abs-Feuchte:Windchill:Wind:
Aussen-T/F 1176 14-02-2021 01:55:00 -8.3 C 2.41 g/m*3 -8.3 C 3.2 km/h
1177 14-02-2021 02:00:00 -8.3 C 2.41 g/m*3 -8.3 C 3.2 km/h
1178 14-02-2021 02:05:00 -8.3 C 2.41 g/m*3 -8.3 C 3.2 km/h
1179 14-02-2021 02:10:00 -8.3 C 2.43 g/m*3 -8.3 C 3.2 km/h
1180 14-02-2021 02:15:00 -8.3 C 2.41 g/m*3 -8.3 C 3.2 km/h
1181 14-02-2021 02:20:00 -8.3 C 2.43 g/m*3 -8.3 C 3.2 km/h
1182 14-02-2021 02:25:00 -8.3 C 2.43 g/m*3 -8.3 C 3.2 km/h
1183 14-02-2021 02:30:00 -8.3 C 2.43 g/m*3 -8.3 C 4.8 km/h
1184 14-02-2021 02:35:00 -8.2 C 2.45 g/m*3 -8.2 C 4.8 km/h
1185 14-02-2021 02:40:00 -8.2 C 2.45 g/m*3 -8.2 C 4.8 km/h
1186 14-02-2021 02:45:00 -8.1 C 2.47 g/m*3 -8.1 C 4.8 km/h
1187 14-02-2021 02:50:00 -8.1 C 2.47 g/m*3 -8.1 C 4.8 km/h
1188 14-02-2021 02:55:00 -7.9 C 2.51 g/m*3 -7.9 C 4.8 km/h
1189 14-02-2021 03:00:00 -7.9 C 2.51 g/m*3 -7.9 C 4.8 km/h
1190 14-02-2021 03:05:00 -7.9 C 2.51 g/m*3 -7.9 C 3.2 km/h
1191 14-02-2021 03:10:00 -7.9 C 2.51 g/m*3 -7.9 C 4.8 km/h
1192 14-02-2021 03:15:00 -7.9 C 2.51 g/m*3 -7.9 C 3.2 km/h
1193 14-02-2021 03:20:00 -7.9 C 2.51 g/m*3 -7.9 C 4.8 km/h
1194 14-02-2021 03:25:00 -7.9 C 2.51 g/m*3 -7.9 C 3.2 km/h
1195 14-02-2021 03:30:00 -7.9 C 2.51 g/m*3 -7.9 C 3.2 km/h
1196 14-02-2021 03:35:00 -7.9 C 2.51 g/m*3 -7.9 C 1.6 km/h
1197 14-02-2021 03:40:00 -7.9 C 2.51 g/m*3 -7.9 C 0 km/h
1198 14-02-2021 03:45:00 -8 C 2.49 g/m*3 -8 C 0 km/h
1199 14-02-2021 03:50:00 -8.2 C 2.43 g/m*3 -8.2 C 0 km/h
1200 14-02-2021 03:55:00 -8.3 C 2.41 g/m*3 -8.3 C 0 km/h
Sensor: Nr:Datum:Temp:Abs-Feuchte:Windchill:Wind:
Aussen-T/F 1201 14-02-2021 04:00:00 -8.3 C 2.41 g/m*3 -8.3 C 3.2 km/h
1202 14-02-2021 04:05:00 -8.4 C 2.39 g/m*3 -8.4 C 3.2 km/h
1203 14-02-2021 04:10:00 -8.4 C 2.42 g/m*3 -8.4 C 3.2 km/h
1204 14-02-2021 04:15:00 -8.4 C 2.42 g/m*3 -8.4 C 1.6 km/h
1205 14-02-2021 04:20:00 -8.5 C 2.4 g/m*3 -8.5 C 0 km/h
1206 14-02-2021 04:25:00 -8.6 C 2.38 g/m*3 -8.6 C 3.2 km/h
1207 14-02-2021 04:30:00 -8.6 C 2.38 g/m*3 -8.6 C 0 km/h
1208 14-02-2021 04:35:00 -8.7 C 2.36 g/m*3 -8.7 C 0 km/h
1209 14-02-2021 04:40:00 -8.7 C 2.36 g/m*3 -8.7 C 3.2 km/h
1210 14-02-2021 04:45:00 -8.7 C 2.36 g/m*3 -8.7 C 3.2 km/h
1211 14-02-2021 04:50:00 -8.7 C 2.36 g/m*3 -8.7 C 1.6 km/h
1212 14-02-2021 04:55:00 -8.6 C 2.38 g/m*3 -8.6 C 0 km/h
1213 14-02-2021 05:00:00 -8.6 C 2.41 g/m*3 -8.6 C 0 km/h
1214 14-02-2021 05:05:00 -8.6 C 2.41 g/m*3 -8.6 C 1.6 km/h
1215 14-02-2021 05:10:00 -8.6 C 2.41 g/m*3 -8.6 C 3.2 km/h
1216 14-02-2021 05:15:00 -8.6 C 2.41 g/m*3 -8.6 C 3.2 km/h
1217 14-02-2021 05:20:00 -8.6 C 2.41 g/m*3 -8.6 C 1.6 km/h
1218 14-02-2021 05:25:00 -8.6 C 2.38 g/m*3 -8.6 C 0 km/h
1219 14-02-2021 05:30:00 -8.7 C 2.36 g/m*3 -8.7 C 3.2 km/h
1220 14-02-2021 05:35:00 -8.7 C 2.36 g/m*3 -8.7 C 3.2 km/h
1221 14-02-2021 05:40:00 -8.7 C 2.36 g/m*3 -8.7 C 1.6 km/h
1222 14-02-2021 05:45:00 -8.7 C 2.36 g/m*3 -8.7 C 1.6 km/h
1223 14-02-2021 05:50:00 -8.8 C 2.35 g/m*3 -8.8 C 3.2 km/h
1224 14-02-2021 05:55:00 -8.8 C 2.35 g/m*3 -8.8 C 3.2 km/h
1225 14-02-2021 06:00:00 -8.8 C 2.37 g/m*3 -8.8 C 1.6 km/h
Sensor: Nr:Datum:Temp:Abs-Feuchte:Windchill:Wind:
Aussen-T/F 1226 14-02-2021 06:05:00 -8.8 C 2.35 g/m*3 -8.8 C 0 km/h
1227 14-02-2021 06:10:00 -8.9 C 2.33 g/m*3 -8.9 C 1.6 km/h
1228 14-02-2021 06:15:00 -8.9 C 2.33 g/m*3 -8.9 C 1.6 km/h
1229 14-02-2021 06:20:00 -8.9 C 2.33 g/m*3 -8.9 C 3.2 km/h
1230 14-02-2021 06:25:00 -8.9 C 2.35 g/m*3 -8.9 C 0 km/h
1231 14-02-2021 06:30:00 -9 C 2.34 g/m*3 -9 C 0 km/h
1232 14-02-2021 06:35:00 -9 C 2.34 g/m*3 -9 C 3.2 km/h
1233 14-02-2021 06:40:00 -9 C 2.34 g/m*3 -9 C 3.2 km/h
1234 14-02-2021 06:45:00 -9 C 2.34 g/m*3 -9 C 1.6 km/h
1235 14-02-2021 06:50:00 -9.1 C 2.32 g/m*3 -9.1 C 0 km/h
1236 14-02-2021 06:55:00 -9.1 C 2.32 g/m*3 -9.1 C 0 km/h
1237 14-02-2021 07:00:00 -9.2 C 2.28 g/m*3 -9.2 C 0 km/h
1238 14-02-2021 07:05:00 -9.3 C 2.26 g/m*3 -9.3 C 0 km/h
1239 14-02-2021 07:10:00 -9.4 C 2.24 g/m*3 -9.4 C 0 km/h
1240 14-02-2021 07:15:00 -9.4 C 2.24 g/m*3 -9.4 C 0 km/h
1241 14-02-2021 07:20:00 -9.6 C 2.21 g/m*3 -9.6 C 1.6 km/h
1242 14-02-2021 07:25:00 -9.6 C 2.21 g/m*3 -9.6 C 3.2 km/h
1243 14-02-2021 07:30:00 -9.6 C 2.23 g/m*3 -9.6 C 1.6 km/h
1244 14-02-2021 07:35:00 -9.5 C 2.25 g/m*3 -9.5 C 0 km/h
1245 14-02-2021 07:40:00 -9.5 C 2.25 g/m*3 -9.5 C 0 km/h
1246 14-02-2021 07:45:00 -9.6 C 2.23 g/m*3 -9.6 C 0 km/h
1247 14-02-2021 07:50:00 -9.6 C 2.23 g/m*3 -9.6 C 0 km/h
1248 14-02-2021 07:55:00 -9.6 C 2.23 g/m*3 -9.6 C 0 km/h
1249 14-02-2021 08:00:00 -9.6 C 2.23 g/m*3 -9.6 C 0 km/h
1250 14-02-2021 08:05:00 -9.6 C 2.23 g/m*3 -9.6 C 0 km/h
Sensor: Nr:Datum:Temp:Abs-Feuchte:Windchill:Wind:
Aussen-T/F 1251 14-02-2021 08:10:00 -9.5 C 2.25 g/m*3 -9.5 C 1.6 km/h
1252 14-02-2021 08:15:00 -9.4 C 2.27 g/m*3 -9.4 C 3.2 km/h
1253 14-02-2021 08:20:00 -9.4 C 2.27 g/m*3 -9.4 C 3.2 km/h
1254 14-02-2021 08:25:00 -9.3 C 2.28 g/m*3 -9.3 C 1.6 km/h
1255 14-02-2021 08:30:00 -9.3 C 2.28 g/m*3 -9.3 C 0 km/h
1256 14-02-2021 08:35:00 -9.2 C 2.3 g/m*3 -9.2 C 1.6 km/h
1257 14-02-2021 08:40:00 -9.2 C 2.3 g/m*3 -9.2 C 0 km/h
1258 14-02-2021 08:45:00 -9.2 C 2.3 g/m*3 -9.2 C 3.2 km/h
1259 14-02-2021 08:50:00 -9.1 C 2.32 g/m*3 -9.1 C 3.2 km/h
1260 14-02-2021 08:55:00 -9 C 2.36 g/m*3 -9 C 3.2 km/h
1261 14-02-2021 09:00:00 -8.8 C 2.4 g/m*3 -8.8 C 3.2 km/h
1262 14-02-2021 09:05:00 -8.7 C 2.41 g/m*3 -8.7 C 3.2 km/h
1263 14-02-2021 09:10:00 -8.6 C 2.43 g/m*3 -8.6 C 4.8 km/h
1264 14-02-2021 09:15:00 -8.5 C 2.45 g/m*3 -8.5 C 3.2 km/h
1265 14-02-2021 09:20:00 -8.4 C 2.47 g/m*3 -8.4 C 3.2 km/h
1266 14-02-2021 09:25:00 -8.3 C 2.49 g/m*3 -11.77 C 6.4 km/h
1267 14-02-2021 09:30:00 -8.1 C 2.52 g/m*3 -8.1 C 4.8 km/h
1268 14-02-2021 09:35:00 -8 C 2.54 g/m*3 -8 C 4.8 km/h
1269 14-02-2021 09:40:00 -7.8 C 2.58 g/m*3 -7.8 C 4.8 km/h
1270 14-02-2021 09:45:00 -7.7 C 2.6 g/m*3 -7.7 C 4.8 km/h
1271 14-02-2021 09:50:00 -7.6 C 2.62 g/m*3 -7.6 C 4.8 km/h
1272 14-02-2021 09:55:00 -7.5 C 2.64 g/m*3 -7.5 C 4.8 km/h
1273 14-02-2021 10:00:00 -7.3 C 2.68 g/m*3 -7.3 C 4.8 km/h
1274 14-02-2021 10:05:00 -7.2 C 2.7 g/m*3 -7.2 C 4.8 km/h
1275 14-02-2021 10:10:00 -7.1 C 2.72 g/m*3 -7.1 C 3.2 km/h
Sensor: Nr:Datum:Temp:Abs-Feuchte:Windchill:Wind:
Aussen-T/F 1276 14-02-2021 10:15:00 -6.9 C 2.76 g/m*3 -6.9 C 4.8 km/h
1277 14-02-2021 10:20:00 -6.8 C 2.78 g/m*3 -10.04 C 6.4 km/h
1278 14-02-2021 10:25:00 -6.7 C 2.8 g/m*3 -6.7 C 4.8 km/h
1279 14-02-2021 10:30:00 -6.6 C 2.82 g/m*3 -6.6 C 4.8 km/h
1280 14-02-2021 10:35:00 -6.4 C 2.86 g/m*3 -6.4 C 3.2 km/h
1281 14-02-2021 10:40:00 -6.3 C 2.88 g/m*3 -6.3 C 4.8 km/h
1282 14-02-2021 10:45:00 -6.2 C 2.9 g/m*3 -6.2 C 3.2 km/h
1283 14-02-2021 10:50:00 -6.1 C 2.92 g/m*3 -6.1 C 4.8 km/h
1284 14-02-2021 10:55:00 -5.9 C 2.97 g/m*3 -5.9 C 3.2 km/h
1285 14-02-2021 11:00:00 -5.7 C 3.01 g/m*3 -5.7 C 3.2 km/h
1286 14-02-2021 11:05:00 -5.4 C 3.08 g/m*3 -8.42 C 6.4 km/h
1287 14-02-2021 11:10:00 -5.1 C 3.14 g/m*3 -8.07 C 6.4 km/h
1288 14-02-2021 11:15:00 -4.9 C 3.19 g/m*3 -4.9 C 4.8 km/h
1289 14-02-2021 11:20:00 -4.6 C 3.26 g/m*3 -7.5 C 6.4 km/h
1290 14-02-2021 11:25:00 -4.3 C 3.33 g/m*3 -4.3 C 4.8 km/h
1291 14-02-2021 11:30:00 -4.1 C 3.38 g/m*3 -4.1 C 4.8 km/h
1292 14-02-2021 11:35:00 -3.9 C 3.39 g/m*3 -3.9 C 1.6 km/h
1293 14-02-2021 11:40:00 -3.7 C 3.44 g/m*3 -3.7 C 3.2 km/h
1294 14-02-2021 11:45:00 -3.4 C 3.51 g/m*3 -6.11 C 6.4 km/h
1295 14-02-2021 11:50:00 -3.2 C 3.52 g/m*3 -5.88 C 6.4 km/h
1296 14-02-2021 11:55:00 -3 C 3.54 g/m*3 -5.65 C 6.4 km/h
1297 14-02-2021 12:00:00 -2.8 C 3.59 g/m*3 -2.8 C 4.8 km/h
1298 14-02-2021 12:05:00 -2.6 C 3.6 g/m*3 -5.19 C 6.4 km/h
1299 14-02-2021 12:10:00 -2.4 C 3.65 g/m*3 -2.4 C 4.8 km/h
1300 14-02-2021 12:15:00 -2.2 C 3.62 g/m*3 -2.2 C 3.2 km/h
Sensor: Nr:Datum:Temp:Abs-Feuchte:Windchill:Wind:
Aussen-T/F 1301 14-02-2021 12:20:00 -1.9 C 3.69 g/m*3 -1.9 C 4.8 km/h
1302 14-02-2021 12:25:00 -1.7 C 3.66 g/m*3 -4.15 C 6.4 km/h
1303 14-02-2021 12:30:00 -1.4 C 3.74 g/m*3 -3.8 C 6.4 km/h
1304 14-02-2021 12:35:00 -1.2 C 3.79 g/m*3 -3.57 C 6.4 km/h
1305 14-02-2021 12:40:00 -0.9 C 3.78 g/m*3 -0.9 C 4.8 km/h
1306 14-02-2021 12:45:00 -0.7 C 3.83 g/m*3 -0.7 C 4.8 km/h
1307 14-02-2021 12:50:00 -0.5 C 3.84 g/m*3 -0.5 C 4.8 km/h
1308 14-02-2021 12:55:00 -0.3 C 3.8 g/m*3 -3.12 C 8.1 km/h
1309 14-02-2021 13:00:00 -0.1 C 3.66 g/m*3 -0.1 C 3.2 km/h
1310 14-02-2021 13:05:00 0.2 C 3.78 g/m*3 0.2 C 4.8 km/h
1311 14-02-2021 13:10:00 0.4 C 3.64 g/m*3 -1.72 C 6.4 km/h
1312 14-02-2021 13:15:00 0.7 C 3.51 g/m*3 0.7 C 4.8 km/h
1313 14-02-2021 13:20:00 1 C 3.37 g/m*3 1 C 4.8 km/h
1314 14-02-2021 13:25:00 1.3 C 3.28 g/m*3 1.3 C 1.6 km/h
1315 14-02-2021 13:30:00 1.6 C 3.46 g/m*3 -0.33 C 6.4 km/h
1316 14-02-2021 13:35:00 1.9 C 3.37 g/m*3 0.01 C 6.4 km/h
1317 14-02-2021 13:40:00 2.2 C 3.04 g/m*3 -0.61 C 9.7 km/h
1318 14-02-2021 13:45:00 2.5 C 3.05 g/m*3 0.71 C 6.4 km/h
1319 14-02-2021 13:50:00 2.7 C 3.15 g/m*3 -1 C 14.5 km/h
1320 14-02-2021 13:55:00 2.9 C 3.19 g/m*3 1.17 C 6.4 km/h
1321 14-02-2021 14:00:00 3.2 C 2.83 g/m*3 0.99 C 8.1 km/h
1322 14-02-2021 14:05:00 3.4 C 2.99 g/m*3 0.46 C 11.3 km/h
1323 14-02-2021 14:10:00 3.6 C 2.79 g/m*3 1.46 C 8.1 km/h
1324 14-02-2021 14:15:00 3.7 C 2.93 g/m*3 2.09 C 6.4 km/h
1325 14-02-2021 14:20:00 3.7 C 2.74 g/m*3 0.82 C 11.3 km/h
Sensor: Nr:Datum:Temp:Abs-Feuchte:Windchill:Wind:
Aussen-T/F 1326 14-02-2021 14:25:00 3.8 C 2.89 g/m*3 2.21 C 6.4 km/h
1327 14-02-2021 14:30:00 3.8 C 2.89 g/m*3 0.1 C 16.1 km/h
1328 14-02-2021 14:35:00 3.8 C 2.63 g/m*3 0.1 C 16.1 km/h
1329 14-02-2021 14:40:00 3.8 C 2.82 g/m*3 1.7 C 8.1 km/h
1330 14-02-2021 14:45:00 3.8 C 2.82 g/m*3 3.8 C 3.2 km/h
1331 14-02-2021 14:50:00 3.9 C 2.72 g/m*3 1.82 C 8.1 km/h
1332 14-02-2021 14:55:00 3.9 C 2.91 g/m*3 3.9 C 4.8 km/h
1333 14-02-2021 15:00:00 3.9 C 2.84 g/m*3 3.9 C 4.8 km/h
1334 14-02-2021 15:05:00 3.8 C 2.82 g/m*3 3.8 C 4.8 km/h
1335 14-02-2021 15:10:00 3.7 C 2.68 g/m*3 3.7 C 4.8 km/h
1336 14-02-2021 15:15:00 3.6 C 2.85 g/m*3 0.7 C 11.3 km/h
1337 14-02-2021 15:20:00 3.6 C 2.79 g/m*3 1.98 C 6.4 km/h
1338 14-02-2021 15:25:00 3.6 C 2.91 g/m*3 1.98 C 6.4 km/h
1339 14-02-2021 15:30:00 3.6 C 2.85 g/m*3 1.98 C 6.4 km/h
1340 14-02-2021 15:35:00 3.7 C 2.93 g/m*3 3.7 C 4.8 km/h
1341 14-02-2021 15:40:00 3.7 C 2.8 g/m*3 3.7 C 4.8 km/h
1342 14-02-2021 15:45:00 3.7 C 2.99 g/m*3 3.7 C 4.8 km/h
1343 14-02-2021 15:50:00 3.8 C 2.82 g/m*3 2.21 C 6.4 km/h
1344 14-02-2021 15:55:00 4 C 2.92 g/m*3 2.44 C 6.4 km/h
1345 14-02-2021 16:00:00 4.1 C 3.14 g/m*3 4.1 C 3.2 km/h
1346 14-02-2021 16:05:00 4 C 3.31 g/m*3 4 C 4.8 km/h
1347 14-02-2021 16:10:00 3.8 C 3.01 g/m*3 3.8 C 4.8 km/h
1348 14-02-2021 16:15:00 3.7 C 3.05 g/m*3 3.7 C 3.2 km/h
1349 14-02-2021 16:20:00 3.5 C 2.83 g/m*3 3.5 C 3.2 km/h
1350 14-02-2021 16:25:00 3.3 C 3.4 g/m*3 3.3 C 4.8 km/h
Sensor: Nr:Datum:Temp:Abs-Feuchte:Windchill:Wind:
Aussen-T/F 1351 14-02-2021 16:30:00 3.2 C 3.25 g/m*3 3.2 C 1.6 km/h
1352 14-02-2021 16:35:00 2.9 C 3.37 g/m*3 2.9 C 4.8 km/h
1353 14-02-2021 16:40:00 2.7 C 3.44 g/m*3 2.7 C 3.2 km/h
1354 14-02-2021 16:45:00 2.4 C 3.48 g/m*3 2.4 C 4.8 km/h
1355 14-02-2021 16:50:00 2.3 C 3.57 g/m*3 2.3 C 3.2 km/h
1356 14-02-2021 16:55:00 2.2 C 3.6 g/m*3 2.2 C 4.8 km/h
1357 14-02-2021 17:00:00 2.1 C 3.64 g/m*3 0.24 C 6.4 km/h
1358 14-02-2021 17:05:00 1.9 C 3.7 g/m*3 0.01 C 6.4 km/h
1359 14-02-2021 17:10:00 1.8 C 3.67 g/m*3 1.8 C 4.8 km/h
1360 14-02-2021 17:15:00 1.6 C 3.68 g/m*3 1.6 C 4.8 km/h
1361 14-02-2021 17:20:00 1.4 C 3.63 g/m*3 1.4 C 4.8 km/h
1362 14-02-2021 17:25:00 1.2 C 3.68 g/m*3 1.2 C 4.8 km/h
1363 14-02-2021 17:30:00 1.1 C 3.61 g/m*3 1.1 C 4.8 km/h
1364 14-02-2021 17:35:00 0.9 C 3.61 g/m*3 0.9 C 4.8 km/h
1365 14-02-2021 17:40:00 0.8 C 3.63 g/m*3 -1.26 C 6.4 km/h
1366 14-02-2021 17:45:00 0.6 C 3.64 g/m*3 -1.49 C 6.4 km/h
1367 14-02-2021 17:50:00 0.4 C 3.59 g/m*3 0.4 C 4.8 km/h
1368 14-02-2021 17:55:00 0.3 C 3.61 g/m*3 0.3 C 4.8 km/h
1369 14-02-2021 18:00:00 0.2 C 3.54 g/m*3 0.2 C 3.2 km/h
1370 14-02-2021 18:05:00 0.1 C 3.56 g/m*3 0.1 C 4.8 km/h
1371 14-02-2021 18:10:00 0.1 C 3.61 g/m*3 0.1 C 4.8 km/h
1372 14-02-2021 18:15:00 -0.1 C 3.56 g/m*3 -0.1 C 4.8 km/h
1373 14-02-2021 18:20:00 -0.1 C 3.56 g/m*3 -0.1 C 4.8 km/h
1374 14-02-2021 18:25:00 -0.2 C 3.58 g/m*3 -0.2 C 4.8 km/h
1375 14-02-2021 18:30:00 -0.2 C 3.58 g/m*3 -0.2 C 3.2 km/h
Sensor: Nr:Datum:Temp:Abs-Feuchte:Windchill:Wind:
Aussen-T/F 1376 14-02-2021 18:35:00 -0.2 C 3.63 g/m*3 -0.2 C 4.8 km/h
1377 14-02-2021 18:40:00 -0.3 C 3.56 g/m*3 -0.3 C 4.8 km/h
1378 14-02-2021 18:45:00 -0.3 C 3.56 g/m*3 -0.3 C 3.2 km/h
1379 14-02-2021 18:50:00 -0.3 C 3.51 g/m*3 -2.53 C 6.4 km/h
1380 14-02-2021 18:55:00 -0.3 C 3.56 g/m*3 -0.3 C 4.8 km/h
1381 14-02-2021 19:00:00 -0.3 C 3.56 g/m*3 -0.3 C 4.8 km/h
1382 14-02-2021 19:05:00 -0.3 C 3.56 g/m*3 -2.53 C 6.4 km/h
1383 14-02-2021 19:10:00 -0.4 C 3.53 g/m*3 -2.64 C 6.4 km/h
1384 14-02-2021 19:15:00 -0.4 C 3.53 g/m*3 -0.4 C 3.2 km/h
1385 14-02-2021 19:20:00 -0.4 C 3.58 g/m*3 -0.4 C 4.8 km/h
1386 14-02-2021 19:25:00 -0.4 C 3.58 g/m*3 -0.4 C 3.2 km/h
1387 14-02-2021 19:30:00 -0.4 C 3.58 g/m*3 -0.4 C 3.2 km/h
1388 14-02-2021 19:35:00 -0.4 C 3.58 g/m*3 -0.4 C 4.8 km/h
1389 14-02-2021 19:40:00 -0.4 C 3.58 g/m*3 -2.64 C 6.4 km/h
1390 14-02-2021 19:45:00 -0.4 C 3.58 g/m*3 -0.4 C 3.2 km/h
1391 14-02-2021 19:50:00 -0.4 C 3.58 g/m*3 -0.4 C 4.8 km/h
1392 14-02-2021 19:55:00 -0.4 C 3.58 g/m*3 -0.4 C 4.8 km/h
1393 14-02-2021 20:00:00 -0.4 C 3.58 g/m*3 -0.4 C 4.8 km/h
1394 14-02-2021 20:05:00 -0.5 C 3.51 g/m*3 -0.5 C 4.8 km/h
1395 14-02-2021 20:10:00 -0.5 C 3.51 g/m*3 -0.5 C 4.8 km/h
1396 14-02-2021 20:15:00 -0.6 C 3.49 g/m*3 -0.6 C 4.8 km/h
1397 14-02-2021 20:20:00 -0.7 C 3.46 g/m*3 -2.99 C 6.4 km/h
1398 14-02-2021 20:25:00 -0.7 C 3.42 g/m*3 -0.7 C 3.2 km/h
1399 14-02-2021 20:30:00 -0.8 C 3.39 g/m*3 -0.8 C 4.8 km/h
1400 14-02-2021 20:35:00 -0.9 C 3.37 g/m*3 -0.9 C 3.2 km/h
Sensor: Nr:Datum:Temp:Abs-Feuchte:Windchill:Wind:
Aussen-T/F 1401 14-02-2021 20:40:00 -1.1 C 3.37 g/m*3 -1.1 C 4.8 km/h
1402 14-02-2021 20:45:00 -1.2 C 3.34 g/m*3 -1.2 C 4.8 km/h
1403 14-02-2021 20:50:00 -1.2 C 3.39 g/m*3 -1.2 C 4.8 km/h
1404 14-02-2021 20:55:00 -1.3 C 3.36 g/m*3 -1.3 C 4.8 km/h
1405 14-02-2021 21:00:00 -1.4 C 3.39 g/m*3 -1.4 C 4.8 km/h
1406 14-02-2021 21:05:00 -1.4 C 3.43 g/m*3 -1.4 C 4.8 km/h
1407 14-02-2021 21:10:00 -1.5 C 3.36 g/m*3 -1.5 C 4.8 km/h
1408 14-02-2021 21:15:00 -1.6 C 3.38 g/m*3 -1.6 C 4.8 km/h
1409 14-02-2021 21:20:00 -1.6 C 3.42 g/m*3 -1.6 C 3.2 km/h
1410 14-02-2021 21:25:00 -1.6 C 3.38 g/m*3 -1.6 C 0 km/h
1411 14-02-2021 21:30:00 -1.6 C 3.38 g/m*3 -1.6 C 3.2 km/h
1412 14-02-2021 21:35:00 -1.6 C 3.38 g/m*3 -1.6 C 3.2 km/h
1413 14-02-2021 21:40:00 -1.6 C 3.42 g/m*3 -1.6 C 3.2 km/h
1414 14-02-2021 21:45:00 -1.6 C 3.42 g/m*3 -1.6 C 3.2 km/h
1415 14-02-2021 21:50:00 -1.6 C 3.42 g/m*3 -1.6 C 4.8 km/h
1416 14-02-2021 21:55:00 -1.7 C 3.4 g/m*3 -1.7 C 4.8 km/h
1417 14-02-2021 22:00:00 -1.7 C 3.4 g/m*3 -1.7 C 1.6 km/h
1418 14-02-2021 22:05:00 -1.8 C 3.38 g/m*3 -1.8 C 4.8 km/h
1419 14-02-2021 22:10:00 -1.8 C 3.38 g/m*3 -1.8 C 0 km/h
1420 14-02-2021 22:15:00 -1.9 C 3.35 g/m*3 -1.9 C 3.2 km/h
1421 14-02-2021 22:20:00 -1.9 C 3.35 g/m*3 -1.9 C 3.2 km/h
1422 14-02-2021 22:25:00 -1.9 C 3.4 g/m*3 -1.9 C 1.6 km/h
1423 14-02-2021 22:30:00 -1.9 C 3.4 g/m*3 -1.9 C 1.6 km/h
1424 14-02-2021 22:35:00 -1.9 C 3.4 g/m*3 -1.9 C 4.8 km/h
1425 14-02-2021 22:40:00 -1.9 C 3.35 g/m*3 -1.9 C 4.8 km/h
Sensor: Nr:Datum:Temp:Abs-Feuchte:Windchill:Wind:
Aussen-T/F 1426 14-02-2021 22:45:00 -1.9 C 3.35 g/m*3 -1.9 C 3.2 km/h
1427 14-02-2021 22:50:00 -1.9 C 3.35 g/m*3 -1.9 C 3.2 km/h
1428 14-02-2021 22:55:00 -1.9 C 3.35 g/m*3 -1.9 C 4.8 km/h
1429 14-02-2021 23:00:00 -1.9 C 3.35 g/m*3 -1.9 C 4.8 km/h
1430 14-02-2021 23:05:00 -2 C 3.29 g/m*3 -2 C 4.8 km/h
1431 14-02-2021 23:10:00 -2 C 3.29 g/m*3 -2 C 4.8 km/h
1432 14-02-2021 23:15:00 -2 C 3.2 g/m*3 -2 C 3.2 km/h
1433 14-02-2021 23:20:00 -2 C 3.16 g/m*3 -2 C 1.6 km/h
1434 14-02-2021 23:25:00 -2 C 3.12 g/m*3 -2 C 1.6 km/h
1435 14-02-2021 23:30:00 -2.1 C 3.14 g/m*3 -2.1 C 1.6 km/h
1436 14-02-2021 23:35:00 -2.1 C 3.06 g/m*3 -2.1 C 3.2 km/h
1437 14-02-2021 23:40:00 -2 C 3.03 g/m*3 -2 C 4.8 km/h
1438 14-02-2021 23:45:00 -1.9 C 3.06 g/m*3 -1.9 C 3.2 km/h
1439 14-02-2021 23:50:00 -1.8 C 3.04 g/m*3 -4.26 C 6.4 km/h
1440 14-02-2021 23:55:00 -1.7 C 3.1 g/m*3 -1.7 C 3.2 km/h
1441 15-02-2021 00:00:00 -1.7 C 3.06 g/m*3 -1.7 C 3.2 km/h
1442 15-02-2021 00:05:00 -1.7 C 3.01 g/m*3 -1.7 C 4.8 km/h
1443 15-02-2021 00:10:00 -1.7 C 3.06 g/m*3 -1.7 C 4.8 km/h
1444 15-02-2021 00:15:00 -1.8 C 3.08 g/m*3 -1.8 C 4.8 km/h
1445 15-02-2021 00:20:00 -1.8 C 3.04 g/m*3 -1.8 C 3.2 km/h
1446 15-02-2021 00:25:00 -1.8 C 3.04 g/m*3 -1.8 C 3.2 km/h
1447 15-02-2021 00:30:00 -1.8 C 3.08 g/m*3 -1.8 C 4.8 km/h
1448 15-02-2021 00:35:00 -1.8 C 3.08 g/m*3 -1.8 C 4.8 km/h
1449 15-02-2021 00:40:00 -1.8 C 3.08 g/m*3 -1.8 C 3.2 km/h
1450 15-02-2021 00:45:00 -1.8 C 3.08 g/m*3 -1.8 C 3.2 km/h
Sensor: Nr:Datum:Temp:Abs-Feuchte:Windchill:Wind:
Aussen-T/F 1451 15-02-2021 00:50:00 -1.9 C 2.97 g/m*3 -1.9 C 4.8 km/h
1452 15-02-2021 00:55:00 -1.9 C 3.01 g/m*3 -1.9 C 3.2 km/h
1453 15-02-2021 01:00:00 -1.9 C 3.06 g/m*3 -1.9 C 3.2 km/h
1454 15-02-2021 01:05:00 -2.1 C 3.01 g/m*3 -2.1 C 0 km/h
1455 15-02-2021 01:10:00 -2.2 C 3.03 g/m*3 -4.72 C 6.4 km/h
1456 15-02-2021 01:15:00 -2.3 C 2.97 g/m*3 -2.3 C 3.2 km/h
1457 15-02-2021 01:20:00 -2.3 C 2.97 g/m*3 -2.3 C 3.2 km/h
1458 15-02-2021 01:25:00 -2.3 C 3.05 g/m*3 -2.3 C 4.8 km/h
1459 15-02-2021 01:30:00 -2.3 C 3.01 g/m*3 -2.3 C 3.2 km/h
1460 15-02-2021 01:35:00 -2.4 C 3.03 g/m*3 -2.4 C 4.8 km/h
1461 15-02-2021 01:40:00 -2.6 C 2.95 g/m*3 -2.6 C 3.2 km/h
1462 15-02-2021 01:45:00 -2.6 C 2.99 g/m*3 -2.6 C 4.8 km/h
1463 15-02-2021 01:50:00 -2.7 C 2.97 g/m*3 -2.7 C 3.2 km/h
1464 15-02-2021 01:55:00 -2.7 C 2.93 g/m*3 -2.7 C 3.2 km/h
1465 15-02-2021 02:00:00 -2.6 C 2.91 g/m*3 -2.6 C 4.8 km/h
1466 15-02-2021 02:05:00 -2.5 C 3.01 g/m*3 -2.5 C 4.8 km/h
1467 15-02-2021 02:10:00 -2.5 C 3.05 g/m*3 -2.5 C 1.6 km/h
1468 15-02-2021 02:15:00 -2.6 C 2.99 g/m*3 -2.6 C 4.8 km/h
1469 15-02-2021 02:20:00 -2.3 C 2.97 g/m*3 -2.3 C 4.8 km/h
1470 15-02-2021 02:25:00 -2.2 C 2.95 g/m*3 -4.72 C 6.4 km/h
1471 15-02-2021 02:30:00 -2.2 C 2.99 g/m*3 -2.2 C 3.2 km/h
1472 15-02-2021 02:35:00 -2.3 C 3.01 g/m*3 -2.3 C 3.2 km/h
1473 15-02-2021 02:40:00 -2.3 C 3.01 g/m*3 -2.3 C 3.2 km/h
1474 15-02-2021 02:45:00 -2.4 C 3.03 g/m*3 -2.4 C 3.2 km/h
1475 15-02-2021 02:50:00 -2.5 C 2.97 g/m*3 -2.5 C 1.6 km/h
Sensor: Nr:Datum:Temp:Abs-Feuchte:Windchill:Wind:
Aussen-T/F 1476 15-02-2021 02:55:00 -2.5 C 2.93 g/m*3 -5.07 C 6.4 km/h
1477 15-02-2021 03:00:00 -2.4 C 2.91 g/m*3 -2.4 C 1.6 km/h
1478 15-02-2021 03:05:00 -2.3 C 2.93 g/m*3 -2.3 C 3.2 km/h
1479 15-02-2021 03:10:00 -2.3 C 3.01 g/m*3 -2.3 C 3.2 km/h
1480 15-02-2021 03:15:00 -2.4 C 3.03 g/m*3 -2.4 C 1.6 km/h
1481 15-02-2021 03:20:00 -2.4 C 2.95 g/m*3 -2.4 C 3.2 km/h
1482 15-02-2021 03:25:00 -2.3 C 2.89 g/m*3 -4.84 C 6.4 km/h
1483 15-02-2021 03:30:00 -2.1 C 2.93 g/m*3 -4.61 C 6.4 km/h
1484 15-02-2021 03:35:00 -1.9 C 2.89 g/m*3 -4.38 C 6.4 km/h
1485 15-02-2021 03:40:00 -1.7 C 2.84 g/m*3 -4.15 C 6.4 km/h
1486 15-02-2021 03:45:00 -1.4 C 2.81 g/m*3 -4.42 C 8.1 km/h
1487 15-02-2021 03:50:00 -1.3 C 2.79 g/m*3 -4.3 C 8.1 km/h
1488 15-02-2021 03:55:00 -1.1 C 2.78 g/m*3 -4.06 C 8.1 km/h
1489 15-02-2021 04:00:00 -0.8 C 2.8 g/m*3 -5.61 C 16.1 km/h
1490 15-02-2021 04:05:00 -0.6 C 2.84 g/m*3 -4.36 C 11.3 km/h
1491 15-02-2021 04:10:00 -0.5 C 2.81 g/m*3 -3.36 C 8.1 km/h
1492 15-02-2021 04:15:00 -0.4 C 2.83 g/m*3 -3.71 C 9.7 km/h
1493 15-02-2021 04:20:00 -0.3 C 2.8 g/m*3 -4.99 C 16.1 km/h
1494 15-02-2021 04:25:00 -0.3 C 2.8 g/m*3 -4 C 11.3 km/h
1495 15-02-2021 04:30:00 -0.4 C 2.83 g/m*3 -0.4 C 4.8 km/h
1496 15-02-2021 04:35:00 -0.4 C 2.83 g/m*3 -4.49 C 12.9 km/h
1497 15-02-2021 04:40:00 -0.4 C 2.78 g/m*3 -4.49 C 12.9 km/h
1498 15-02-2021 04:45:00 -0.4 C 2.83 g/m*3 -4.49 C 12.9 km/h
1499 15-02-2021 04:50:00 -0.4 C 2.87 g/m*3 -2.64 C 6.4 km/h
1500 15-02-2021 04:55:00 -0.4 C 2.87 g/m*3 -3.24 C 8.1 km/h
Sensor: Nr:Datum:Temp:Abs-Feuchte:Windchill:Wind:
Aussen-T/F 1501 15-02-2021 05:00:00 -0.4 C 2.83 g/m*3 -2.64 C 6.4 km/h
1502 15-02-2021 05:05:00 -0.4 C 2.87 g/m*3 -0.4 C 4.8 km/h
1503 15-02-2021 05:10:00 -0.4 C 2.87 g/m*3 -2.64 C 6.4 km/h
1504 15-02-2021 05:15:00 -0.4 C 2.83 g/m*3 -3.24 C 8.1 km/h
1505 15-02-2021 05:20:00 -0.4 C 2.83 g/m*3 -3.24 C 8.1 km/h
1506 15-02-2021 05:25:00 -0.4 C 2.83 g/m*3 -0.4 C 4.8 km/h
1507 15-02-2021 05:30:00 -0.4 C 2.83 g/m*3 -0.4 C 4.8 km/h
1508 15-02-2021 05:35:00 -0.4 C 2.83 g/m*3 -0.4 C 3.2 km/h
1509 15-02-2021 05:40:00 -0.4 C 2.87 g/m*3 -0.4 C 4.8 km/h
1510 15-02-2021 05:45:00 -0.4 C 2.83 g/m*3 -4.49 C 12.9 km/h
1511 15-02-2021 05:50:00 -0.4 C 2.78 g/m*3 -3.24 C 8.1 km/h
1512 15-02-2021 05:55:00 -0.3 C 2.85 g/m*3 -0.3 C 4.8 km/h
1513 15-02-2021 06:00:00 -0.3 C 2.94 g/m*3 -0.3 C 1.6 km/h
1514 15-02-2021 06:05:00 -0.4 C 2.83 g/m*3 -0.4 C 1.6 km/h
1515 15-02-2021 06:10:00 -0.4 C 2.87 g/m*3 -0.4 C 1.6 km/h
1516 15-02-2021 06:15:00 -0.4 C 2.87 g/m*3 -0.4 C 1.6 km/h
1517 15-02-2021 06:20:00 -0.5 C 2.95 g/m*3 -0.5 C 1.6 km/h
1518 15-02-2021 06:25:00 -0.5 C 3 g/m*3 -0.5 C 1.6 km/h
1519 15-02-2021 06:30:00 -0.6 C 2.97 g/m*3 -0.6 C 4.8 km/h
1520 15-02-2021 06:35:00 -0.5 C 2.86 g/m*3 -3.36 C 8.1 km/h
1521 15-02-2021 06:40:00 -0.4 C 2.92 g/m*3 -0.4 C 4.8 km/h
1522 15-02-2021 06:45:00 -0.4 C 2.97 g/m*3 -0.4 C 4.8 km/h
1523 15-02-2021 06:50:00 -0.4 C 2.97 g/m*3 -2.64 C 6.4 km/h
1524 15-02-2021 06:55:00 -0.4 C 2.92 g/m*3 -2.64 C 6.4 km/h
1525 15-02-2021 07:00:00 -0.4 C 2.92 g/m*3 -0.4 C 1.6 km/h
Sensor: Nr:Datum:Temp:Abs-Feuchte:Windchill:Wind:
Aussen-T/F 1526 15-02-2021 07:05:00 -0.4 C 2.97 g/m*3 -0.4 C 3.2 km/h
1527 15-02-2021 07:10:00 -0.4 C 2.92 g/m*3 -0.4 C 4.8 km/h
1528 15-02-2021 07:15:00 -0.3 C 2.94 g/m*3 -3.12 C 8.1 km/h
1529 15-02-2021 07:20:00 -0.3 C 2.99 g/m*3 -0.3 C 3.2 km/h
1530 15-02-2021 07:25:00 -0.3 C 2.94 g/m*3 -0.3 C 1.6 km/h
1531 15-02-2021 07:30:00 -0.3 C 2.89 g/m*3 -0.3 C 1.6 km/h
1532 15-02-2021 07:35:00 -0.3 C 2.99 g/m*3 -0.3 C 1.6 km/h
1533 15-02-2021 07:40:00 -0.3 C 2.89 g/m*3 -0.3 C 3.2 km/h
1534 15-02-2021 07:45:00 -0.3 C 3.04 g/m*3 -0.3 C 4.8 km/h
1535 15-02-2021 07:50:00 -0.3 C 2.99 g/m*3 -0.3 C 0 km/h
1536 15-02-2021 07:55:00 -0.3 C 3.08 g/m*3 -0.3 C 0 km/h
1537 15-02-2021 08:00:00 -0.3 C 3.04 g/m*3 -0.3 C 1.6 km/h
1538 15-02-2021 08:05:00 -0.4 C 3.06 g/m*3 -0.4 C 0 km/h
1539 15-02-2021 08:10:00 -0.4 C 3.16 g/m*3 -0.4 C 1.6 km/h
1540 15-02-2021 08:15:00 -0.3 C 3.04 g/m*3 -0.3 C 4.8 km/h
1541 15-02-2021 08:20:00 -0.3 C 2.99 g/m*3 -0.3 C 3.2 km/h
1542 15-02-2021 08:25:00 -0.2 C 3.01 g/m*3 -3 C 8.1 km/h
1543 15-02-2021 08:30:00 -0.1 C 3.03 g/m*3 -0.1 C 3.2 km/h
1544 15-02-2021 08:35:00 -0.1 C 3.03 g/m*3 -0.1 C 3.2 km/h
1545 15-02-2021 08:40:00 0 C 3.05 g/m*3 0 C 0 km/h
1546 15-02-2021 08:45:00 0 C 3 g/m*3 0 C 1.6 km/h
1547 15-02-2021 08:50:00 0.1 C 3.12 g/m*3 0.1 C 1.6 km/h
1548 15-02-2021 08:55:00 0.1 C 3.02 g/m*3 0.1 C 4.8 km/h
1549 15-02-2021 09:00:00 0.2 C 3.05 g/m*3 -2.53 C 8.1 km/h
1550 15-02-2021 09:05:00 0.2 C 3.05 g/m*3 -3 C 9.7 km/h
Sensor: Nr:Datum:Temp:Abs-Feuchte:Windchill:Wind:
Aussen-T/F 1551 15-02-2021 09:10:00 0.3 C 3.07 g/m*3 0.3 C 4.8 km/h
1552 15-02-2021 09:15:00 0.3 C 3.07 g/m*3 0.3 C 1.6 km/h
1553 15-02-2021 09:20:00 0.3 C 3.17 g/m*3 0.3 C 0 km/h
1554 15-02-2021 09:25:00 0.4 C 3.14 g/m*3 0.4 C 0 km/h
1555 15-02-2021 09:30:00 0.4 C 3.14 g/m*3 0.4 C 0 km/h
1556 15-02-2021 09:35:00 0.6 C 3.13 g/m*3 0.6 C 1.6 km/h
1557 15-02-2021 09:40:00 0.6 C 3.08 g/m*3 0.6 C 3.2 km/h
1558 15-02-2021 09:45:00 0.7 C 3.15 g/m*3 0.7 C 4.8 km/h
1559 15-02-2021 09:50:00 0.8 C 3.17 g/m*3 0.8 C 4.8 km/h
1560 15-02-2021 09:55:00 0.9 C 3.2 g/m*3 0.9 C 1.6 km/h
1561 15-02-2021 10:00:00 1 C 3.22 g/m*3 1 C 1.6 km/h
1562 15-02-2021 10:05:00 1.1 C 3.29 g/m*3 1.1 C 4.8 km/h
1563 15-02-2021 10:10:00 1.2 C 3.26 g/m*3 1.2 C 1.6 km/h
1564 15-02-2021 10:15:00 1.3 C 3.23 g/m*3 1.3 C 0 km/h
1565 15-02-2021 10:20:00 1.4 C 3.25 g/m*3 1.4 C 0 km/h
1566 15-02-2021 10:25:00 1.5 C 3.22 g/m*3 1.5 C 3.2 km/h
1567 15-02-2021 10:30:00 1.6 C 3.3 g/m*3 1.6 C 3.2 km/h
1568 15-02-2021 10:35:00 1.6 C 3.24 g/m*3 1.6 C 1.6 km/h
1569 15-02-2021 10:40:00 1.6 C 3.3 g/m*3 1.6 C 3.2 km/h
1570 15-02-2021 10:45:00 1.7 C 3.32 g/m*3 1.7 C 1.6 km/h
1571 15-02-2021 10:50:00 1.7 C 3.32 g/m*3 1.7 C 3.2 km/h
1572 15-02-2021 10:55:00 1.7 C 3.38 g/m*3 1.7 C 3.2 km/h
1573 15-02-2021 11:00:00 1.8 C 3.34 g/m*3 1.8 C 1.6 km/h
1574 15-02-2021 11:05:00 1.9 C 3.37 g/m*3 1.9 C 4.8 km/h
1575 15-02-2021 11:10:00 2 C 3.45 g/m*3 2 C 1.6 km/h
Sensor: Nr:Datum:Temp:Abs-Feuchte:Windchill:Wind:
Aussen-T/F 1576 15-02-2021 11:15:00 2.1 C 3.41 g/m*3 2.1 C 4.8 km/h
1577 15-02-2021 11:20:00 2.2 C 3.44 g/m*3 2.2 C 3.2 km/h
1578 15-02-2021 11:25:00 2.2 C 3.44 g/m*3 2.2 C 0 km/h
1579 15-02-2021 11:30:00 2.2 C 3.49 g/m*3 2.2 C 4.8 km/h
1580 15-02-2021 11:35:00 2.3 C 3.46 g/m*3 2.3 C 3.2 km/h
1581 15-02-2021 11:40:00 2.3 C 3.46 g/m*3 2.3 C 1.6 km/h
1582 15-02-2021 11:45:00 2.2 C 3.49 g/m*3 2.2 C 4.8 km/h
1583 15-02-2021 11:50:00 2.2 C 3.55 g/m*3 2.2 C 1.6 km/h
1584 15-02-2021 11:55:00 2.2 C 3.55 g/m*3 2.2 C 4.8 km/h
1585 15-02-2021 12:00:00 2.3 C 3.74 g/m*3 2.3 C 0 km/h
1586 15-02-2021 12:05:00 2.3 C 4.08 g/m*3 2.3 C 3.2 km/h
1587 15-02-2021 12:10:00 2.3 C 4.14 g/m*3 2.3 C 1.6 km/h
1588 15-02-2021 12:15:00 2.1 C 4.14 g/m*3 0.24 C 6.4 km/h
1589 15-02-2021 12:20:00 1.9 C 4.19 g/m*3 1.9 C 4.8 km/h
1590 15-02-2021 12:25:00 1.8 C 4.28 g/m*3 1.8 C 3.2 km/h
1591 15-02-2021 12:30:00 1.8 C 4.39 g/m*3 1.8 C 1.6 km/h
1592 15-02-2021 12:35:00 1.7 C 4.36 g/m*3 1.7 C 1.6 km/h
1593 15-02-2021 12:40:00 1.6 C 4.38 g/m*3 1.6 C 3.2 km/h
1594 15-02-2021 12:45:00 1.6 C 4.43 g/m*3 1.6 C 1.6 km/h
1595 15-02-2021 12:50:00 1.6 C 4.54 g/m*3 1.6 C 1.6 km/h
1596 15-02-2021 12:55:00 1.6 C 4.54 g/m*3 1.6 C 3.2 km/h
1597 15-02-2021 13:00:00 1.7 C 4.63 g/m*3 1.7 C 1.6 km/h
1598 15-02-2021 13:05:00 1.7 C 4.68 g/m*3 1.7 C 1.6 km/h
1599 15-02-2021 13:10:00 1.7 C 4.74 g/m*3 1.7 C 0 km/h
1600 15-02-2021 13:15:00 1.7 C 4.74 g/m*3 1.7 C 0 km/h
Sensor: Nr:Datum:Temp:Abs-Feuchte:Windchill:Wind:
Aussen-T/F 1601 15-02-2021 13:20:00 1.7 C 4.79 g/m*3 1.7 C 0 km/h
1602 15-02-2021 13:25:00 1.7 C 4.79 g/m*3 1.7 C 0 km/h
1603 15-02-2021 13:30:00 1.8 C 4.88 g/m*3 1.8 C 0 km/h
1604 15-02-2021 13:35:00 1.8 C 4.88 g/m*3 1.8 C 0 km/h
1605 15-02-2021 13:40:00 1.8 C 4.88 g/m*3 1.8 C 0 km/h
1606 15-02-2021 13:45:00 1.8 C 4.88 g/m*3 1.8 C 0 km/h
1607 15-02-2021 13:50:00 1.8 C 4.93 g/m*3 1.8 C 0 km/h
1608 15-02-2021 13:55:00 1.8 C 4.93 g/m*3 1.8 C 0 km/h
1609 15-02-2021 14:00:00 1.8 C 4.93 g/m*3 1.8 C 0 km/h
1610 15-02-2021 14:05:00 1.8 C 4.93 g/m*3 1.8 C 0 km/h
1611 15-02-2021 14:10:00 1.8 C 4.93 g/m*3 1.8 C 3.2 km/h
1612 15-02-2021 14:15:00 1.8 C 4.99 g/m*3 1.8 C 0 km/h
1613 15-02-2021 14:20:00 1.8 C 4.99 g/m*3 1.8 C 0 km/h
1614 15-02-2021 14:25:00 1.8 C 4.99 g/m*3 1.8 C 0 km/h
1615 15-02-2021 14:30:00 1.8 C 4.99 g/m*3 1.8 C 0 km/h
1616 15-02-2021 14:35:00 1.8 C 5.04 g/m*3 1.8 C 0 km/h
1617 15-02-2021 14:40:00 1.8 C 5.04 g/m*3 1.8 C 0 km/h
1618 15-02-2021 14:45:00 1.9 C 5.08 g/m*3 1.9 C 0 km/h
1619 15-02-2021 14:50:00 1.9 C 5.13 g/m*3 1.9 C 3.2 km/h
1620 15-02-2021 14:55:00 1.9 C 5.08 g/m*3 0.01 C 6.4 km/h
1621 15-02-2021 15:00:00 2 C 5.17 g/m*3 2 C 1.6 km/h
1622 15-02-2021 15:05:00 2.1 C 5.2 g/m*3 2.1 C 1.6 km/h
1623 15-02-2021 15:10:00 2.1 C 5.2 g/m*3 2.1 C 0 km/h
1624 15-02-2021 15:15:00 2.1 C 5.2 g/m*3 2.1 C 1.6 km/h
1625 15-02-2021 15:20:00 2.1 C 5.2 g/m*3 2.1 C 0 km/h
Sensor: Nr:Datum:Temp:Abs-Feuchte:Windchill:Wind:
Aussen-T/F 1626 15-02-2021 15:25:00 2.1 C 5.2 g/m*3 2.1 C 0 km/h
1627 15-02-2021 15:30:00 2.1 C 5.2 g/m*3 2.1 C 0 km/h
1628 15-02-2021 15:35:00 2.1 C 5.2 g/m*3 2.1 C 0 km/h
1629 15-02-2021 15:40:00 2.2 C 5.24 g/m*3 2.2 C 0 km/h
1630 15-02-2021 15:45:00 2.2 C 5.24 g/m*3 2.2 C 0 km/h
1631 15-02-2021 15:50:00 2.2 C 5.24 g/m*3 2.2 C 0 km/h
1632 15-02-2021 15:55:00 2.2 C 5.24 g/m*3 2.2 C 0 km/h
1633 15-02-2021 16:00:00 2.2 C 5.24 g/m*3 2.2 C 0 km/h
1634 15-02-2021 16:05:00 2.2 C 5.24 g/m*3 2.2 C 0 km/h
1635 15-02-2021 16:10:00 2.2 C 5.24 g/m*3 2.2 C 0 km/h
1636 15-02-2021 16:15:00 2.2 C 5.24 g/m*3 2.2 C 0 km/h
1637 15-02-2021 16:20:00 2.2 C 5.24 g/m*3 2.2 C 0 km/h
1638 15-02-2021 16:25:00 2.3 C 5.27 g/m*3 2.3 C 1.6 km/h
1639 15-02-2021 16:30:00 2.3 C 5.27 g/m*3 2.3 C 0 km/h
1640 15-02-2021 16:35:00 2.3 C 5.33 g/m*3 2.3 C 0 km/h
1641 15-02-2021 16:40:00 2.3 C 5.27 g/m*3 2.3 C 0 km/h
1642 15-02-2021 16:45:00 2.3 C 5.27 g/m*3 2.3 C 3.2 km/h
1643 15-02-2021 16:50:00 2.2 C 5.24 g/m*3 2.2 C 0 km/h
1644 15-02-2021 16:55:00 2.3 C 5.27 g/m*3 2.3 C 0 km/h
1645 15-02-2021 17:00:00 2.2 C 5.24 g/m*3 2.2 C 1.6 km/h
1646 15-02-2021 17:05:00 2.2 C 5.24 g/m*3 2.2 C 3.2 km/h
1647 15-02-2021 17:10:00 2.1 C 5.2 g/m*3 2.1 C 1.6 km/h
1648 15-02-2021 17:15:00 2.1 C 5.2 g/m*3 2.1 C 1.6 km/h
1649 15-02-2021 17:20:00 2.1 C 5.2 g/m*3 2.1 C 0 km/h
1650 15-02-2021 17:25:00 2.1 C 5.2 g/m*3 2.1 C 0 km/h
Sensor: Nr:Datum:Temp:Abs-Feuchte:Windchill:Wind:
Aussen-T/F 1651 15-02-2021 17:30:00 2.1 C 5.2 g/m*3 2.1 C 1.6 km/h
1652 15-02-2021 17:35:00 2 C 5.17 g/m*3 2 C 0 km/h
1653 15-02-2021 17:40:00 2 C 5.17 g/m*3 2 C 0 km/h
1654 15-02-2021 17:45:00 1.9 C 5.19 g/m*3 1.9 C 1.6 km/h
1655 15-02-2021 17:50:00 1.9 C 5.19 g/m*3 1.9 C 3.2 km/h
1656 15-02-2021 17:55:00 1.9 C 5.19 g/m*3 1.9 C 3.2 km/h
1657 15-02-2021 18:00:00 1.9 C 5.19 g/m*3 1.9 C 1.6 km/h
1658 15-02-2021 18:05:00 1.9 C 5.19 g/m*3 1.9 C 0 km/h
1659 15-02-2021 18:10:00 1.9 C 5.19 g/m*3 1.9 C 0 km/h
1660 15-02-2021 18:15:00 1.8 C 5.15 g/m*3 1.8 C 3.2 km/h
1661 15-02-2021 18:20:00 1.8 C 5.15 g/m*3 1.8 C 3.2 km/h
1662 15-02-2021 18:25:00 1.8 C 5.15 g/m*3 1.8 C 1.6 km/h
1663 15-02-2021 18:30:00 1.8 C 5.15 g/m*3 1.8 C 0 km/h
1664 15-02-2021 18:35:00 1.8 C 5.15 g/m*3 1.8 C 3.2 km/h
1665 15-02-2021 18:40:00 1.8 C 5.15 g/m*3 1.8 C 0 km/h
1666 15-02-2021 18:45:00 1.8 C 5.15 g/m*3 1.8 C 0 km/h
1667 15-02-2021 18:50:00 1.7 C 5.12 g/m*3 1.7 C 0 km/h
1668 15-02-2021 18:55:00 1.7 C 5.12 g/m*3 1.7 C 0 km/h
1669 15-02-2021 19:00:00 1.7 C 5.12 g/m*3 1.7 C 0 km/h
1670 15-02-2021 19:05:00 1.7 C 5.12 g/m*3 1.7 C 0 km/h
1671 15-02-2021 19:10:00 1.7 C 5.17 g/m*3 1.7 C 0 km/h
1672 15-02-2021 19:15:00 1.7 C 5.12 g/m*3 1.7 C 0 km/h
1673 15-02-2021 19:20:00 1.7 C 5.12 g/m*3 1.7 C 0 km/h
1674 15-02-2021 19:25:00 1.8 C 5.21 g/m*3 1.8 C 0 km/h
1675 15-02-2021 19:30:00 1.8 C 5.21 g/m*3 1.8 C 0 km/h
Sensor: Nr:Datum:Temp:Abs-Feuchte:Windchill:Wind:
Aussen-T/F 1676 15-02-2021 19:35:00 1.8 C 5.21 g/m*3 1.8 C 0 km/h
1677 15-02-2021 19:40:00 1.8 C 5.21 g/m*3 1.8 C 0 km/h
1678 15-02-2021 19:45:00 1.8 C 5.21 g/m*3 1.8 C 0 km/h
1679 15-02-2021 19:50:00 1.8 C 5.21 g/m*3 1.8 C 0 km/h
1680 15-02-2021 19:55:00 1.8 C 5.21 g/m*3 1.8 C 0 km/h
1681 15-02-2021 20:00:00 1.8 C 5.21 g/m*3 1.8 C 0 km/h
1682 15-02-2021 20:05:00 1.8 C 5.21 g/m*3 1.8 C 0 km/h
1683 15-02-2021 20:10:00 1.8 C 5.21 g/m*3 1.8 C 0 km/h
1684 15-02-2021 20:15:00 1.8 C 5.21 g/m*3 1.8 C 0 km/h
1685 15-02-2021 20:20:00 1.8 C 5.21 g/m*3 1.8 C 0 km/h
1686 15-02-2021 20:25:00 1.8 C 5.21 g/m*3 1.8 C 1.6 km/h
1687 15-02-2021 20:30:00 1.8 C 5.21 g/m*3 1.8 C 0 km/h
1688 15-02-2021 20:35:00 1.8 C 5.21 g/m*3 1.8 C 0 km/h
1689 15-02-2021 20:40:00 1.8 C 5.21 g/m*3 1.8 C 0 km/h
1690 15-02-2021 20:45:00 1.8 C 5.21 g/m*3 1.8 C 0 km/h
1691 15-02-2021 20:50:00 1.8 C 5.21 g/m*3 1.8 C 0 km/h
1692 15-02-2021 20:55:00 1.9 C 5.24 g/m*3 1.9 C 0 km/h
1693 15-02-2021 21:00:00 1.8 C 5.21 g/m*3 1.8 C 0 km/h
1694 15-02-2021 21:05:00 1.8 C 5.21 g/m*3 1.8 C 0 km/h
1695 15-02-2021 21:10:00 1.8 C 5.21 g/m*3 1.8 C 0 km/h
1696 15-02-2021 21:15:00 1.8 C 5.21 g/m*3 1.8 C 0 km/h
1697 15-02-2021 21:20:00 1.9 C 5.24 g/m*3 1.9 C 0 km/h
1698 15-02-2021 21:25:00 1.9 C 5.24 g/m*3 1.9 C 0 km/h
1699 15-02-2021 21:30:00 1.9 C 5.24 g/m*3 1.9 C 0 km/h
1700 15-02-2021 21:35:00 1.9 C 5.3 g/m*3 1.9 C 3.2 km/h
Sensor: Nr:Datum:Temp:Abs-Feuchte:Windchill:Wind:
Aussen-T/F 1701 15-02-2021 21:40:00 2.2 C 5.41 g/m*3 2.2 C 1.6 km/h
1702 15-02-2021 21:45:00 2.3 C 5.44 g/m*3 2.3 C 0 km/h
1703 15-02-2021 21:50:00 2.3 C 5.44 g/m*3 2.3 C 0 km/h
1704 15-02-2021 21:55:00 2.3 C 5.44 g/m*3 2.3 C 1.6 km/h
1705 15-02-2021 22:00:00 2.4 C 5.48 g/m*3 2.4 C 1.6 km/h
1706 15-02-2021 22:05:00 2.4 C 5.48 g/m*3 2.4 C 4.8 km/h
1707 15-02-2021 22:10:00 2.6 C 5.56 g/m*3 2.6 C 0 km/h
1708 15-02-2021 22:15:00 2.6 C 5.56 g/m*3 2.6 C 3.2 km/h
1709 15-02-2021 22:20:00 2.8 C 5.63 g/m*3 2.8 C 1.6 km/h
1710 15-02-2021 22:25:00 2.9 C 5.67 g/m*3 0.64 C 8.1 km/h
1711 15-02-2021 22:30:00 3.1 C 5.75 g/m*3 3.1 C 1.6 km/h
1712 15-02-2021 22:35:00 3.2 C 5.79 g/m*3 3.2 C 0 km/h
1713 15-02-2021 22:40:00 3.3 C 5.82 g/m*3 3.3 C 1.6 km/h
1714 15-02-2021 22:45:00 3.3 C 5.82 g/m*3 3.3 C 4.8 km/h
1715 15-02-2021 22:50:00 3.3 C 5.82 g/m*3 3.3 C 4.8 km/h
1716 15-02-2021 22:55:00 3.4 C 5.86 g/m*3 1.75 C 6.4 km/h
1717 15-02-2021 23:00:00 3.5 C 5.9 g/m*3 3.5 C 3.2 km/h
1718 15-02-2021 23:05:00 3.6 C 5.94 g/m*3 1.46 C 8.1 km/h
1719 15-02-2021 23:10:00 3.7 C 5.98 g/m*3 3.7 C 3.2 km/h
1720 15-02-2021 23:15:00 3.8 C 6.02 g/m*3 3.8 C 3.2 km/h
1721 15-02-2021 23:20:00 3.8 C 6.02 g/m*3 3.8 C 4.8 km/h
1722 15-02-2021 23:25:00 3.9 C 6.06 g/m*3 0.22 C 16.1 km/h
1723 15-02-2021 23:30:00 4.1 C 6.14 g/m*3 1 C 12.9 km/h
1724 15-02-2021 23:35:00 4.2 C 6.19 g/m*3 1.77 C 9.7 km/h
1725 15-02-2021 23:40:00 4.3 C 6.23 g/m*3 1.55 C 11.3 km/h
Sensor: Nr:Datum:Temp:Abs-Feuchte:Windchill:Wind:
Aussen-T/F 1726 15-02-2021 23:45:00 4.4 C 6.27 g/m*3 2.4 C 8.1 km/h
1727 15-02-2021 23:50:00 4.4 C 6.27 g/m*3 2.01 C 9.7 km/h
1728 15-02-2021 23:55:00 4.3 C 6.23 g/m*3 0.72 C 16.1 km/h
1729 16-02-2021 00:00:00 4.2 C 6.12 g/m*3 1.77 C 9.7 km/h
1730 16-02-2021 00:05:00 4.2 C 6.12 g/m*3 1.43 C 11.3 km/h
1731 16-02-2021 00:10:00 4.2 C 6.12 g/m*3 2.17 C 8.1 km/h
1732 16-02-2021 00:15:00 4.2 C 6.12 g/m*3 1.77 C 9.7 km/h
1733 16-02-2021 00:20:00 4.1 C 6.08 g/m*3 4.1 C 4.8 km/h
1734 16-02-2021 00:25:00 4.1 C 6.08 g/m*3 2.55 C 6.4 km/h
1735 16-02-2021 00:30:00 4.1 C 6.08 g/m*3 2.05 C 8.1 km/h
1736 16-02-2021 00:35:00 4.1 C 6.08 g/m*3 2.55 C 6.4 km/h
1737 16-02-2021 00:40:00 4.2 C 6.12 g/m*3 4.2 C 4.8 km/h
1738 16-02-2021 00:45:00 4.1 C 6.08 g/m*3 4.1 C 3.2 km/h
1739 16-02-2021 00:50:00 4.1 C 6.08 g/m*3 4.1 C 3.2 km/h
1740 16-02-2021 00:55:00 4 C 6.04 g/m*3 4 C 3.2 km/h
1741 16-02-2021 01:00:00 4 C 6.04 g/m*3 4 C 4.8 km/h
1742 16-02-2021 01:05:00 4 C 6.04 g/m*3 4 C 3.2 km/h
1743 16-02-2021 01:10:00 4 C 6.04 g/m*3 4 C 3.2 km/h
1744 16-02-2021 01:15:00 4 C 6.04 g/m*3 4 C 1.6 km/h
1745 16-02-2021 01:20:00 4 C 6.04 g/m*3 4 C 4.8 km/h
1746 16-02-2021 01:25:00 4.1 C 6.08 g/m*3 4.1 C 3.2 km/h
1747 16-02-2021 01:30:00 4.1 C 6.08 g/m*3 4.1 C 1.6 km/h
1748 16-02-2021 01:35:00 4.1 C 6.08 g/m*3 4.1 C 1.6 km/h
1749 16-02-2021 01:40:00 4 C 6.04 g/m*3 4 C 0 km/h
1750 16-02-2021 01:45:00 4 C 6.04 g/m*3 4 C 0 km/h
Sensor: Nr:Datum:Temp:Abs-Feuchte:Windchill:Wind:
Aussen-T/F 1751 16-02-2021 01:50:00 4.1 C 6.08 g/m*3 4.1 C 0 km/h
1752 16-02-2021 01:55:00 4 C 6.04 g/m*3 4 C 0 km/h
1753 16-02-2021 02:00:00 4.1 C 6.08 g/m*3 4.1 C 0 km/h
1754 16-02-2021 02:05:00 4 C 6.04 g/m*3 4 C 0 km/h
1755 16-02-2021 02:10:00 4 C 6.04 g/m*3 4 C 0 km/h
1756 16-02-2021 02:15:00 4 C 6.04 g/m*3 4 C 3.2 km/h
1757 16-02-2021 02:20:00 4.1 C 6.14 g/m*3 4.1 C 4.8 km/h
1758 16-02-2021 02:25:00 4.1 C 6.14 g/m*3 4.1 C 3.2 km/h
1759 16-02-2021 02:30:00 4.1 C 6.14 g/m*3 4.1 C 3.2 km/h
1760 16-02-2021 02:35:00 4.1 C 6.14 g/m*3 4.1 C 3.2 km/h
1761 16-02-2021 02:40:00 4.1 C 6.14 g/m*3 4.1 C 4.8 km/h
1762 16-02-2021 02:45:00 4.1 C 6.14 g/m*3 4.1 C 4.8 km/h
1763 16-02-2021 02:50:00 4.1 C 6.14 g/m*3 4.1 C 4.8 km/h
1764 16-02-2021 02:55:00 4.1 C 6.14 g/m*3 4.1 C 3.2 km/h
1765 16-02-2021 03:00:00 4.1 C 6.14 g/m*3 4.1 C 4.8 km/h
1766 16-02-2021 03:05:00 4.1 C 6.14 g/m*3 4.1 C 4.8 km/h
1767 16-02-2021 03:10:00 4.1 C 6.14 g/m*3 4.1 C 4.8 km/h
1768 16-02-2021 03:15:00 4.1 C 6.14 g/m*3 4.1 C 4.8 km/h
1769 16-02-2021 03:20:00 4 C 6.1 g/m*3 4 C 4.8 km/h
1770 16-02-2021 03:25:00 4 C 6.1 g/m*3 4 C 1.6 km/h
1771 16-02-2021 03:30:00 4 C 6.1 g/m*3 4 C 3.2 km/h
1772 16-02-2021 03:35:00 4 C 6.1 g/m*3 4 C 3.2 km/h
1773 16-02-2021 03:40:00 4 C 6.1 g/m*3 4 C 0 km/h
1774 16-02-2021 03:45:00 4 C 6.1 g/m*3 4 C 0 km/h
1775 16-02-2021 03:50:00 3.9 C 6.06 g/m*3 3.9 C 0 km/h
Sensor: Nr:Datum:Temp:Abs-Feuchte:Windchill:Wind:
Aussen-T/F 1776 16-02-2021 03:55:00 3.9 C 6.06 g/m*3 3.9 C 3.2 km/h
1777 16-02-2021 04:00:00 3.9 C 6.06 g/m*3 3.9 C 4.8 km/h
1778 16-02-2021 04:05:00 3.9 C 6.06 g/m*3 3.9 C 1.6 km/h
1779 16-02-2021 04:10:00 4 C 6.1 g/m*3 4 C 0 km/h
1780 16-02-2021 04:15:00 3.9 C 6.06 g/m*3 3.9 C 0 km/h
1781 16-02-2021 04:20:00 3.9 C 6.06 g/m*3 3.9 C 0 km/h
1782 16-02-2021 04:25:00 3.9 C 6.06 g/m*3 3.9 C 0 km/h
1783 16-02-2021 04:30:00 3.9 C 6.06 g/m*3 3.9 C 1.6 km/h
1784 16-02-2021 04:35:00 4 C 6.1 g/m*3 4 C 0 km/h
1785 16-02-2021 04:40:00 4 C 6.1 g/m*3 4 C 0 km/h
1786 16-02-2021 04:45:00 4 C 6.1 g/m*3 4 C 0 km/h
1787 16-02-2021 04:50:00 4 C 6.1 g/m*3 4 C 0 km/h
1788 16-02-2021 04:55:00 4 C 6.1 g/m*3 4 C 0 km/h
1789 16-02-2021 05:00:00 3.9 C 6.06 g/m*3 3.9 C 0 km/h
1790 16-02-2021 05:05:00 3.9 C 6.06 g/m*3 3.9 C 0 km/h
1791 16-02-2021 05:10:00 3.9 C 6.06 g/m*3 3.9 C 0 km/h
1792 16-02-2021 05:15:00 3.9 C 6.06 g/m*3 3.9 C 0 km/h
1793 16-02-2021 05:20:00 3.9 C 6.06 g/m*3 3.9 C 0 km/h
1794 16-02-2021 05:25:00 4 C 6.1 g/m*3 4 C 0 km/h
1795 16-02-2021 05:30:00 4 C 6.1 g/m*3 4 C 0 km/h
1796 16-02-2021 05:35:00 4 C 6.1 g/m*3 4 C 0 km/h
1797 16-02-2021 05:40:00 4 C 6.1 g/m*3 4 C 0 km/h
1798 16-02-2021 05:45:00 4 C 6.1 g/m*3 4 C 0 km/h
1799 16-02-2021 05:50:00 3.9 C 6.06 g/m*3 3.9 C 0 km/h
1800 16-02-2021 05:55:00 3.9 C 6.06 g/m*3 3.9 C 0 km/h
Sensor: Nr:Datum:Temp:Abs-Feuchte:Windchill:Wind:
Aussen-T/F 1801 16-02-2021 06:00:00 3.9 C 6.06 g/m*3 3.9 C 0 km/h
1802 16-02-2021 06:05:00 3.9 C 6.06 g/m*3 3.9 C 0 km/h
1803 16-02-2021 06:10:00 3.9 C 6.06 g/m*3 3.9 C 0 km/h
1804 16-02-2021 06:15:00 3.9 C 6.06 g/m*3 3.9 C 0 km/h
1805 16-02-2021 06:20:00 3.8 C 6.02 g/m*3 3.8 C 0 km/h
1806 16-02-2021 06:25:00 3.8 C 6.02 g/m*3 3.8 C 0 km/h
1807 16-02-2021 06:30:00 3.8 C 6.02 g/m*3 3.8 C 0 km/h
1808 16-02-2021 06:35:00 3.8 C 6.02 g/m*3 3.8 C 0 km/h
1809 16-02-2021 06:40:00 3.7 C 5.98 g/m*3 3.7 C 0 km/h
1810 16-02-2021 06:45:00 3.7 C 5.98 g/m*3 3.7 C 0 km/h
1811 16-02-2021 06:50:00 3.6 C 5.94 g/m*3 3.6 C 0 km/h
1812 16-02-2021 06:55:00 3.6 C 5.94 g/m*3 3.6 C 0 km/h
1813 16-02-2021 07:00:00 3.6 C 5.94 g/m*3 3.6 C 0 km/h
1814 16-02-2021 07:05:00 3.6 C 5.94 g/m*3 3.6 C 0 km/h
1815 16-02-2021 07:10:00 3.5 C 5.9 g/m*3 3.5 C 0 km/h
1816 16-02-2021 07:15:00 3.4 C 5.86 g/m*3 3.4 C 0 km/h
1817 16-02-2021 07:20:00 3.4 C 5.86 g/m*3 3.4 C 0 km/h
1818 16-02-2021 07:25:00 3.4 C 5.86 g/m*3 3.4 C 0 km/h
1819 16-02-2021 07:30:00 3.4 C 5.86 g/m*3 3.4 C 0 km/h
1820 16-02-2021 07:35:00 3.3 C 5.82 g/m*3 3.3 C 0 km/h
1821 16-02-2021 07:40:00 3.3 C 5.82 g/m*3 3.3 C 0 km/h
1822 16-02-2021 07:45:00 3.2 C 5.79 g/m*3 3.2 C 0 km/h
1823 16-02-2021 07:50:00 3.1 C 5.75 g/m*3 3.1 C 0 km/h
1824 16-02-2021 07:55:00 2.9 C 5.67 g/m*3 2.9 C 0 km/h
1825 16-02-2021 08:00:00 2.8 C 5.63 g/m*3 2.8 C 0 km/h
Sensor: Nr:Datum:Temp:Abs-Feuchte:Windchill:Wind:
Aussen-T/F 1826 16-02-2021 08:05:00 2.8 C 5.63 g/m*3 2.8 C 0 km/h
1827 16-02-2021 08:10:00 2.8 C 5.63 g/m*3 2.8 C 0 km/h
1828 16-02-2021 08:15:00 2.8 C 5.63 g/m*3 2.8 C 0 km/h
1829 16-02-2021 08:20:00 2.8 C 5.63 g/m*3 2.8 C 0 km/h
1830 16-02-2021 08:25:00 2.8 C 5.63 g/m*3 2.8 C 0 km/h
1831 16-02-2021 08:30:00 2.9 C 5.67 g/m*3 2.9 C 4.8 km/h
1832 16-02-2021 08:35:00 3.1 C 5.75 g/m*3 3.1 C 1.6 km/h
1833 16-02-2021 08:40:00 3.2 C 5.85 g/m*3 3.2 C 0 km/h
1834 16-02-2021 08:45:00 3.3 C 5.88 g/m*3 3.3 C 0 km/h
1835 16-02-2021 08:50:00 3.4 C 5.92 g/m*3 3.4 C 0 km/h
1836 16-02-2021 08:55:00 3.4 C 5.92 g/m*3 3.4 C 0 km/h
1837 16-02-2021 09:00:00 3.6 C 6 g/m*3 3.6 C 0 km/h
1838 16-02-2021 09:05:00 3.7 C 6.04 g/m*3 3.7 C 0 km/h
1839 16-02-2021 09:10:00 3.7 C 6.04 g/m*3 3.7 C 0 km/h
1840 16-02-2021 09:15:00 3.7 C 6.04 g/m*3 3.7 C 0 km/h
1841 16-02-2021 09:20:00 3.8 C 6.09 g/m*3 3.8 C 0 km/h
1842 16-02-2021 09:25:00 3.9 C 6.13 g/m*3 3.9 C 0 km/h
1843 16-02-2021 09:30:00 4 C 6.17 g/m*3 4 C 0 km/h
1844 16-02-2021 09:35:00 4.1 C 6.21 g/m*3 4.1 C 0 km/h
1845 16-02-2021 09:40:00 4.2 C 6.25 g/m*3 4.2 C 0 km/h
1846 16-02-2021 09:45:00 4.3 C 6.29 g/m*3 4.3 C 0 km/h
1847 16-02-2021 09:50:00 4.4 C 6.33 g/m*3 4.4 C 0 km/h
1848 16-02-2021 09:55:00 4.5 C 6.38 g/m*3 4.5 C 0 km/h
1849 16-02-2021 10:00:00 4.6 C 6.42 g/m*3 4.6 C 0 km/h
1850 16-02-2021 10:05:00 4.7 C 6.46 g/m*3 4.7 C 0 km/h
Sensor: Nr:Datum:Temp:Abs-Feuchte:Windchill:Wind:
Aussen-T/F 1851 16-02-2021 10:10:00 4.7 C 6.46 g/m*3 4.7 C 0 km/h
1852 16-02-2021 10:15:00 4.8 C 6.5 g/m*3 4.8 C 0 km/h
1853 16-02-2021 10:20:00 4.9 C 6.55 g/m*3 4.9 C 0 km/h
1854 16-02-2021 10:25:00 5.1 C 6.63 g/m*3 5.1 C 0 km/h
1855 16-02-2021 10:30:00 5.2 C 6.68 g/m*3 5.2 C 0 km/h
1856 16-02-2021 10:35:00 5.2 C 6.68 g/m*3 5.2 C 0 km/h
1857 16-02-2021 10:40:00 5.2 C 6.68 g/m*3 5.2 C 0 km/h
1858 16-02-2021 10:45:00 5.2 C 6.68 g/m*3 5.2 C 0 km/h
1859 16-02-2021 10:50:00 5.3 C 6.72 g/m*3 5.3 C 0 km/h
1860 16-02-2021 10:55:00 5.4 C 6.77 g/m*3 5.4 C 0 km/h
1861 16-02-2021 11:00:00 5.6 C 6.86 g/m*3 5.6 C 1.6 km/h
1862 16-02-2021 11:05:00 5.7 C 6.9 g/m*3 5.7 C 0 km/h
1863 16-02-2021 11:10:00 5.9 C 6.99 g/m*3 5.9 C 0 km/h
1864 16-02-2021 11:15:00 6.1 C 7.09 g/m*3 6.1 C 0 km/h
1865 16-02-2021 11:20:00 6.2 C 7.13 g/m*3 6.2 C 0 km/h
1866 16-02-2021 11:25:00 6.3 C 7.18 g/m*3 6.3 C 0 km/h
1867 16-02-2021 11:30:00 6.4 C 7.23 g/m*3 6.4 C 0 km/h
1868 16-02-2021 11:35:00 6.5 C 7.27 g/m*3 6.5 C 0 km/h
1869 16-02-2021 11:40:00 6.6 C 7.32 g/m*3 6.6 C 0 km/h
1870 16-02-2021 11:45:00 6.7 C 7.37 g/m*3 6.7 C 0 km/h
1871 16-02-2021 11:50:00 6.8 C 7.42 g/m*3 6.8 C 0 km/h
1872 16-02-2021 11:55:00 6.8 C 7.42 g/m*3 6.8 C 0 km/h
1873 16-02-2021 12:00:00 6.8 C 7.42 g/m*3 6.8 C 0 km/h
1874 16-02-2021 12:05:00 6.9 C 7.47 g/m*3 6.9 C 0 km/h
1875 16-02-2021 12:10:00 7 C 7.52 g/m*3 7 C 0 km/h
Sensor: Nr:Datum:Temp:Abs-Feuchte:Windchill:Wind:
Aussen-T/F 1876 16-02-2021 12:15:00 7.1 C 7.57 g/m*3 7.1 C 0 km/h
1877 16-02-2021 12:20:00 7.2 C 7.61 g/m*3 7.2 C 0 km/h
1878 16-02-2021 12:25:00 7.3 C 7.66 g/m*3 7.3 C 0 km/h
1879 16-02-2021 12:30:00 7.5 C 7.76 g/m*3 7.5 C 0 km/h
1880 16-02-2021 12:35:00 7.6 C 7.73 g/m*3 7.6 C 0 km/h
1881 16-02-2021 12:40:00 7.7 C 7.78 g/m*3 7.7 C 0 km/h
1882 16-02-2021 12:45:00 7.8 C 7.83 g/m*3 7.8 C 0 km/h
1883 16-02-2021 12:50:00 7.9 C 7.89 g/m*3 7.9 C 0 km/h
1884 16-02-2021 12:55:00 8.2 C 8.04 g/m*3 8.2 C 0 km/h
1885 16-02-2021 13:00:00 8.3 C 8.09 g/m*3 8.3 C 0 km/h
1886 16-02-2021 13:05:00 8.5 C 8.2 g/m*3 8.5 C 1.6 km/h
1887 16-02-2021 13:10:00 8.7 C 8.3 g/m*3 8.7 C 0 km/h
1888 16-02-2021 13:15:00 8.7 C 8.22 g/m*3 8.7 C 0 km/h
1889 16-02-2021 13:20:00 8.8 C 8.27 g/m*3 8.8 C 0 km/h
1890 16-02-2021 13:25:00 8.9 C 8.32 g/m*3 8.9 C 0 km/h
1891 16-02-2021 13:30:00 8.9 C 8.32 g/m*3 8.9 C 0 km/h
1892 16-02-2021 13:35:00 9.1 C 8.34 g/m*3 9.1 C 1.6 km/h
1893 16-02-2021 13:40:00 9.1 C 8.34 g/m*3 9.1 C 1.6 km/h
1894 16-02-2021 13:45:00 9.2 C 8.39 g/m*3 9.2 C 1.6 km/h
1895 16-02-2021 13:50:00 9.2 C 8.39 g/m*3 9.2 C 0 km/h
1896 16-02-2021 13:55:00 9.3 C 8.45 g/m*3 9.3 C 0 km/h
1897 16-02-2021 14:00:00 9.4 C 8.5 g/m*3 9.4 C 0 km/h
1898 16-02-2021 14:05:00 9.4 C 8.41 g/m*3 9.4 C 0 km/h
1899 16-02-2021 14:10:00 9.4 C 8.41 g/m*3 9.4 C 0 km/h
1900 16-02-2021 14:15:00 9.5 C 8.47 g/m*3 9.5 C 0 km/h
Sensor: Nr:Datum:Temp:Abs-Feuchte:Windchill:Wind:
Aussen-T/F 1901 16-02-2021 14:20:00 9.5 C 8.47 g/m*3 9.5 C 1.6 km/h
1902 16-02-2021 14:25:00 9.6 C 8.52 g/m*3 9.6 C 0 km/h
1903 16-02-2021 14:30:00 9.7 C 8.57 g/m*3 9.7 C 0 km/h
1904 16-02-2021 14:35:00 9.8 C 8.63 g/m*3 9.8 C 0 km/h
1905 16-02-2021 14:40:00 10.1 C 8.7 g/m*3 10.1 C 0 km/h
1906 16-02-2021 14:45:00 10.3 C 8.71 g/m*3 10.3 C 3.2 km/h
1907 16-02-2021 14:50:00 10.3 C 8.71 g/m*3 10.3 C 1.6 km/h
1908 16-02-2021 14:55:00 10.3 C 8.62 g/m*3 10.3 C 4.8 km/h
1909 16-02-2021 15:00:00 10.1 C 8.42 g/m*3 10.1 C 3.2 km/h
1910 16-02-2021 15:05:00 9.9 C 8.31 g/m*3 9.9 C 4.8 km/h
1911 16-02-2021 15:10:00 9.8 C 8.35 g/m*3 9.8 C 4.8 km/h
1912 16-02-2021 15:15:00 9.8 C 8.35 g/m*3 9.8 C 0 km/h
1913 16-02-2021 15:20:00 9.8 C 8.44 g/m*3 9.8 C 1.6 km/h
1914 16-02-2021 15:25:00 9.8 C 8.26 g/m*3 9.8 C 4.8 km/h
1915 16-02-2021 15:30:00 9.9 C 8.22 g/m*3 9.9 C 4.8 km/h
1916 16-02-2021 15:35:00 10 C 8.08 g/m*3 9.37 C 6.4 km/h
1917 16-02-2021 15:40:00 10.1 C 8.13 g/m*3 10.1 C 1.6 km/h
1918 16-02-2021 15:45:00 10.2 C 8.09 g/m*3 10.2 C 3.2 km/h
1919 16-02-2021 15:50:00 10.1 C 8.04 g/m*3 10.1 C 1.6 km/h
1920 16-02-2021 15:55:00 10.1 C 8.04 g/m*3 10.1 C 1.6 km/h
1921 16-02-2021 16:00:00 10 C 7.99 g/m*3 10 C 1.6 km/h
1922 16-02-2021 16:05:00 9.8 C 7.79 g/m*3 9.8 C 4.8 km/h
1923 16-02-2021 16:10:00 9.6 C 7.79 g/m*3 9.6 C 1.6 km/h
1924 16-02-2021 16:15:00 9.3 C 7.64 g/m*3 9.3 C 3.2 km/h
1925 16-02-2021 16:20:00 9.1 C 7.54 g/m*3 9.1 C 4.8 km/h
Sensor: Nr:Datum:Temp:Abs-Feuchte:Windchill:Wind:
Aussen-T/F 1926 16-02-2021 16:25:00 8.8 C 7.4 g/m*3 8.8 C 4.8 km/h
1927 16-02-2021 16:30:00 8.6 C 7.39 g/m*3 8.6 C 3.2 km/h
1928 16-02-2021 16:35:00 8.3 C 7.25 g/m*3 8.3 C 4.8 km/h
1929 16-02-2021 16:40:00 8.2 C 7.2 g/m*3 8.2 C 1.6 km/h
1930 16-02-2021 16:45:00 7.9 C 7.15 g/m*3 7.9 C 4.8 km/h
1931 16-02-2021 16:50:00 7.8 C 7.18 g/m*3 7.8 C 4.8 km/h
1932 16-02-2021 16:55:00 7.7 C 7.14 g/m*3 7.7 C 4.8 km/h
1933 16-02-2021 17:00:00 7.6 C 7.09 g/m*3 7.6 C 4.8 km/h
1934 16-02-2021 17:05:00 7.4 C 7 g/m*3 6.37 C 6.4 km/h
1935 16-02-2021 17:10:00 7.3 C 6.95 g/m*3 6.25 C 6.4 km/h
1936 16-02-2021 17:15:00 7.2 C 6.99 g/m*3 6.13 C 6.4 km/h
1937 16-02-2021 17:20:00 7.1 C 6.94 g/m*3 7.1 C 4.8 km/h
1938 16-02-2021 17:25:00 6.9 C 6.85 g/m*3 5.79 C 6.4 km/h
1939 16-02-2021 17:30:00 6.8 C 6.81 g/m*3 6.8 C 4.8 km/h
1940 16-02-2021 17:35:00 6.8 C 6.88 g/m*3 5.22 C 8.1 km/h
1941 16-02-2021 17:40:00 6.8 C 6.88 g/m*3 5.67 C 6.4 km/h
1942 16-02-2021 17:45:00 6.7 C 6.84 g/m*3 6.7 C 0 km/h
1943 16-02-2021 17:50:00 6.7 C 6.84 g/m*3 5.11 C 8.1 km/h
1944 16-02-2021 17:55:00 6.6 C 6.79 g/m*3 6.6 C 4.8 km/h
1945 16-02-2021 18:00:00 6.5 C 6.67 g/m*3 6.5 C 4.8 km/h
1946 16-02-2021 18:05:00 6.3 C 6.66 g/m*3 6.3 C 3.2 km/h
1947 16-02-2021 18:10:00 6.2 C 6.62 g/m*3 6.2 C 4.8 km/h
1948 16-02-2021 18:15:00 6.1 C 6.58 g/m*3 6.1 C 4.8 km/h
1949 16-02-2021 18:20:00 5.9 C 6.49 g/m*3 5.9 C 4.8 km/h
1950 16-02-2021 18:25:00 5.8 C 6.45 g/m*3 5.8 C 3.2 km/h
Sensor: Nr:Datum:Temp:Abs-Feuchte:Windchill:Wind:
Aussen-T/F 1951 16-02-2021 18:30:00 5.8 C 6.52 g/m*3 5.8 C 4.8 km/h
1952 16-02-2021 18:35:00 5.7 C 6.48 g/m*3 4.4 C 6.4 km/h
1953 16-02-2021 18:40:00 5.7 C 6.48 g/m*3 5.7 C 4.8 km/h
1954 16-02-2021 18:45:00 5.6 C 6.43 g/m*3 5.6 C 4.8 km/h
1955 16-02-2021 18:50:00 5.6 C 6.5 g/m*3 5.6 C 4.8 km/h
1956 16-02-2021 18:55:00 5.5 C 6.46 g/m*3 3.7 C 8.1 km/h
1957 16-02-2021 19:00:00 5.5 C 6.46 g/m*3 5.5 C 4.8 km/h
1958 16-02-2021 19:05:00 5.5 C 6.46 g/m*3 5.5 C 4.8 km/h
1959 16-02-2021 19:10:00 5.5 C 6.46 g/m*3 3.7 C 8.1 km/h
1960 16-02-2021 19:15:00 5.5 C 6.46 g/m*3 4.17 C 6.4 km/h
1961 16-02-2021 19:20:00 5.5 C 6.46 g/m*3 5.5 C 4.8 km/h
1962 16-02-2021 19:25:00 5.4 C 6.42 g/m*3 4.06 C 6.4 km/h
1963 16-02-2021 19:30:00 5.4 C 6.49 g/m*3 5.4 C 4.8 km/h
1964 16-02-2021 19:35:00 5.4 C 6.49 g/m*3 4.06 C 6.4 km/h
1965 16-02-2021 19:40:00 5.3 C 6.45 g/m*3 5.3 C 3.2 km/h
1966 16-02-2021 19:45:00 5.3 C 6.45 g/m*3 5.3 C 4.8 km/h
1967 16-02-2021 19:50:00 5.3 C 6.45 g/m*3 5.3 C 3.2 km/h
1968 16-02-2021 19:55:00 5.2 C 6.4 g/m*3 5.2 C 4.8 km/h
1969 16-02-2021 20:00:00 5.2 C 6.4 g/m*3 5.2 C 4.8 km/h
1970 16-02-2021 20:05:00 5.1 C 6.36 g/m*3 5.1 C 3.2 km/h
1971 16-02-2021 20:10:00 5.1 C 6.36 g/m*3 5.1 C 0 km/h
1972 16-02-2021 20:15:00 5 C 6.32 g/m*3 3.59 C 6.4 km/h
1973 16-02-2021 20:20:00 5 C 6.32 g/m*3 5 C 4.8 km/h
1974 16-02-2021 20:25:00 5 C 6.32 g/m*3 3.59 C 6.4 km/h
1975 16-02-2021 20:30:00 5.1 C 6.36 g/m*3 5.1 C 4.8 km/h
Sensor: Nr:Datum:Temp:Abs-Feuchte:Windchill:Wind:
Aussen-T/F 1976 16-02-2021 20:35:00 5.1 C 6.43 g/m*3 5.1 C 4.8 km/h
1977 16-02-2021 20:40:00 5.1 C 6.43 g/m*3 5.1 C 0 km/h
1978 16-02-2021 20:45:00 5.1 C 6.43 g/m*3 5.1 C 1.6 km/h
1979 16-02-2021 20:50:00 5.1 C 6.43 g/m*3 5.1 C 4.8 km/h
1980 16-02-2021 20:55:00 5.1 C 6.43 g/m*3 5.1 C 3.2 km/h
1981 16-02-2021 21:00:00 5.1 C 6.43 g/m*3 5.1 C 3.2 km/h
1982 16-02-2021 21:05:00 5.1 C 6.43 g/m*3 5.1 C 1.6 km/h
1983 16-02-2021 21:10:00 5.1 C 6.43 g/m*3 5.1 C 4.8 km/h
1984 16-02-2021 21:15:00 5.2 C 6.47 g/m*3 5.2 C 3.2 km/h
1985 16-02-2021 21:20:00 5.2 C 6.47 g/m*3 3.82 C 6.4 km/h
1986 16-02-2021 21:25:00 5.2 C 6.47 g/m*3 5.2 C 0 km/h
1987 16-02-2021 21:30:00 5.2 C 6.47 g/m*3 5.2 C 0 km/h
1988 16-02-2021 21:35:00 5.1 C 6.43 g/m*3 5.1 C 0 km/h
1989 16-02-2021 21:40:00 5.1 C 6.43 g/m*3 5.1 C 0 km/h
1990 16-02-2021 21:45:00 5.2 C 6.47 g/m*3 5.2 C 0 km/h
1991 16-02-2021 21:50:00 5.2 C 6.54 g/m*3 5.2 C 0 km/h
1992 16-02-2021 21:55:00 5.3 C 6.58 g/m*3 5.3 C 0 km/h
1993 16-02-2021 22:00:00 5.3 C 6.52 g/m*3 5.3 C 0 km/h
1994 16-02-2021 22:05:00 5.4 C 6.56 g/m*3 5.4 C 0 km/h
1995 16-02-2021 22:10:00 5.5 C 6.67 g/m*3 5.5 C 3.2 km/h
1996 16-02-2021 22:15:00 5.6 C 6.72 g/m*3 5.6 C 1.6 km/h
1997 16-02-2021 22:20:00 5.6 C 6.72 g/m*3 5.6 C 1.6 km/h
1998 16-02-2021 22:25:00 5.6 C 6.72 g/m*3 5.6 C 1.6 km/h
1999 16-02-2021 22:30:00 5.6 C 6.72 g/m*3 5.6 C 0 km/h
2000 16-02-2021 22:35:00 5.7 C 6.76 g/m*3 5.7 C 1.6 km/h
Sensor: Nr:Datum:Temp:Abs-Feuchte:Windchill:Wind:
Aussen-T/F 2001 16-02-2021 22:40:00 5.8 C 6.81 g/m*3 5.8 C 0 km/h
2002 16-02-2021 22:45:00 6 C 6.9 g/m*3 6 C 1.6 km/h
2003 16-02-2021 22:50:00 6.3 C 7.11 g/m*3 5.1 C 6.4 km/h
2004 16-02-2021 22:55:00 6.6 C 7.25 g/m*3 6.6 C 4.8 km/h
2005 16-02-2021 23:00:00 6.7 C 7.29 g/m*3 6.7 C 3.2 km/h
2006 16-02-2021 23:05:00 6.7 C 7.29 g/m*3 5.56 C 6.4 km/h
2007 16-02-2021 23:10:00 6.8 C 7.34 g/m*3 6.8 C 1.6 km/h
2008 16-02-2021 23:15:00 6.8 C 7.34 g/m*3 6.8 C 4.8 km/h
2009 16-02-2021 23:20:00 6.8 C 7.34 g/m*3 6.8 C 1.6 km/h
2010 16-02-2021 23:25:00 6.8 C 7.34 g/m*3 5.67 C 6.4 km/h
2011 16-02-2021 23:30:00 6.8 C 7.34 g/m*3 6.8 C 1.6 km/h
2012 16-02-2021 23:35:00 6.8 C 7.34 g/m*3 6.8 C 4.8 km/h
2013 16-02-2021 23:40:00 6.8 C 7.34 g/m*3 4.04 C 14.5 km/h
2014 16-02-2021 23:45:00 6.9 C 7.39 g/m*3 5.79 C 6.4 km/h
2015 16-02-2021 23:50:00 7.1 C 7.49 g/m*3 5.58 C 8.1 km/h
2016 16-02-2021 23:55:00 7.2 C 7.54 g/m*3 4.53 C 14.5 km/h
2017 17-02-2021 00:00:00 7.4 C 7.63 g/m*3 6.37 C 6.4 km/h
2018 17-02-2021 00:05:00 7.3 C 7.58 g/m*3 4.9 C 12.9 km/h
2019 17-02-2021 00:10:00 7.3 C 7.58 g/m*3 5.81 C 8.1 km/h
2020 17-02-2021 00:15:00 7.3 C 7.58 g/m*3 4.9 C 12.9 km/h
2021 17-02-2021 00:20:00 7.2 C 7.46 g/m*3 4.77 C 12.9 km/h
2022 17-02-2021 00:25:00 7.2 C 7.46 g/m*3 4.53 C 14.5 km/h
2023 17-02-2021 00:30:00 7.3 C 7.51 g/m*3 4.66 C 14.5 km/h
2024 17-02-2021 00:35:00 7.4 C 7.55 g/m*3 4.78 C 14.5 km/h
2025 17-02-2021 00:40:00 7.5 C 7.52 g/m*3 5.41 C 11.3 km/h
Sensor: Nr:Datum:Temp:Abs-Feuchte:Windchill:Wind:
Aussen-T/F 2026 17-02-2021 00:45:00 7.4 C 7.48 g/m*3 4.56 C 16.1 km/h
2027 17-02-2021 00:50:00 7.3 C 7.43 g/m*3 5.16 C 11.3 km/h
2028 17-02-2021 00:55:00 7.3 C 7.43 g/m*3 7.3 C 4.8 km/h
2029 17-02-2021 01:00:00 7.2 C 7.38 g/m*3 5.35 C 9.7 km/h
2030 17-02-2021 01:05:00 7.1 C 7.33 g/m*3 6.02 C 6.4 km/h
2031 17-02-2021 01:10:00 6.8 C 7.11 g/m*3 5.22 C 8.1 km/h
2032 17-02-2021 01:15:00 6.5 C 6.97 g/m*3 6.5 C 3.2 km/h
2033 17-02-2021 01:20:00 6.2 C 6.84 g/m*3 6.2 C 4.8 km/h
2034 17-02-2021 01:25:00 6.1 C 6.79 g/m*3 6.1 C 3.2 km/h
2035 17-02-2021 01:30:00 5.9 C 6.71 g/m*3 5.9 C 4.8 km/h
2036 17-02-2021 01:35:00 5.8 C 6.73 g/m*3 5.8 C 3.2 km/h
2037 17-02-2021 01:40:00 5.7 C 6.69 g/m*3 5.7 C 4.8 km/h
2038 17-02-2021 01:45:00 5.6 C 6.65 g/m*3 4.29 C 6.4 km/h
2039 17-02-2021 01:50:00 5.5 C 6.6 g/m*3 5.5 C 4.8 km/h
2040 17-02-2021 01:55:00 5.4 C 6.56 g/m*3 5.4 C 1.6 km/h
2041 17-02-2021 02:00:00 5.6 C 6.72 g/m*3 5.6 C 4.8 km/h
2042 17-02-2021 02:05:00 5.7 C 6.76 g/m*3 4.4 C 6.4 km/h
2043 17-02-2021 02:10:00 5.8 C 6.81 g/m*3 5.8 C 3.2 km/h
2044 17-02-2021 02:15:00 5.8 C 6.88 g/m*3 5.8 C 4.8 km/h
2045 17-02-2021 02:20:00 5.9 C 6.92 g/m*3 5.9 C 4.8 km/h
2046 17-02-2021 02:25:00 6.1 C 7.01 g/m*3 4.04 C 9.7 km/h
2047 17-02-2021 02:30:00 6.4 C 7.15 g/m*3 4.39 C 9.7 km/h
2048 17-02-2021 02:35:00 6.7 C 7.37 g/m*3 5.11 C 8.1 km/h
2049 17-02-2021 02:40:00 6.9 C 7.39 g/m*3 4.68 C 11.3 km/h
2050 17-02-2021 02:45:00 7 C 7.44 g/m*3 5.46 C 8.1 km/h
Sensor: Nr:Datum:Temp:Abs-Feuchte:Windchill:Wind:
Aussen-T/F 2051 17-02-2021 02:50:00 7 C 7.36 g/m*3 5.46 C 8.1 km/h
2052 17-02-2021 02:55:00 6.9 C 7.31 g/m*3 4.99 C 9.7 km/h
2053 17-02-2021 03:00:00 6.9 C 7.31 g/m*3 5.79 C 6.4 km/h
2054 17-02-2021 03:05:00 6.7 C 7.14 g/m*3 6.7 C 4.8 km/h
2055 17-02-2021 03:10:00 6.6 C 7.1 g/m*3 6.6 C 4.8 km/h
2056 17-02-2021 03:15:00 6.6 C 7.17 g/m*3 4.99 C 8.1 km/h
2057 17-02-2021 03:20:00 6.6 C 7.17 g/m*3 6.6 C 4.8 km/h
2058 17-02-2021 03:25:00 6.7 C 7.22 g/m*3 6.7 C 4.8 km/h
2059 17-02-2021 03:30:00 6.6 C 7.17 g/m*3 5.44 C 6.4 km/h
2060 17-02-2021 03:35:00 6.6 C 7.17 g/m*3 6.6 C 4.8 km/h
2061 17-02-2021 03:40:00 6.6 C 7.17 g/m*3 6.6 C 4.8 km/h
2062 17-02-2021 03:45:00 6.4 C 7 g/m*3 6.4 C 1.6 km/h
2063 17-02-2021 03:50:00 6.3 C 6.96 g/m*3 6.3 C 1.6 km/h
2064 17-02-2021 03:55:00 6.1 C 6.87 g/m*3 6.1 C 3.2 km/h
2065 17-02-2021 04:00:00 5.9 C 6.78 g/m*3 4.63 C 6.4 km/h
2066 17-02-2021 04:05:00 5.7 C 6.69 g/m*3 5.7 C 4.8 km/h
2067 17-02-2021 04:10:00 5.5 C 6.6 g/m*3 5.5 C 4.8 km/h
2068 17-02-2021 04:15:00 5.4 C 6.56 g/m*3 5.4 C 4.8 km/h
2069 17-02-2021 04:20:00 5.3 C 6.52 g/m*3 3.94 C 6.4 km/h
2070 17-02-2021 04:25:00 5.3 C 6.52 g/m*3 5.3 C 3.2 km/h
2071 17-02-2021 04:30:00 5.2 C 6.54 g/m*3 5.2 C 3.2 km/h
2072 17-02-2021 04:35:00 5.2 C 6.54 g/m*3 5.2 C 4.8 km/h
2073 17-02-2021 04:40:00 5.1 C 6.5 g/m*3 5.1 C 4.8 km/h
2074 17-02-2021 04:45:00 5 C 6.46 g/m*3 5 C 4.8 km/h
2075 17-02-2021 04:50:00 4.9 C 6.41 g/m*3 4.9 C 4.8 km/h
Sensor: Nr:Datum:Temp:Abs-Feuchte:Windchill:Wind:
Aussen-T/F 2076 17-02-2021 04:55:00 4.8 C 6.37 g/m*3 4.8 C 4.8 km/h
2077 17-02-2021 05:00:00 4.8 C 6.37 g/m*3 3.36 C 6.4 km/h
2078 17-02-2021 05:05:00 4.8 C 6.37 g/m*3 3.36 C 6.4 km/h
2079 17-02-2021 05:10:00 4.9 C 6.48 g/m*3 3.48 C 6.4 km/h
2080 17-02-2021 05:15:00 5.1 C 6.57 g/m*3 3.71 C 6.4 km/h
2081 17-02-2021 05:20:00 5.2 C 6.61 g/m*3 2.96 C 9.7 km/h
2082 17-02-2021 05:25:00 5.5 C 6.74 g/m*3 5.5 C 4.8 km/h
2083 17-02-2021 05:30:00 5.6 C 6.79 g/m*3 5.6 C 4.8 km/h
2084 17-02-2021 05:35:00 5.7 C 6.83 g/m*3 5.7 C 4.8 km/h
2085 17-02-2021 05:40:00 5.8 C 6.88 g/m*3 5.8 C 3.2 km/h
2086 17-02-2021 05:45:00 5.7 C 6.83 g/m*3 5.7 C 1.6 km/h
2087 17-02-2021 05:50:00 5.6 C 6.79 g/m*3 5.6 C 3.2 km/h
2088 17-02-2021 05:55:00 5.6 C 6.79 g/m*3 5.6 C 4.8 km/h
2089 17-02-2021 06:00:00 5.6 C 6.79 g/m*3 5.6 C 3.2 km/h
2090 17-02-2021 06:05:00 5.5 C 6.74 g/m*3 5.5 C 3.2 km/h
2091 17-02-2021 06:10:00 5.5 C 6.74 g/m*3 4.17 C 6.4 km/h
2092 17-02-2021 06:15:00 5.4 C 6.7 g/m*3 5.4 C 3.2 km/h
2093 17-02-2021 06:20:00 5.3 C 6.65 g/m*3 5.3 C 3.2 km/h
2094 17-02-2021 06:25:00 5.3 C 6.65 g/m*3 5.3 C 4.8 km/h
2095 17-02-2021 06:30:00 5.3 C 6.65 g/m*3 3.94 C 6.4 km/h
2096 17-02-2021 06:35:00 5.3 C 6.65 g/m*3 2.75 C 11.3 km/h
2097 17-02-2021 06:40:00 5.4 C 6.7 g/m*3 5.4 C 4.8 km/h
2098 17-02-2021 06:45:00 5.3 C 6.65 g/m*3 5.3 C 3.2 km/h
2099 17-02-2021 06:50:00 5.2 C 6.61 g/m*3 5.2 C 0 km/h
2100 17-02-2021 06:55:00 5.1 C 6.5 g/m*3 5.1 C 0 km/h
Sensor: Nr:Datum:Temp:Abs-Feuchte:Windchill:Wind:
Aussen-T/F 2101 17-02-2021 07:00:00 4.8 C 6.37 g/m*3 4.8 C 0 km/h
2102 17-02-2021 07:05:00 4.8 C 6.44 g/m*3 4.8 C 4.8 km/h
2103 17-02-2021 07:10:00 4.7 C 6.33 g/m*3 4.7 C 3.2 km/h
2104 17-02-2021 07:15:00 4.6 C 6.35 g/m*3 4.6 C 4.8 km/h
2105 17-02-2021 07:20:00 4.6 C 6.35 g/m*3 4.6 C 3.2 km/h
2106 17-02-2021 07:25:00 4.6 C 6.35 g/m*3 4.6 C 4.8 km/h
2107 17-02-2021 07:30:00 4.6 C 6.35 g/m*3 4.6 C 0 km/h
2108 17-02-2021 07:35:00 4.7 C 6.39 g/m*3 4.7 C 3.2 km/h
2109 17-02-2021 07:40:00 4.9 C 6.48 g/m*3 4.9 C 4.8 km/h
2110 17-02-2021 07:45:00 5.2 C 6.68 g/m*3 5.2 C 4.8 km/h
2111 17-02-2021 07:50:00 5.4 C 6.77 g/m*3 5.4 C 3.2 km/h
2112 17-02-2021 07:55:00 5.5 C 6.81 g/m*3 5.5 C 4.8 km/h
2113 17-02-2021 08:00:00 5.5 C 6.81 g/m*3 5.5 C 1.6 km/h
2114 17-02-2021 08:05:00 5.6 C 6.86 g/m*3 5.6 C 3.2 km/h
2115 17-02-2021 08:10:00 5.6 C 6.86 g/m*3 4.29 C 6.4 km/h
2116 17-02-2021 08:15:00 5.6 C 6.79 g/m*3 5.6 C 3.2 km/h
2117 17-02-2021 08:20:00 5.6 C 6.79 g/m*3 5.6 C 4.8 km/h
2118 17-02-2021 08:25:00 5.4 C 6.7 g/m*3 5.4 C 3.2 km/h
2119 17-02-2021 08:30:00 5.4 C 6.7 g/m*3 4.06 C 6.4 km/h
2120 17-02-2021 08:35:00 5.4 C 6.7 g/m*3 3.2 C 9.7 km/h
2121 17-02-2021 08:40:00 5.6 C 6.86 g/m*3 4.29 C 6.4 km/h
2122 17-02-2021 08:45:00 5.7 C 6.9 g/m*3 4.4 C 6.4 km/h
2123 17-02-2021 08:50:00 5.7 C 6.9 g/m*3 5.7 C 4.8 km/h
2124 17-02-2021 08:55:00 5.8 C 6.95 g/m*3 4.52 C 6.4 km/h
2125 17-02-2021 09:00:00 5.9 C 6.92 g/m*3 3.19 C 12.9 km/h
Sensor: Nr:Datum:Temp:Abs-Feuchte:Windchill:Wind:
Aussen-T/F 2126 17-02-2021 09:05:00 6.3 C 7.18 g/m*3 3.96 C 11.3 km/h
2127 17-02-2021 09:10:00 6.7 C 7.37 g/m*3 4.17 C 12.9 km/h
2128 17-02-2021 09:15:00 7 C 7.52 g/m*3 5.11 C 9.7 km/h
2129 17-02-2021 09:20:00 7.1 C 7.49 g/m*3 5.58 C 8.1 km/h
2130 17-02-2021 09:25:00 7.2 C 7.54 g/m*3 6.13 C 6.4 km/h
2131 17-02-2021 09:30:00 7.2 C 7.46 g/m*3 7.2 C 3.2 km/h
2132 17-02-2021 09:35:00 7.2 C 7.46 g/m*3 7.2 C 3.2 km/h
2133 17-02-2021 09:40:00 7.3 C 7.51 g/m*3 6.25 C 6.4 km/h
2134 17-02-2021 09:45:00 7.4 C 7.55 g/m*3 6.37 C 6.4 km/h
2135 17-02-2021 09:50:00 7.6 C 7.65 g/m*3 6.6 C 6.4 km/h
2136 17-02-2021 09:55:00 7.7 C 7.7 g/m*3 6.28 C 8.1 km/h
2137 17-02-2021 10:00:00 7.8 C 7.75 g/m*3 7.8 C 4.8 km/h
2138 17-02-2021 10:05:00 8 C 7.77 g/m*3 6.3 C 9.7 km/h
2139 17-02-2021 10:10:00 8.2 C 7.79 g/m*3 6.25 C 11.3 km/h
2140 17-02-2021 10:15:00 8.4 C 7.8 g/m*3 6.49 C 11.3 km/h
2141 17-02-2021 10:20:00 8.6 C 7.82 g/m*3 5.86 C 17.7 km/h
2142 17-02-2021 10:25:00 8.7 C 7.78 g/m*3 5.98 C 17.7 km/h
2143 17-02-2021 10:30:00 8.8 C 7.83 g/m*3 6.11 C 17.7 km/h
2144 17-02-2021 10:35:00 8.9 C 7.8 g/m*3 6.62 C 14.5 km/h
2145 17-02-2021 10:40:00 9.1 C 7.9 g/m*3 6.87 C 14.5 km/h
2146 17-02-2021 10:45:00 9.2 C 7.95 g/m*3 7.21 C 12.9 km/h
2147 17-02-2021 10:50:00 9.3 C 7.91 g/m*3 7.33 C 12.9 km/h
2148 17-02-2021 10:55:00 9.4 C 7.96 g/m*3 7.97 C 9.7 km/h
2149 17-02-2021 11:00:00 9.5 C 7.92 g/m*3 8.09 C 9.7 km/h
2150 17-02-2021 11:05:00 9.5 C 7.92 g/m*3 7.58 C 12.9 km/h
Sensor: Nr:Datum:Temp:Abs-Feuchte:Windchill:Wind:
Aussen-T/F 2151 17-02-2021 11:10:00 9.6 C 7.88 g/m*3 7.29 C 16.1 km/h
2152 17-02-2021 11:15:00 9.6 C 7.88 g/m*3 7.7 C 12.9 km/h
2153 17-02-2021 11:20:00 9.6 C 7.88 g/m*3 7.7 C 12.9 km/h
2154 17-02-2021 11:25:00 9.6 C 7.79 g/m*3 7.29 C 16.1 km/h
2155 17-02-2021 11:30:00 9.6 C 7.88 g/m*3 7.7 C 12.9 km/h
2156 17-02-2021 11:35:00 9.7 C 7.93 g/m*3 7.23 C 17.7 km/h
2157 17-02-2021 11:40:00 9.8 C 7.89 g/m*3 7.94 C 12.9 km/h
2158 17-02-2021 11:45:00 9.9 C 7.94 g/m*3 8.06 C 12.9 km/h
2159 17-02-2021 11:50:00 10.1 C 7.94 g/m*3 7.91 C 16.1 km/h
2160 17-02-2021 11:55:00 10.1 C 7.94 g/m*3 8.31 C 12.9 km/h
2161 17-02-2021 12:00:00 10.2 C 7.99 g/m*3 8.92 C 9.7 km/h
2162 17-02-2021 12:05:00 10.3 C 8.04 g/m*3 8.78 C 11.3 km/h
2163 17-02-2021 12:10:00 10.3 C 7.95 g/m*3 9.34 C 8.1 km/h
2164 17-02-2021 12:15:00 10.3 C 7.95 g/m*3 8.55 C 12.9 km/h
2165 17-02-2021 12:20:00 10.3 C 7.95 g/m*3 8.55 C 12.9 km/h
2166 17-02-2021 12:25:00 10.3 C 8.04 g/m*3 8.78 C 11.3 km/h
2167 17-02-2021 12:30:00 10.3 C 8.04 g/m*3 8.78 C 11.3 km/h
2168 17-02-2021 12:35:00 10.4 C 8 g/m*3 8.47 C 14.5 km/h
2169 17-02-2021 12:40:00 10.4 C 8 g/m*3 9.16 C 9.7 km/h
2170 17-02-2021 12:45:00 10.6 C 8 g/m*3 9.14 C 11.3 km/h
2171 17-02-2021 12:50:00 10.7 C 7.96 g/m*3 9.04 C 12.9 km/h
2172 17-02-2021 12:55:00 10.7 C 7.96 g/m*3 9.52 C 9.7 km/h
2173 17-02-2021 13:00:00 10.7 C 7.86 g/m*3 9.04 C 12.9 km/h
2174 17-02-2021 13:05:00 10.7 C 7.86 g/m*3 9.26 C 11.3 km/h
2175 17-02-2021 13:10:00 10.8 C 7.91 g/m*3 9.64 C 9.7 km/h
Sensor: Nr:Datum:Temp:Abs-Feuchte:Windchill:Wind:
Aussen-T/F 2176 17-02-2021 13:15:00 10.8 C 7.91 g/m*3 9.93 C 8.1 km/h
2177 17-02-2021 13:20:00 10.7 C 7.86 g/m*3 9.26 C 11.3 km/h
2178 17-02-2021 13:25:00 10.7 C 7.86 g/m*3 10.18 C 6.4 km/h
2179 17-02-2021 13:30:00 10.7 C 7.86 g/m*3 9.26 C 11.3 km/h
2180 17-02-2021 13:35:00 10.6 C 7.81 g/m*3 8.92 C 12.9 km/h
2181 17-02-2021 13:40:00 10.5 C 7.86 g/m*3 9.57 C 8.1 km/h
2182 17-02-2021 13:45:00 10.5 C 7.86 g/m*3 8.8 C 12.9 km/h
2183 17-02-2021 13:50:00 10.5 C 7.95 g/m*3 8.4 C 16.1 km/h
2184 17-02-2021 13:55:00 10.6 C 8 g/m*3 8.92 C 12.9 km/h
2185 17-02-2021 14:00:00 10.6 C 8 g/m*3 8.92 C 12.9 km/h
2186 17-02-2021 14:05:00 10.6 C 8 g/m*3 9.14 C 11.3 km/h
2187 17-02-2021 14:10:00 10.7 C 8.05 g/m*3 9.52 C 9.7 km/h
2188 17-02-2021 14:15:00 10.7 C 7.96 g/m*3 9.04 C 12.9 km/h
2189 17-02-2021 14:20:00 10.8 C 8.01 g/m*3 9.38 C 11.3 km/h
2190 17-02-2021 14:25:00 10.8 C 8.01 g/m*3 9.16 C 12.9 km/h
2191 17-02-2021 14:30:00 10.9 C 7.96 g/m*3 9.08 C 14.5 km/h
2192 17-02-2021 14:35:00 10.9 C 7.96 g/m*3 9.51 C 11.3 km/h
2193 17-02-2021 14:40:00 11 C 8.11 g/m*3 9.88 C 9.7 km/h
2194 17-02-2021 14:45:00 11.1 C 8.16 g/m*3 11.1 C 6.4 km/h
2195 17-02-2021 14:50:00 11.1 C 8.06 g/m*3 11.1 C 11.3 km/h
2196 17-02-2021 14:55:00 11.1 C 8.06 g/m*3 11.1 C 9.7 km/h
2197 17-02-2021 15:00:00 11.1 C 7.96 g/m*3 11.1 C 9.7 km/h
2198 17-02-2021 15:05:00 11.1 C 7.96 g/m*3 11.1 C 8.1 km/h
2199 17-02-2021 15:10:00 11.2 C 8.01 g/m*3 11.2 C 6.4 km/h
2200 17-02-2021 15:15:00 11.2 C 8.01 g/m*3 11.2 C 9.7 km/h
Sensor: Nr:Datum:Temp:Abs-Feuchte:Windchill:Wind:
Aussen-T/F 2201 17-02-2021 15:20:00 11.2 C 8.01 g/m*3 11.2 C 6.4 km/h
2202 17-02-2021 15:25:00 11.1 C 7.96 g/m*3 11.1 C 8.1 km/h
2203 17-02-2021 15:30:00 11.1 C 7.96 g/m*3 11.1 C 6.4 km/h
2204 17-02-2021 15:35:00 11.1 C 8.06 g/m*3 11.1 C 9.7 km/h
2205 17-02-2021 15:40:00 11 C 8.11 g/m*3 11 C 4.8 km/h
2206 17-02-2021 15:45:00 10.9 C 7.96 g/m*3 9.76 C 9.7 km/h
2207 17-02-2021 15:50:00 10.9 C 8.06 g/m*3 9.28 C 12.9 km/h
2208 17-02-2021 15:55:00 10.9 C 8.06 g/m*3 9.51 C 11.3 km/h
2209 17-02-2021 16:00:00 10.8 C 8.01 g/m*3 9.16 C 12.9 km/h
2210 17-02-2021 16:05:00 10.8 C 8.01 g/m*3 9.64 C 9.7 km/h
2211 17-02-2021 16:10:00 10.8 C 8.11 g/m*3 9.93 C 8.1 km/h
2212 17-02-2021 16:15:00 10.8 C 8.11 g/m*3 10.29 C 6.4 km/h
2213 17-02-2021 16:20:00 10.8 C 8.11 g/m*3 10.29 C 6.4 km/h
2214 17-02-2021 16:25:00 10.8 C 8.11 g/m*3 10.8 C 4.8 km/h
2215 17-02-2021 16:30:00 10.8 C 8.11 g/m*3 10.8 C 4.8 km/h
2216 17-02-2021 16:35:00 10.8 C 8.11 g/m*3 10.8 C 1.6 km/h
2217 17-02-2021 16:40:00 10.8 C 8.11 g/m*3 9.16 C 12.9 km/h
2218 17-02-2021 16:45:00 10.8 C 8.11 g/m*3 10.8 C 4.8 km/h
2219 17-02-2021 16:50:00 10.9 C 8.16 g/m*3 10.41 C 6.4 km/h
2220 17-02-2021 16:55:00 10.9 C 8.06 g/m*3 10.41 C 6.4 km/h
2221 17-02-2021 17:00:00 10.8 C 8.01 g/m*3 9.93 C 8.1 km/h
2222 17-02-2021 17:05:00 10.7 C 7.96 g/m*3 10.7 C 4.8 km/h
2223 17-02-2021 17:10:00 10.5 C 7.86 g/m*3 9.95 C 6.4 km/h
2224 17-02-2021 17:15:00 10.3 C 7.76 g/m*3 10.3 C 4.8 km/h
2225 17-02-2021 17:20:00 10 C 7.71 g/m*3 10 C 4.8 km/h
Sensor: Nr:Datum:Temp:Abs-Feuchte:Windchill:Wind:
Aussen-T/F 2226 17-02-2021 17:25:00 9.7 C 7.65 g/m*3 9.7 C 4.8 km/h
2227 17-02-2021 17:30:00 9.4 C 7.51 g/m*3 9.4 C 4.8 km/h
2228 17-02-2021 17:35:00 9.2 C 7.5 g/m*3 9.2 C 4.8 km/h
2229 17-02-2021 17:40:00 8.9 C 7.45 g/m*3 8.1 C 6.4 km/h
2230 17-02-2021 17:45:00 8.7 C 7.35 g/m*3 8.7 C 4.8 km/h
2231 17-02-2021 17:50:00 8.4 C 7.3 g/m*3 7.52 C 6.4 km/h
2232 17-02-2021 17:55:00 8.1 C 7.16 g/m*3 7.17 C 6.4 km/h
2233 17-02-2021 18:00:00 7.9 C 7.15 g/m*3 6.94 C 6.4 km/h
2234 17-02-2021 18:05:00 7.7 C 7.14 g/m*3 7.7 C 4.8 km/h
2235 17-02-2021 18:10:00 7.6 C 7.09 g/m*3 7.6 C 4.8 km/h
2236 17-02-2021 18:15:00 7.6 C 7.17 g/m*3 6.6 C 6.4 km/h
2237 17-02-2021 18:20:00 7.4 C 7.08 g/m*3 6.37 C 6.4 km/h
2238 17-02-2021 18:25:00 7.3 C 7.11 g/m*3 7.3 C 4.8 km/h
2239 17-02-2021 18:30:00 7.3 C 7.11 g/m*3 6.25 C 6.4 km/h
2240 17-02-2021 18:35:00 7.3 C 7.11 g/m*3 7.3 C 4.8 km/h
2241 17-02-2021 18:40:00 7.2 C 7.06 g/m*3 7.2 C 3.2 km/h
2242 17-02-2021 18:45:00 7.2 C 7.14 g/m*3 7.2 C 3.2 km/h
2243 17-02-2021 18:50:00 7.1 C 7.1 g/m*3 7.1 C 3.2 km/h
2244 17-02-2021 18:55:00 6.9 C 6.93 g/m*3 6.9 C 4.8 km/h
2245 17-02-2021 19:00:00 6.8 C 6.88 g/m*3 6.8 C 4.8 km/h
2246 17-02-2021 19:05:00 6.7 C 6.91 g/m*3 5.56 C 6.4 km/h
2247 17-02-2021 19:10:00 6.7 C 6.91 g/m*3 5.56 C 6.4 km/h
2248 17-02-2021 19:15:00 6.7 C 6.99 g/m*3 6.7 C 4.8 km/h
2249 17-02-2021 19:20:00 6.7 C 6.99 g/m*3 6.7 C 4.8 km/h
2250 17-02-2021 19:25:00 6.8 C 7.04 g/m*3 6.8 C 3.2 km/h
Sensor: Nr:Datum:Temp:Abs-Feuchte:Windchill:Wind:
Aussen-T/F 2251 17-02-2021 19:30:00 6.8 C 7.04 g/m*3 6.8 C 4.8 km/h
2252 17-02-2021 19:35:00 6.8 C 7.11 g/m*3 6.8 C 4.8 km/h
2253 17-02-2021 19:40:00 6.8 C 7.11 g/m*3 6.8 C 0 km/h
2254 17-02-2021 19:45:00 6.8 C 7.11 g/m*3 6.8 C 4.8 km/h
2255 17-02-2021 19:50:00 6.8 C 7.11 g/m*3 6.8 C 0 km/h
2256 17-02-2021 19:55:00 6.7 C 6.99 g/m*3 6.7 C 0 km/h
2257 17-02-2021 20:00:00 6.6 C 6.95 g/m*3 6.6 C 0 km/h
2258 17-02-2021 20:05:00 6.4 C 6.85 g/m*3 6.4 C 0 km/h
2259 17-02-2021 20:10:00 6.3 C 6.81 g/m*3 6.3 C 0 km/h
2260 17-02-2021 20:15:00 6.3 C 6.81 g/m*3 6.3 C 0 km/h
2261 17-02-2021 20:20:00 6.2 C 6.77 g/m*3 6.2 C 0 km/h
2262 17-02-2021 20:25:00 6 C 6.68 g/m*3 6 C 0 km/h
2263 17-02-2021 20:30:00 5.8 C 6.59 g/m*3 5.8 C 0 km/h
2264 17-02-2021 20:35:00 5.7 C 6.55 g/m*3 5.7 C 0 km/h
2265 17-02-2021 20:40:00 5.5 C 6.46 g/m*3 5.5 C 4.8 km/h
2266 17-02-2021 20:45:00 5.4 C 6.42 g/m*3 5.4 C 4.8 km/h
2267 17-02-2021 20:50:00 5.3 C 6.38 g/m*3 5.3 C 3.2 km/h
2268 17-02-2021 20:55:00 5.2 C 6.33 g/m*3 5.2 C 0 km/h
2269 17-02-2021 21:00:00 5.1 C 6.36 g/m*3 5.1 C 1.6 km/h
2270 17-02-2021 21:05:00 4.9 C 6.28 g/m*3 4.9 C 3.2 km/h
2271 17-02-2021 21:10:00 4.8 C 6.24 g/m*3 4.8 C 1.6 km/h
2272 17-02-2021 21:15:00 4.7 C 6.19 g/m*3 3.25 C 6.4 km/h
2273 17-02-2021 21:20:00 4.6 C 6.15 g/m*3 4.6 C 1.6 km/h
2274 17-02-2021 21:25:00 4.5 C 6.11 g/m*3 4.5 C 3.2 km/h
2275 17-02-2021 21:30:00 4.3 C 6.03 g/m*3 4.3 C 1.6 km/h
Sensor: Nr:Datum:Temp:Abs-Feuchte:Windchill:Wind:
Aussen-T/F 2276 17-02-2021 21:35:00 4.2 C 5.99 g/m*3 4.2 C 3.2 km/h
2277 17-02-2021 21:40:00 4.1 C 5.95 g/m*3 4.1 C 0 km/h
2278 17-02-2021 21:45:00 4.1 C 5.95 g/m*3 4.1 C 0 km/h
2279 17-02-2021 21:50:00 3.9 C 5.94 g/m*3 3.9 C 0 km/h
2280 17-02-2021 21:55:00 3.9 C 5.94 g/m*3 3.9 C 0 km/h
2281 17-02-2021 22:00:00 3.8 C 5.9 g/m*3 3.8 C 1.6 km/h
2282 17-02-2021 22:05:00 3.7 C 5.86 g/m*3 3.7 C 0 km/h
2283 17-02-2021 22:10:00 3.6 C 5.82 g/m*3 3.6 C 0 km/h
2284 17-02-2021 22:15:00 3.5 C 5.78 g/m*3 3.5 C 0 km/h
2285 17-02-2021 22:20:00 3.4 C 5.74 g/m*3 3.4 C 0 km/h
2286 17-02-2021 22:25:00 3.3 C 5.7 g/m*3 3.3 C 0 km/h
2287 17-02-2021 22:30:00 3.2 C 5.66 g/m*3 3.2 C 1.6 km/h
2288 17-02-2021 22:35:00 3.2 C 5.66 g/m*3 3.2 C 0 km/h
2289 17-02-2021 22:40:00 3.1 C 5.63 g/m*3 3.1 C 0 km/h
2290 17-02-2021 22:45:00 3 C 5.59 g/m*3 3 C 0 km/h
2291 17-02-2021 22:50:00 2.9 C 5.55 g/m*3 2.9 C 0 km/h
2292 17-02-2021 22:55:00 2.8 C 5.51 g/m*3 2.8 C 0 km/h
2293 17-02-2021 23:00:00 2.7 C 5.48 g/m*3 2.7 C 0 km/h
2294 17-02-2021 23:05:00 2.6 C 5.44 g/m*3 2.6 C 0 km/h
2295 17-02-2021 23:10:00 2.6 C 5.44 g/m*3 2.6 C 0 km/h
2296 17-02-2021 23:15:00 2.5 C 5.4 g/m*3 2.5 C 0 km/h
2297 17-02-2021 23:20:00 2.4 C 5.37 g/m*3 2.4 C 0 km/h
2298 17-02-2021 23:25:00 2.4 C 5.42 g/m*3 2.4 C 0 km/h
2299 17-02-2021 23:30:00 2.4 C 5.42 g/m*3 2.4 C 0 km/h
2300 17-02-2021 23:35:00 2.4 C 5.42 g/m*3 2.4 C 0 km/h
Sensor: Nr:Datum:Temp:Abs-Feuchte:Windchill:Wind:
Aussen-T/F 2301 17-02-2021 23:40:00 2.3 C 5.39 g/m*3 2.3 C 0 km/h
2302 17-02-2021 23:45:00 2.2 C 5.35 g/m*3 2.2 C 0 km/h
2303 17-02-2021 23:50:00 2.1 C 5.31 g/m*3 2.1 C 0 km/h
2304 17-02-2021 23:55:00 1.9 C 5.24 g/m*3 1.9 C 0 km/h
2305 18-02-2021 00:00:00 1.9 C 5.24 g/m*3 1.9 C 0 km/h
2306 18-02-2021 00:05:00 1.9 C 5.24 g/m*3 1.9 C 0 km/h
2307 18-02-2021 00:10:00 1.9 C 5.24 g/m*3 1.9 C 0 km/h
2308 18-02-2021 00:15:00 1.8 C 5.21 g/m*3 1.8 C 0 km/h
2309 18-02-2021 00:20:00 1.8 C 5.21 g/m*3 1.8 C 0 km/h
2310 18-02-2021 00:25:00 1.8 C 5.21 g/m*3 1.8 C 0 km/h
2311 18-02-2021 00:30:00 1.7 C 5.17 g/m*3 1.7 C 0 km/h
2312 18-02-2021 00:35:00 1.6 C 5.14 g/m*3 1.6 C 0 km/h
2313 18-02-2021 00:40:00 1.4 C 5.07 g/m*3 1.4 C 0 km/h
2314 18-02-2021 00:45:00 1.3 C 5.03 g/m*3 1.3 C 0 km/h
2315 18-02-2021 00:50:00 1.3 C 5.03 g/m*3 1.3 C 0 km/h
2316 18-02-2021 00:55:00 1.3 C 5.03 g/m*3 1.3 C 0 km/h
2317 18-02-2021 01:00:00 1.3 C 5.03 g/m*3 1.3 C 0 km/h
2318 18-02-2021 01:05:00 1.3 C 5.03 g/m*3 1.3 C 0 km/h
2319 18-02-2021 01:10:00 1.3 C 5.03 g/m*3 1.3 C 0 km/h
2320 18-02-2021 01:15:00 1.2 C 5 g/m*3 1.2 C 0 km/h
2321 18-02-2021 01:20:00 1.1 C 4.96 g/m*3 1.1 C 0 km/h
2322 18-02-2021 01:25:00 1.1 C 4.96 g/m*3 1.1 C 1.6 km/h
2323 18-02-2021 01:30:00 1.1 C 4.96 g/m*3 1.1 C 0 km/h
2324 18-02-2021 01:35:00 1.1 C 4.96 g/m*3 1.1 C 0 km/h
2325 18-02-2021 01:40:00 1 C 4.93 g/m*3 1 C 0 km/h
Sensor: Nr:Datum:Temp:Abs-Feuchte:Windchill:Wind:
Aussen-T/F 2326 18-02-2021 01:45:00 0.9 C 4.9 g/m*3 0.9 C 0 km/h
2327 18-02-2021 01:50:00 0.8 C 4.86 g/m*3 0.8 C 0 km/h
2328 18-02-2021 01:55:00 0.8 C 4.86 g/m*3 0.8 C 0 km/h
2329 18-02-2021 02:00:00 0.8 C 4.86 g/m*3 0.8 C 0 km/h
2330 18-02-2021 02:05:00 0.8 C 4.86 g/m*3 0.8 C 0 km/h
2331 18-02-2021 02:10:00 0.8 C 4.91 g/m*3 0.8 C 0 km/h
2332 18-02-2021 02:15:00 0.8 C 4.91 g/m*3 0.8 C 0 km/h
2333 18-02-2021 02:20:00 0.8 C 4.91 g/m*3 0.8 C 0 km/h
2334 18-02-2021 02:25:00 0.7 C 4.88 g/m*3 0.7 C 0 km/h
2335 18-02-2021 02:30:00 0.6 C 4.8 g/m*3 0.6 C 0 km/h
2336 18-02-2021 02:35:00 0.4 C 4.73 g/m*3 0.4 C 0 km/h
2337 18-02-2021 02:40:00 0.4 C 4.73 g/m*3 0.4 C 0 km/h
2338 18-02-2021 02:45:00 0.4 C 4.73 g/m*3 0.4 C 0 km/h
2339 18-02-2021 02:50:00 0.4 C 4.78 g/m*3 0.4 C 0 km/h
2340 18-02-2021 02:55:00 0.3 C 4.75 g/m*3 0.3 C 0 km/h
2341 18-02-2021 03:00:00 0.3 C 4.75 g/m*3 0.3 C 0 km/h
2342 18-02-2021 03:05:00 0.2 C 4.67 g/m*3 0.2 C 0 km/h
2343 18-02-2021 03:10:00 0.2 C 4.67 g/m*3 0.2 C 0 km/h
2344 18-02-2021 03:15:00 0.1 C 4.68 g/m*3 0.1 C 0 km/h
2345 18-02-2021 03:20:00 0.1 C 4.68 g/m*3 0.1 C 0 km/h
2346 18-02-2021 03:25:00 0 C 4.65 g/m*3 0 C 0 km/h
2347 18-02-2021 03:30:00 -0.1 C 4.57 g/m*3 -0.1 C 0 km/h
2348 18-02-2021 03:35:00 -0.1 C 4.62 g/m*3 -0.1 C 0 km/h
2349 18-02-2021 03:40:00 0 C 4.65 g/m*3 0 C 0 km/h
2350 18-02-2021 03:45:00 0.1 C 4.68 g/m*3 0.1 C 0 km/h
Sensor: Nr:Datum:Temp:Abs-Feuchte:Windchill:Wind:
Aussen-T/F 2351 18-02-2021 03:50:00 0.1 C 4.68 g/m*3 0.1 C 0 km/h
2352 18-02-2021 03:55:00 0.1 C 4.68 g/m*3 0.1 C 0 km/h
2353 18-02-2021 04:00:00 0 C 4.65 g/m*3 0 C 0 km/h
2354 18-02-2021 04:05:00 0 C 4.65 g/m*3 0 C 0 km/h
2355 18-02-2021 04:10:00 0 C 4.65 g/m*3 0 C 0 km/h
2356 18-02-2021 04:15:00 0 C 4.65 g/m*3 0 C 0 km/h
2357 18-02-2021 04:20:00 0 C 4.65 g/m*3 0 C 0 km/h
2358 18-02-2021 04:25:00 0 C 4.65 g/m*3 0 C 0 km/h
2359 18-02-2021 04:30:00 0 C 4.65 g/m*3 0 C 0 km/h
2360 18-02-2021 04:35:00 0 C 4.65 g/m*3 0 C 0 km/h
2361 18-02-2021 04:40:00 0 C 4.65 g/m*3 0 C 0 km/h
2362 18-02-2021 04:45:00 0 C 4.65 g/m*3 0 C 0 km/h
2363 18-02-2021 04:50:00 -0.1 C 4.62 g/m*3 -0.1 C 0 km/h
2364 18-02-2021 04:55:00 -0.1 C 4.62 g/m*3 -0.1 C 0 km/h
2365 18-02-2021 05:00:00 -0.1 C 4.62 g/m*3 -0.1 C 0 km/h
2366 18-02-2021 05:05:00 -0.2 C 4.59 g/m*3 -0.2 C 0 km/h
2367 18-02-2021 05:10:00 -0.2 C 4.59 g/m*3 -0.2 C 0 km/h
2368 18-02-2021 05:15:00 -0.2 C 4.59 g/m*3 -0.2 C 0 km/h
2369 18-02-2021 05:20:00 -0.2 C 4.59 g/m*3 -0.2 C 0 km/h
2370 18-02-2021 05:25:00 -0.3 C 4.56 g/m*3 -0.3 C 0 km/h
2371 18-02-2021 05:30:00 -0.3 C 4.56 g/m*3 -0.3 C 0 km/h
2372 18-02-2021 05:35:00 -0.3 C 4.56 g/m*3 -0.3 C 0 km/h
2373 18-02-2021 05:40:00 -0.3 C 4.56 g/m*3 -0.3 C 0 km/h
2374 18-02-2021 05:45:00 -0.3 C 4.56 g/m*3 -0.3 C 0 km/h
2375 18-02-2021 05:50:00 -0.4 C 4.52 g/m*3 -0.4 C 0 km/h
Sensor: Nr:Datum:Temp:Abs-Feuchte:Windchill:Wind:
Aussen-T/F 2376 18-02-2021 05:55:00 -0.4 C 4.52 g/m*3 -0.4 C 0 km/h
2377 18-02-2021 06:00:00 -0.5 C 4.49 g/m*3 -0.5 C 0 km/h
2378 18-02-2021 06:05:00 -0.5 C 4.49 g/m*3 -0.5 C 0 km/h
2379 18-02-2021 06:10:00 -0.6 C 4.46 g/m*3 -0.6 C 0 km/h
2380 18-02-2021 06:15:00 -0.6 C 4.46 g/m*3 -0.6 C 0 km/h
2381 18-02-2021 06:20:00 -0.5 C 4.49 g/m*3 -0.5 C 0 km/h
2382 18-02-2021 06:25:00 -0.5 C 4.49 g/m*3 -0.5 C 0 km/h
2383 18-02-2021 06:30:00 -0.5 C 4.49 g/m*3 -0.5 C 0 km/h
2384 18-02-2021 06:35:00 -0.4 C 4.52 g/m*3 -0.4 C 0 km/h
2385 18-02-2021 06:40:00 -0.4 C 4.52 g/m*3 -0.4 C 0 km/h
2386 18-02-2021 06:45:00 -0.4 C 4.52 g/m*3 -0.4 C 0 km/h
2387 18-02-2021 06:50:00 -0.4 C 4.52 g/m*3 -0.4 C 0 km/h
2388 18-02-2021 06:55:00 -0.3 C 4.56 g/m*3 -0.3 C 0 km/h
2389 18-02-2021 07:00:00 -0.3 C 4.56 g/m*3 -0.3 C 0 km/h
2390 18-02-2021 07:05:00 -0.3 C 4.56 g/m*3 -0.3 C 0 km/h
2391 18-02-2021 07:10:00 -0.3 C 4.56 g/m*3 -0.3 C 0 km/h
2392 18-02-2021 07:15:00 -0.3 C 4.56 g/m*3 -0.3 C 0 km/h
2393 18-02-2021 07:20:00 -0.4 C 4.52 g/m*3 -0.4 C 0 km/h
2394 18-02-2021 07:25:00 -0.4 C 4.52 g/m*3 -0.4 C 0 km/h
2395 18-02-2021 07:30:00 -0.4 C 4.52 g/m*3 -0.4 C 0 km/h
2396 18-02-2021 07:35:00 -0.4 C 4.52 g/m*3 -0.4 C 0 km/h
2397 18-02-2021 07:40:00 -0.3 C 4.56 g/m*3 -0.3 C 0 km/h
2398 18-02-2021 07:45:00 -0.3 C 4.6 g/m*3 -0.3 C 0 km/h
2399 18-02-2021 07:50:00 -0.2 C 4.64 g/m*3 -0.2 C 0 km/h
2400 18-02-2021 07:55:00 -0.2 C 4.59 g/m*3 -0.2 C 0 km/h
Sensor: Nr:Datum:Temp:Abs-Feuchte:Windchill:Wind:
Aussen-T/F 2401 18-02-2021 08:00:00 -0.1 C 4.62 g/m*3 -0.1 C 0 km/h
2402 18-02-2021 08:05:00 -0.1 C 4.67 g/m*3 -0.1 C 0 km/h
2403 18-02-2021 08:10:00 0 C 4.7 g/m*3 0 C 0 km/h
2404 18-02-2021 08:15:00 0.1 C 4.73 g/m*3 0.1 C 0 km/h
2405 18-02-2021 08:20:00 0.2 C 4.77 g/m*3 0.2 C 0 km/h
2406 18-02-2021 08:25:00 0.3 C 4.8 g/m*3 0.3 C 0 km/h
2407 18-02-2021 08:30:00 0.4 C 4.83 g/m*3 0.4 C 0 km/h
2408 18-02-2021 08:35:00 0.5 C 4.86 g/m*3 0.5 C 3.2 km/h
2409 18-02-2021 08:40:00 0.6 C 4.9 g/m*3 0.6 C 0 km/h
2410 18-02-2021 08:45:00 0.6 C 4.9 g/m*3 0.6 C 0 km/h
2411 18-02-2021 08:50:00 0.6 C 4.9 g/m*3 0.6 C 0 km/h
2412 18-02-2021 08:55:00 0.6 C 4.9 g/m*3 0.6 C 1.6 km/h
2413 18-02-2021 09:00:00 0.6 C 4.9 g/m*3 0.6 C 0 km/h
2414 18-02-2021 09:05:00 0.6 C 4.9 g/m*3 0.6 C 1.6 km/h
2415 18-02-2021 09:10:00 0.7 C 4.93 g/m*3 0.7 C 0 km/h
2416 18-02-2021 09:15:00 0.7 C 4.93 g/m*3 0.7 C 0 km/h
2417 18-02-2021 09:20:00 0.7 C 4.93 g/m*3 0.7 C 0 km/h
2418 18-02-2021 09:25:00 0.7 C 4.93 g/m*3 0.7 C 0 km/h
2419 18-02-2021 09:30:00 0.8 C 4.97 g/m*3 0.8 C 0 km/h
2420 18-02-2021 09:35:00 0.8 C 4.97 g/m*3 0.8 C 0 km/h
2421 18-02-2021 09:40:00 0.9 C 5 g/m*3 0.9 C 0 km/h
2422 18-02-2021 09:45:00 1 C 5.03 g/m*3 1 C 0 km/h
2423 18-02-2021 09:50:00 1.1 C 5.07 g/m*3 1.1 C 0 km/h
2424 18-02-2021 09:55:00 1.2 C 5.1 g/m*3 1.2 C 1.6 km/h
2425 18-02-2021 10:00:00 1.3 C 5.14 g/m*3 1.3 C 3.2 km/h
Sensor: Nr:Datum:Temp:Abs-Feuchte:Windchill:Wind:
Aussen-T/F 2426 18-02-2021 10:05:00 1.5 C 5.21 g/m*3 1.5 C 3.2 km/h
2427 18-02-2021 10:10:00 1.6 C 5.25 g/m*3 1.6 C 0 km/h
2428 18-02-2021 10:15:00 1.7 C 5.28 g/m*3 1.7 C 0 km/h
2429 18-02-2021 10:20:00 1.8 C 5.32 g/m*3 1.8 C 3.2 km/h
2430 18-02-2021 10:25:00 1.9 C 5.35 g/m*3 1.9 C 0 km/h
2431 18-02-2021 10:30:00 2.1 C 5.43 g/m*3 2.1 C 0 km/h
2432 18-02-2021 10:35:00 2.3 C 5.5 g/m*3 2.3 C 1.6 km/h
2433 18-02-2021 10:40:00 2.4 C 5.54 g/m*3 2.4 C 1.6 km/h
2434 18-02-2021 10:45:00 2.6 C 5.61 g/m*3 2.6 C 0 km/h
2435 18-02-2021 10:50:00 2.8 C 5.75 g/m*3 2.8 C 1.6 km/h
2436 18-02-2021 10:55:00 2.9 C 5.73 g/m*3 2.9 C 0 km/h
2437 18-02-2021 11:00:00 2.9 C 5.73 g/m*3 2.9 C 0 km/h
2438 18-02-2021 11:05:00 3 C 5.77 g/m*3 3 C 0 km/h
2439 18-02-2021 11:10:00 3.2 C 5.85 g/m*3 3.2 C 0 km/h
2440 18-02-2021 11:15:00 3.4 C 5.99 g/m*3 3.4 C 0 km/h
2441 18-02-2021 11:20:00 3.4 C 5.99 g/m*3 3.4 C 0 km/h
2442 18-02-2021 11:25:00 3.6 C 6 g/m*3 3.6 C 0 km/h
2443 18-02-2021 11:30:00 3.8 C 6.15 g/m*3 3.8 C 3.2 km/h
2444 18-02-2021 11:35:00 4 C 6.17 g/m*3 4 C 0 km/h
2445 18-02-2021 11:40:00 4.2 C 6.31 g/m*3 4.2 C 0 km/h
2446 18-02-2021 11:45:00 4.3 C 6.36 g/m*3 4.3 C 0 km/h
2447 18-02-2021 11:50:00 4.4 C 6.4 g/m*3 4.4 C 1.6 km/h
2448 18-02-2021 11:55:00 4.5 C 6.44 g/m*3 4.5 C 1.6 km/h
2449 18-02-2021 12:00:00 4.5 C 6.44 g/m*3 4.5 C 0 km/h
2450 18-02-2021 12:05:00 4.6 C 6.42 g/m*3 4.6 C 0 km/h
Sensor: Nr:Datum:Temp:Abs-Feuchte:Windchill:Wind:
Aussen-T/F 2451 18-02-2021 12:10:00 4.7 C 6.53 g/m*3 4.7 C 0 km/h
2452 18-02-2021 12:15:00 4.9 C 6.62 g/m*3 4.9 C 0 km/h
2453 18-02-2021 12:20:00 5.1 C 6.7 g/m*3 5.1 C 0 km/h
2454 18-02-2021 12:25:00 5.4 C 6.84 g/m*3 5.4 C 0 km/h
2455 18-02-2021 12:30:00 5.7 C 6.97 g/m*3 5.7 C 0 km/h
2456 18-02-2021 12:35:00 5.9 C 7.07 g/m*3 5.9 C 0 km/h
2457 18-02-2021 12:40:00 6.2 C 7.21 g/m*3 6.2 C 0 km/h
2458 18-02-2021 12:45:00 6.3 C 7.25 g/m*3 6.3 C 0 km/h
2459 18-02-2021 12:50:00 6.6 C 7.4 g/m*3 6.6 C 1.6 km/h
2460 18-02-2021 12:55:00 6.7 C 7.45 g/m*3 6.7 C 0 km/h
2461 18-02-2021 13:00:00 6.8 C 7.5 g/m*3 6.8 C 0 km/h
2462 18-02-2021 13:05:00 7 C 7.59 g/m*3 7 C 0 km/h
2463 18-02-2021 13:10:00 7.1 C 7.57 g/m*3 7.1 C 1.6 km/h
2464 18-02-2021 13:15:00 7.2 C 7.61 g/m*3 7.2 C 1.6 km/h
2465 18-02-2021 13:20:00 7.3 C 7.58 g/m*3 7.3 C 0 km/h
2466 18-02-2021 13:25:00 7.5 C 7.68 g/m*3 7.5 C 0 km/h
2467 18-02-2021 13:30:00 7.6 C 7.65 g/m*3 7.6 C 1.6 km/h
2468 18-02-2021 13:35:00 7.7 C 7.62 g/m*3 7.7 C 1.6 km/h
2469 18-02-2021 13:40:00 7.7 C 7.54 g/m*3 7.7 C 1.6 km/h
2470 18-02-2021 13:45:00 7.8 C 7.51 g/m*3 7.8 C 3.2 km/h
2471 18-02-2021 13:50:00 7.9 C 7.47 g/m*3 7.9 C 1.6 km/h
2472 18-02-2021 13:55:00 8.1 C 7.41 g/m*3 8.1 C 3.2 km/h
2473 18-02-2021 14:00:00 8.2 C 7.29 g/m*3 7.29 C 6.4 km/h
2474 18-02-2021 14:05:00 8.4 C 7.3 g/m*3 8.4 C 4.8 km/h
2475 18-02-2021 14:10:00 8.5 C 7.34 g/m*3 8.5 C 1.6 km/h
Sensor: Nr:Datum:Temp:Abs-Feuchte:Windchill:Wind:
Aussen-T/F 2476 18-02-2021 14:15:00 8.6 C 7.22 g/m*3 8.6 C 4.8 km/h
2477 18-02-2021 14:20:00 8.7 C 7.18 g/m*3 7.87 C 6.4 km/h
2478 18-02-2021 14:25:00 8.7 C 7.09 g/m*3 7.87 C 6.4 km/h
2479 18-02-2021 14:30:00 8.7 C 7.09 g/m*3 8.7 C 4.8 km/h
2480 18-02-2021 14:35:00 8.7 C 7.01 g/m*3 8.7 C 3.2 km/h
2481 18-02-2021 14:40:00 8.7 C 7.09 g/m*3 8.7 C 1.6 km/h
2482 18-02-2021 14:45:00 8.7 C 7.01 g/m*3 7.87 C 6.4 km/h
2483 18-02-2021 14:50:00 8.6 C 6.96 g/m*3 8.6 C 4.8 km/h
2484 18-02-2021 14:55:00 8.5 C 6.83 g/m*3 7.64 C 6.4 km/h
2485 18-02-2021 15:00:00 8.5 C 6.92 g/m*3 8.5 C 4.8 km/h
2486 18-02-2021 15:05:00 8.4 C 6.96 g/m*3 8.4 C 1.6 km/h
2487 18-02-2021 15:10:00 8.4 C 6.96 g/m*3 8.4 C 0 km/h
2488 18-02-2021 15:15:00 8.3 C 7 g/m*3 8.3 C 0 km/h
2489 18-02-2021 15:20:00 8.3 C 7.08 g/m*3 8.3 C 0 km/h
2490 18-02-2021 15:25:00 8.2 C 7.03 g/m*3 8.2 C 0 km/h
2491 18-02-2021 15:30:00 8.1 C 6.99 g/m*3 8.1 C 0 km/h
2492 18-02-2021 15:35:00 8 C 7.11 g/m*3 8 C 0 km/h
2493 18-02-2021 15:40:00 7.9 C 7.15 g/m*3 7.9 C 0 km/h
2494 18-02-2021 15:45:00 7.8 C 7.18 g/m*3 7.8 C 1.6 km/h
2495 18-02-2021 15:50:00 7.8 C 7.26 g/m*3 7.8 C 0 km/h
2496 18-02-2021 15:55:00 7.8 C 7.35 g/m*3 7.8 C 0 km/h
2497 18-02-2021 16:00:00 7.8 C 7.35 g/m*3 7.8 C 0 km/h
2498 18-02-2021 16:05:00 7.8 C 7.43 g/m*3 7.8 C 0 km/h
2499 18-02-2021 16:10:00 7.9 C 7.31 g/m*3 6.18 C 9.7 km/h
2500 18-02-2021 16:15:00 8.1 C 7.41 g/m*3 8.1 C 4.8 km/h
Sensor: Nr:Datum:Temp:Abs-Feuchte:Windchill:Wind:
Aussen-T/F 2501 18-02-2021 16:20:00 8.3 C 7.42 g/m*3 8.3 C 4.8 km/h
2502 18-02-2021 16:25:00 8.5 C 7.43 g/m*3 8.5 C 4.8 km/h
2503 18-02-2021 16:30:00 8.7 C 7.44 g/m*3 8.7 C 1.6 km/h
2504 18-02-2021 16:35:00 8.8 C 7.31 g/m*3 8.8 C 4.8 km/h
2505 18-02-2021 16:40:00 8.9 C 7.36 g/m*3 7.69 C 8.1 km/h
2506 18-02-2021 16:45:00 8.9 C 7.36 g/m*3 8.9 C 3.2 km/h
2507 18-02-2021 16:50:00 9 C 7.41 g/m*3 9 C 4.8 km/h
2508 18-02-2021 16:55:00 9.1 C 7.45 g/m*3 9.1 C 0 km/h
2509 18-02-2021 17:00:00 9.1 C 7.36 g/m*3 9.1 C 1.6 km/h
2510 18-02-2021 17:05:00 9.1 C 7.45 g/m*3 9.1 C 3.2 km/h
2511 18-02-2021 17:10:00 8.9 C 7.27 g/m*3 8.9 C 3.2 km/h
2512 18-02-2021 17:15:00 8.8 C 7.22 g/m*3 8.8 C 4.8 km/h
2513 18-02-2021 17:20:00 8.7 C 7.26 g/m*3 8.7 C 0 km/h
2514 18-02-2021 17:25:00 8.4 C 7.13 g/m*3 8.4 C 1.6 km/h
2515 18-02-2021 17:30:00 8.2 C 7.03 g/m*3 8.2 C 3.2 km/h
2516 18-02-2021 17:35:00 7.9 C 6.98 g/m*3 7.9 C 4.8 km/h
2517 18-02-2021 17:40:00 7.7 C 6.97 g/m*3 7.7 C 0 km/h
2518 18-02-2021 17:45:00 7.6 C 7.01 g/m*3 7.6 C 1.6 km/h
2519 18-02-2021 17:50:00 7.4 C 7 g/m*3 7.4 C 4.8 km/h
2520 18-02-2021 17:55:00 7.3 C 6.95 g/m*3 7.3 C 3.2 km/h
2521 18-02-2021 18:00:00 7.2 C 6.91 g/m*3 7.2 C 3.2 km/h
2522 18-02-2021 18:05:00 7.1 C 6.94 g/m*3 7.1 C 4.8 km/h
2523 18-02-2021 18:10:00 6.9 C 6.85 g/m*3 6.9 C 3.2 km/h
2524 18-02-2021 18:15:00 6.9 C 6.85 g/m*3 6.9 C 3.2 km/h
2525 18-02-2021 18:20:00 6.9 C 6.85 g/m*3 6.9 C 1.6 km/h
Sensor: Nr:Datum:Temp:Abs-Feuchte:Windchill:Wind:
Aussen-T/F 2526 18-02-2021 18:25:00 6.8 C 6.88 g/m*3 6.8 C 4.8 km/h
2527 18-02-2021 18:30:00 6.8 C 6.88 g/m*3 6.8 C 4.8 km/h
2528 18-02-2021 18:35:00 6.8 C 6.88 g/m*3 6.8 C 4.8 km/h
2529 18-02-2021 18:40:00 6.8 C 6.88 g/m*3 6.8 C 3.2 km/h
2530 18-02-2021 18:45:00 6.8 C 6.88 g/m*3 6.8 C 3.2 km/h
2531 18-02-2021 18:50:00 6.8 C 6.88 g/m*3 6.8 C 1.6 km/h
2532 18-02-2021 18:55:00 6.8 C 6.88 g/m*3 6.8 C 0 km/h
2533 18-02-2021 19:00:00 6.8 C 6.88 g/m*3 6.8 C 4.8 km/h
2534 18-02-2021 19:05:00 6.8 C 6.88 g/m*3 6.8 C 4.8 km/h
2535 18-02-2021 19:10:00 6.8 C 6.88 g/m*3 6.8 C 4.8 km/h
2536 18-02-2021 19:15:00 6.7 C 6.84 g/m*3 6.7 C 3.2 km/h
2537 18-02-2021 19:20:00 6.7 C 6.84 g/m*3 5.56 C 6.4 km/h
2538 18-02-2021 19:25:00 6.8 C 6.96 g/m*3 6.8 C 1.6 km/h
2539 18-02-2021 19:30:00 6.8 C 6.96 g/m*3 6.8 C 3.2 km/h
2540 18-02-2021 19:35:00 6.9 C 6.93 g/m*3 6.9 C 3.2 km/h
2541 18-02-2021 19:40:00 7 C 6.97 g/m*3 7 C 4.8 km/h
2542 18-02-2021 19:45:00 7.1 C 7.02 g/m*3 7.1 C 3.2 km/h
2543 18-02-2021 19:50:00 7.3 C 7.03 g/m*3 7.3 C 3.2 km/h
2544 18-02-2021 19:55:00 7.3 C 7.03 g/m*3 7.3 C 4.8 km/h
2545 18-02-2021 20:00:00 7.4 C 7.08 g/m*3 7.4 C 1.6 km/h
2546 18-02-2021 20:05:00 7.4 C 7.08 g/m*3 7.4 C 3.2 km/h
2547 18-02-2021 20:10:00 7.4 C 7.08 g/m*3 7.4 C 4.8 km/h
2548 18-02-2021 20:15:00 7.3 C 7.03 g/m*3 7.3 C 1.6 km/h
2549 18-02-2021 20:20:00 7.3 C 7.03 g/m*3 7.3 C 3.2 km/h
2550 18-02-2021 20:25:00 7.3 C 7.03 g/m*3 7.3 C 4.8 km/h
Sensor: Nr:Datum:Temp:Abs-Feuchte:Windchill:Wind:
Aussen-T/F 2551 18-02-2021 20:30:00 7.4 C 7.08 g/m*3 7.4 C 1.6 km/h
2552 18-02-2021 20:35:00 7.4 C 7.16 g/m*3 7.4 C 4.8 km/h
2553 18-02-2021 20:40:00 7.4 C 7.16 g/m*3 7.4 C 4.8 km/h
2554 18-02-2021 20:45:00 7.4 C 7.24 g/m*3 7.4 C 3.2 km/h
2555 18-02-2021 20:50:00 7.4 C 7.24 g/m*3 7.4 C 3.2 km/h
2556 18-02-2021 20:55:00 7.4 C 7.32 g/m*3 7.4 C 0 km/h
2557 18-02-2021 21:00:00 7.5 C 7.36 g/m*3 7.5 C 4.8 km/h
2558 18-02-2021 21:05:00 7.6 C 7.49 g/m*3 5.82 C 9.7 km/h
2559 18-02-2021 21:10:00 7.9 C 7.64 g/m*3 6.18 C 9.7 km/h
2560 18-02-2021 21:15:00 8.1 C 7.74 g/m*3 7.17 C 6.4 km/h
2561 18-02-2021 21:20:00 8.2 C 7.79 g/m*3 7.29 C 6.4 km/h
2562 18-02-2021 21:25:00 8.3 C 7.84 g/m*3 8.3 C 1.6 km/h
2563 18-02-2021 21:30:00 8.4 C 7.89 g/m*3 8.4 C 4.8 km/h
2564 18-02-2021 21:35:00 8.4 C 7.97 g/m*3 8.4 C 3.2 km/h
2565 18-02-2021 21:40:00 8.4 C 7.97 g/m*3 8.4 C 1.6 km/h
2566 18-02-2021 21:45:00 8.4 C 7.97 g/m*3 8.4 C 1.6 km/h
2567 18-02-2021 21:50:00 8.3 C 7.92 g/m*3 8.3 C 1.6 km/h
2568 18-02-2021 21:55:00 8.3 C 7.92 g/m*3 8.3 C 1.6 km/h
2569 18-02-2021 22:00:00 8.2 C 7.87 g/m*3 8.2 C 1.6 km/h
2570 18-02-2021 22:05:00 8.2 C 7.87 g/m*3 8.2 C 1.6 km/h
2571 18-02-2021 22:10:00 8.2 C 7.87 g/m*3 8.2 C 1.6 km/h
2572 18-02-2021 22:15:00 8.2 C 7.96 g/m*3 7.29 C 6.4 km/h
2573 18-02-2021 22:20:00 8.3 C 8.01 g/m*3 6.99 C 8.1 km/h
2574 18-02-2021 22:25:00 8.4 C 8.06 g/m*3 8.4 C 4.8 km/h
2575 18-02-2021 22:30:00 8.4 C 8.06 g/m*3 8.4 C 4.8 km/h
Sensor: Nr:Datum:Temp:Abs-Feuchte:Windchill:Wind:
Aussen-T/F 2576 18-02-2021 22:35:00 8.4 C 8.06 g/m*3 5.27 C 20.9 km/h
2577 18-02-2021 22:40:00 8.1 C 7.66 g/m*3 4.89 C 20.9 km/h
2578 18-02-2021 22:45:00 7.9 C 7.47 g/m*3 5.63 C 12.9 km/h
2579 18-02-2021 22:50:00 7.8 C 7.35 g/m*3 4.35 C 22.5 km/h
2580 18-02-2021 22:55:00 7.8 C 7.35 g/m*3 6.4 C 8.1 km/h
2581 18-02-2021 23:00:00 7.7 C 7.3 g/m*3 6.28 C 8.1 km/h
2582 18-02-2021 23:05:00 7.6 C 7.25 g/m*3 5.53 C 11.3 km/h
2583 18-02-2021 23:10:00 7.4 C 7.16 g/m*3 5.93 C 8.1 km/h
2584 18-02-2021 23:15:00 7.3 C 7.19 g/m*3 6.25 C 6.4 km/h
2585 18-02-2021 23:20:00 7.1 C 7.1 g/m*3 6.02 C 6.4 km/h
2586 18-02-2021 23:25:00 6.9 C 7.01 g/m*3 6.9 C 4.8 km/h
2587 18-02-2021 23:30:00 6.8 C 6.96 g/m*3 5.67 C 6.4 km/h
2588 18-02-2021 23:35:00 6.6 C 6.87 g/m*3 5.44 C 6.4 km/h
2589 18-02-2021 23:40:00 6.4 C 6.78 g/m*3 5.21 C 6.4 km/h
2590 18-02-2021 23:45:00 6.1 C 6.58 g/m*3 3.72 C 11.3 km/h
2591 18-02-2021 23:50:00 5.9 C 6.49 g/m*3 4.17 C 8.1 km/h
2592 18-02-2021 23:55:00 5.9 C 6.49 g/m*3 5.9 C 4.8 km/h
2593 19-02-2021 00:00:00 5.8 C 6.45 g/m*3 4.05 C 8.1 km/h
2594 19-02-2021 00:05:00 5.6 C 6.36 g/m*3 4.29 C 6.4 km/h
2595 19-02-2021 00:10:00 5.4 C 6.35 g/m*3 4.06 C 6.4 km/h
2596 19-02-2021 00:15:00 5.3 C 6.31 g/m*3 3.08 C 9.7 km/h
2597 19-02-2021 00:20:00 5.3 C 6.31 g/m*3 2.46 C 12.9 km/h
2598 19-02-2021 00:25:00 5.2 C 6.27 g/m*3 2.34 C 12.9 km/h
2599 19-02-2021 00:30:00 5.3 C 6.31 g/m*3 3.94 C 6.4 km/h
2600 19-02-2021 00:35:00 5.2 C 6.27 g/m*3 3.82 C 6.4 km/h
Sensor: Nr:Datum:Temp:Abs-Feuchte:Windchill:Wind:
Aussen-T/F 2601 19-02-2021 00:40:00 5.1 C 6.29 g/m*3 3.23 C 8.1 km/h
2602 19-02-2021 00:45:00 5.1 C 6.29 g/m*3 3.23 C 8.1 km/h
2603 19-02-2021 00:50:00 5.1 C 6.22 g/m*3 2.51 C 11.3 km/h
2604 19-02-2021 00:55:00 5.1 C 6.29 g/m*3 2.51 C 11.3 km/h
2605 19-02-2021 01:00:00 5.1 C 6.22 g/m*3 2.84 C 9.7 km/h
2606 19-02-2021 01:05:00 5.2 C 6.27 g/m*3 2.63 C 11.3 km/h
2607 19-02-2021 01:10:00 5.2 C 6.27 g/m*3 2.96 C 9.7 km/h
2608 19-02-2021 01:15:00 5.2 C 6.27 g/m*3 2.63 C 11.3 km/h
2609 19-02-2021 01:20:00 5.2 C 6.2 g/m*3 2.96 C 9.7 km/h
2610 19-02-2021 01:25:00 5.2 C 6.27 g/m*3 2.34 C 12.9 km/h
2611 19-02-2021 01:30:00 5.2 C 6.2 g/m*3 2.34 C 12.9 km/h
2612 19-02-2021 01:35:00 5.2 C 6.2 g/m*3 2.63 C 11.3 km/h
2613 19-02-2021 01:40:00 5.2 C 6.2 g/m*3 5.2 C 4.8 km/h
2614 19-02-2021 01:45:00 5.1 C 6.16 g/m*3 5.1 C 1.6 km/h
2615 19-02-2021 01:50:00 4.9 C 6.01 g/m*3 4.9 C 3.2 km/h
2616 19-02-2021 01:55:00 4.7 C 5.93 g/m*3 4.7 C 1.6 km/h
2617 19-02-2021 02:00:00 4.6 C 5.96 g/m*3 4.6 C 3.2 km/h
2618 19-02-2021 02:05:00 4.4 C 5.88 g/m*3 4.4 C 4.8 km/h
2619 19-02-2021 02:10:00 4.3 C 5.9 g/m*3 4.3 C 1.6 km/h
2620 19-02-2021 02:15:00 4.2 C 5.86 g/m*3 4.2 C 3.2 km/h
2621 19-02-2021 02:20:00 4.1 C 5.89 g/m*3 4.1 C 4.8 km/h
2622 19-02-2021 02:25:00 3.9 C 5.81 g/m*3 2.32 C 6.4 km/h
2623 19-02-2021 02:30:00 3.8 C 5.77 g/m*3 3.8 C 4.8 km/h
2624 19-02-2021 02:35:00 3.7 C 5.73 g/m*3 2.09 C 6.4 km/h
2625 19-02-2021 02:40:00 3.7 C 5.8 g/m*3 2.09 C 6.4 km/h
Sensor: Nr:Datum:Temp:Abs-Feuchte:Windchill:Wind:
Aussen-T/F 2626 19-02-2021 02:45:00 3.8 C 5.83 g/m*3 2.21 C 6.4 km/h
2627 19-02-2021 02:50:00 3.8 C 5.83 g/m*3 3.8 C 4.8 km/h
2628 19-02-2021 02:55:00 3.9 C 5.94 g/m*3 1.41 C 9.7 km/h
2629 19-02-2021 03:00:00 4 C 5.98 g/m*3 1.93 C 8.1 km/h
2630 19-02-2021 03:05:00 3.9 C 5.94 g/m*3 3.9 C 4.8 km/h
2631 19-02-2021 03:10:00 3.9 C 5.87 g/m*3 3.9 C 4.8 km/h
2632 19-02-2021 03:15:00 3.8 C 5.83 g/m*3 3.8 C 3.2 km/h
2633 19-02-2021 03:20:00 3.8 C 5.83 g/m*3 3.8 C 4.8 km/h
2634 19-02-2021 03:25:00 3.7 C 5.8 g/m*3 3.7 C 4.8 km/h
2635 19-02-2021 03:30:00 3.6 C 5.76 g/m*3 3.6 C 3.2 km/h
2636 19-02-2021 03:35:00 3.4 C 5.68 g/m*3 3.4 C 4.8 km/h
2637 19-02-2021 03:40:00 3.4 C 5.74 g/m*3 1.75 C 6.4 km/h
2638 19-02-2021 03:45:00 3.5 C 5.78 g/m*3 1.86 C 6.4 km/h
2639 19-02-2021 03:50:00 3.5 C 5.78 g/m*3 1.86 C 6.4 km/h
2640 19-02-2021 03:55:00 3.4 C 5.74 g/m*3 3.4 C 4.8 km/h
2641 19-02-2021 04:00:00 3.6 C 5.82 g/m*3 1.06 C 9.7 km/h
2642 19-02-2021 04:05:00 3.6 C 5.82 g/m*3 1.46 C 8.1 km/h
2643 19-02-2021 04:10:00 3.6 C 5.82 g/m*3 3.6 C 4.8 km/h
2644 19-02-2021 04:15:00 3.6 C 5.82 g/m*3 1.98 C 6.4 km/h
2645 19-02-2021 04:20:00 3.5 C 5.78 g/m*3 3.5 C 1.6 km/h
2646 19-02-2021 04:25:00 3.4 C 5.74 g/m*3 3.4 C 3.2 km/h
2647 19-02-2021 04:30:00 3.3 C 5.7 g/m*3 1.11 C 8.1 km/h
2648 19-02-2021 04:35:00 3.4 C 5.74 g/m*3 1.75 C 6.4 km/h
2649 19-02-2021 04:40:00 3.5 C 5.84 g/m*3 1.86 C 6.4 km/h
2650 19-02-2021 04:45:00 3.6 C 5.88 g/m*3 1.46 C 8.1 km/h
Sensor: Nr:Datum:Temp:Abs-Feuchte:Windchill:Wind:
Aussen-T/F 2651 19-02-2021 04:50:00 3.7 C 5.92 g/m*3 3.7 C 4.8 km/h
2652 19-02-2021 04:55:00 3.7 C 5.92 g/m*3 3.7 C 3.2 km/h
2653 19-02-2021 05:00:00 3.8 C 5.96 g/m*3 1.7 C 8.1 km/h
2654 19-02-2021 05:05:00 4 C 6.04 g/m*3 1.53 C 9.7 km/h
2655 19-02-2021 05:10:00 4.2 C 6.12 g/m*3 2.17 C 8.1 km/h
2656 19-02-2021 05:15:00 4.2 C 6.06 g/m*3 1.43 C 11.3 km/h
2657 19-02-2021 05:20:00 4.3 C 6.1 g/m*3 1.89 C 9.7 km/h
2658 19-02-2021 05:25:00 4.3 C 6.1 g/m*3 4.3 C 3.2 km/h
2659 19-02-2021 05:30:00 4.3 C 6.1 g/m*3 4.3 C 1.6 km/h
2660 19-02-2021 05:35:00 4.2 C 5.99 g/m*3 4.2 C 4.8 km/h
2661 19-02-2021 05:40:00 4.2 C 5.99 g/m*3 4.2 C 4.8 km/h
2662 19-02-2021 05:45:00 4.2 C 5.99 g/m*3 4.2 C 3.2 km/h
2663 19-02-2021 05:50:00 4 C 5.91 g/m*3 4 C 3.2 km/h
2664 19-02-2021 05:55:00 3.8 C 5.77 g/m*3 3.8 C 3.2 km/h
2665 19-02-2021 06:00:00 3.7 C 5.8 g/m*3 3.7 C 3.2 km/h
2666 19-02-2021 06:05:00 3.6 C 5.76 g/m*3 3.6 C 3.2 km/h
2667 19-02-2021 06:10:00 3.4 C 5.68 g/m*3 3.4 C 1.6 km/h
2668 19-02-2021 06:15:00 3.3 C 5.64 g/m*3 3.3 C 3.2 km/h
2669 19-02-2021 06:20:00 3.2 C 5.6 g/m*3 3.2 C 1.6 km/h
2670 19-02-2021 06:25:00 3.1 C 5.57 g/m*3 3.1 C 3.2 km/h
2671 19-02-2021 06:30:00 3.1 C 5.57 g/m*3 3.1 C 3.2 km/h
2672 19-02-2021 06:35:00 3.1 C 5.63 g/m*3 3.1 C 0 km/h
2673 19-02-2021 06:40:00 3.1 C 5.63 g/m*3 3.1 C 3.2 km/h
2674 19-02-2021 06:45:00 3.1 C 5.63 g/m*3 3.1 C 0 km/h
2675 19-02-2021 06:50:00 3.2 C 5.66 g/m*3 3.2 C 1.6 km/h
Sensor: Nr:Datum:Temp:Abs-Feuchte:Windchill:Wind:
Aussen-T/F 2676 19-02-2021 06:55:00 3.2 C 5.66 g/m*3 3.2 C 0 km/h
2677 19-02-2021 07:00:00 3.2 C 5.72 g/m*3 3.2 C 0 km/h
2678 19-02-2021 07:05:00 3.3 C 5.76 g/m*3 3.3 C 0 km/h
2679 19-02-2021 07:10:00 3.4 C 5.8 g/m*3 3.4 C 3.2 km/h
2680 19-02-2021 07:15:00 3.7 C 5.92 g/m*3 3.7 C 3.2 km/h
2681 19-02-2021 07:20:00 3.8 C 5.96 g/m*3 3.8 C 1.6 km/h
2682 19-02-2021 07:25:00 3.8 C 5.96 g/m*3 3.8 C 1.6 km/h
2683 19-02-2021 07:30:00 3.8 C 5.96 g/m*3 3.8 C 0 km/h
2684 19-02-2021 07:35:00 3.8 C 5.96 g/m*3 3.8 C 1.6 km/h
2685 19-02-2021 07:40:00 3.7 C 5.92 g/m*3 3.7 C 0 km/h
2686 19-02-2021 07:45:00 3.7 C 5.92 g/m*3 3.7 C 4.8 km/h
2687 19-02-2021 07:50:00 3.8 C 5.96 g/m*3 3.8 C 0 km/h
2688 19-02-2021 07:55:00 3.8 C 5.96 g/m*3 3.8 C 0 km/h
2689 19-02-2021 08:00:00 3.8 C 5.96 g/m*3 3.8 C 0 km/h
2690 19-02-2021 08:05:00 3.8 C 5.96 g/m*3 3.8 C 0 km/h
2691 19-02-2021 08:10:00 3.8 C 5.96 g/m*3 3.8 C 3.2 km/h
2692 19-02-2021 08:15:00 3.8 C 5.96 g/m*3 3.8 C 0 km/h
2693 19-02-2021 08:20:00 3.9 C 6 g/m*3 2.32 C 6.4 km/h
2694 19-02-2021 08:25:00 4.2 C 6.19 g/m*3 2.67 C 6.4 km/h
2695 19-02-2021 08:30:00 4.3 C 6.23 g/m*3 4.3 C 3.2 km/h
2696 19-02-2021 08:35:00 4.4 C 6.27 g/m*3 4.4 C 0 km/h
2697 19-02-2021 08:40:00 4.5 C 6.31 g/m*3 4.5 C 0 km/h
2698 19-02-2021 08:45:00 4.6 C 6.35 g/m*3 4.6 C 1.6 km/h
2699 19-02-2021 08:50:00 4.6 C 6.29 g/m*3 4.6 C 0 km/h
2700 19-02-2021 08:55:00 4.7 C 6.33 g/m*3 4.7 C 0 km/h
Sensor: Nr:Datum:Temp:Abs-Feuchte:Windchill:Wind:
Aussen-T/F 2701 19-02-2021 09:00:00 4.8 C 6.44 g/m*3 4.8 C 0 km/h
2702 19-02-2021 09:05:00 4.8 C 6.37 g/m*3 4.8 C 0 km/h
2703 19-02-2021 09:10:00 4.8 C 6.37 g/m*3 4.8 C 0 km/h
2704 19-02-2021 09:15:00 4.9 C 6.41 g/m*3 4.9 C 0 km/h
2705 19-02-2021 09:20:00 5 C 6.46 g/m*3 5 C 0 km/h
2706 19-02-2021 09:25:00 5.2 C 6.54 g/m*3 5.2 C 0 km/h
2707 19-02-2021 09:30:00 5.3 C 6.58 g/m*3 5.3 C 1.6 km/h
2708 19-02-2021 09:35:00 5.4 C 6.63 g/m*3 5.4 C 0 km/h
2709 19-02-2021 09:40:00 5.6 C 6.72 g/m*3 5.6 C 0 km/h
2710 19-02-2021 09:45:00 5.6 C 6.65 g/m*3 5.6 C 1.6 km/h
2711 19-02-2021 09:50:00 5.7 C 6.69 g/m*3 5.7 C 0 km/h
2712 19-02-2021 09:55:00 5.7 C 6.69 g/m*3 5.7 C 3.2 km/h
2713 19-02-2021 10:00:00 5.8 C 6.73 g/m*3 5.8 C 3.2 km/h
2714 19-02-2021 10:05:00 5.9 C 6.78 g/m*3 5.9 C 1.6 km/h
2715 19-02-2021 10:10:00 5.9 C 6.78 g/m*3 5.9 C 3.2 km/h
2716 19-02-2021 10:15:00 6 C 6.75 g/m*3 6 C 0 km/h
2717 19-02-2021 10:20:00 6.1 C 6.79 g/m*3 6.1 C 3.2 km/h
2718 19-02-2021 10:25:00 6.2 C 6.84 g/m*3 6.2 C 3.2 km/h
2719 19-02-2021 10:30:00 6.2 C 6.77 g/m*3 6.2 C 1.6 km/h
2720 19-02-2021 10:35:00 6.3 C 6.88 g/m*3 6.3 C 0 km/h
2721 19-02-2021 10:40:00 6.5 C 6.97 g/m*3 6.5 C 0 km/h
2722 19-02-2021 10:45:00 6.7 C 6.99 g/m*3 6.7 C 1.6 km/h
2723 19-02-2021 10:50:00 6.8 C 7.04 g/m*3 6.8 C 0 km/h
2724 19-02-2021 10:55:00 6.9 C 7.01 g/m*3 6.9 C 0 km/h
2725 19-02-2021 11:00:00 7.1 C 7.1 g/m*3 7.1 C 0 km/h
Sensor: Nr:Datum:Temp:Abs-Feuchte:Windchill:Wind:
Aussen-T/F 2726 19-02-2021 11:05:00 7.2 C 7.06 g/m*3 7.2 C 0 km/h
2727 19-02-2021 11:10:00 7.3 C 7.11 g/m*3 7.3 C 1.6 km/h
2728 19-02-2021 11:15:00 7.5 C 7.2 g/m*3 7.5 C 1.6 km/h
2729 19-02-2021 11:20:00 7.7 C 7.3 g/m*3 7.7 C 0 km/h
2730 19-02-2021 11:25:00 7.7 C 7.22 g/m*3 7.7 C 1.6 km/h
2731 19-02-2021 11:30:00 7.8 C 7.26 g/m*3 7.8 C 1.6 km/h
2732 19-02-2021 11:35:00 7.8 C 7.18 g/m*3 7.8 C 0 km/h
2733 19-02-2021 11:40:00 7.8 C 7.18 g/m*3 7.8 C 0 km/h
2734 19-02-2021 11:45:00 7.9 C 7.23 g/m*3 7.9 C 0 km/h
2735 19-02-2021 11:50:00 7.9 C 7.23 g/m*3 7.9 C 0 km/h
2736 19-02-2021 11:55:00 8.1 C 7.41 g/m*3 8.1 C 0 km/h
2737 19-02-2021 12:00:00 8.2 C 7.45 g/m*3 8.2 C 0 km/h
2738 19-02-2021 12:05:00 8.3 C 7.5 g/m*3 8.3 C 0 km/h
2739 19-02-2021 12:10:00 8.4 C 7.47 g/m*3 8.4 C 0 km/h
2740 19-02-2021 12:15:00 8.7 C 7.52 g/m*3 8.7 C 0 km/h
2741 19-02-2021 12:20:00 8.9 C 7.53 g/m*3 8.9 C 0 km/h
2742 19-02-2021 12:25:00 9.1 C 7.54 g/m*3 9.1 C 0 km/h
2743 19-02-2021 12:30:00 9.2 C 7.5 g/m*3 9.2 C 1.6 km/h
2744 19-02-2021 12:35:00 9.3 C 7.55 g/m*3 9.3 C 0 km/h
2745 19-02-2021 12:40:00 9.4 C 7.51 g/m*3 9.4 C 0 km/h
2746 19-02-2021 12:45:00 9.5 C 7.55 g/m*3 9.5 C 3.2 km/h
2747 19-02-2021 12:50:00 9.5 C 7.55 g/m*3 9.5 C 1.6 km/h
2748 19-02-2021 12:55:00 9.5 C 7.46 g/m*3 9.5 C 0 km/h
2749 19-02-2021 13:00:00 9.6 C 7.51 g/m*3 9.6 C 0 km/h
2750 19-02-2021 13:05:00 9.6 C 7.51 g/m*3 9.6 C 0 km/h
Sensor: Nr:Datum:Temp:Abs-Feuchte:Windchill:Wind:
Aussen-T/F 2751 19-02-2021 13:10:00 9.7 C 7.56 g/m*3 9.7 C 0 km/h
2752 19-02-2021 13:15:00 9.8 C 7.61 g/m*3 9.8 C 0 km/h
2753 19-02-2021 13:20:00 9.9 C 7.66 g/m*3 9.9 C 0 km/h
2754 19-02-2021 13:25:00 10 C 7.61 g/m*3 10 C 0 km/h
2755 19-02-2021 13:30:00 10.1 C 7.75 g/m*3 10.1 C 0 km/h
2756 19-02-2021 13:35:00 10.2 C 7.71 g/m*3 10.2 C 0 km/h
2757 19-02-2021 13:40:00 10.2 C 7.71 g/m*3 10.2 C 0 km/h
2758 19-02-2021 13:45:00 10.3 C 7.66 g/m*3 10.3 C 0 km/h
2759 19-02-2021 13:50:00 10.4 C 7.61 g/m*3 10.4 C 3.2 km/h
2760 19-02-2021 13:55:00 10.4 C 7.71 g/m*3 10.4 C 1.6 km/h
2761 19-02-2021 14:00:00 10.6 C 7.81 g/m*3 10.6 C 1.6 km/h
2762 19-02-2021 14:05:00 10.6 C 7.71 g/m*3 10.6 C 0 km/h
2763 19-02-2021 14:10:00 10.6 C 7.71 g/m*3 10.6 C 0 km/h
2764 19-02-2021 14:15:00 10.7 C 7.76 g/m*3 10.7 C 0 km/h
2765 19-02-2021 14:20:00 10.8 C 7.81 g/m*3 10.8 C 4.8 km/h
2766 19-02-2021 14:25:00 10.9 C 7.86 g/m*3 10.9 C 0 km/h
2767 19-02-2021 14:30:00 11.1 C 7.96 g/m*3 11.1 C 1.6 km/h
2768 19-02-2021 14:35:00 11.2 C 7.91 g/m*3 11.2 C 1.6 km/h
2769 19-02-2021 14:40:00 11.4 C 7.9 g/m*3 11.4 C 1.6 km/h
2770 19-02-2021 14:45:00 11.6 C 7.69 g/m*3 11.6 C 9.7 km/h
2771 19-02-2021 14:50:00 11.8 C 7.68 g/m*3 11.8 C 6.4 km/h
2772 19-02-2021 14:55:00 11.8 C 7.68 g/m*3 11.8 C 9.7 km/h
2773 19-02-2021 15:00:00 11.7 C 7.53 g/m*3 11.7 C 11.3 km/h
2774 19-02-2021 15:05:00 11.7 C 7.53 g/m*3 11.7 C 11.3 km/h
2775 19-02-2021 15:10:00 11.8 C 7.58 g/m*3 11.8 C 3.2 km/h
Sensor: Nr:Datum:Temp:Abs-Feuchte:Windchill:Wind:
Aussen-T/F 2776 19-02-2021 15:15:00 11.8 C 7.68 g/m*3 11.8 C 8.1 km/h
2777 19-02-2021 15:20:00 11.9 C 7.73 g/m*3 11.9 C 8.1 km/h
2778 19-02-2021 15:25:00 11.8 C 7.58 g/m*3 11.8 C 11.3 km/h
2779 19-02-2021 15:30:00 11.8 C 7.47 g/m*3 11.8 C 9.7 km/h
2780 19-02-2021 15:35:00 11.8 C 7.47 g/m*3 11.8 C 1.6 km/h
2781 19-02-2021 15:40:00 11.8 C 7.58 g/m*3 11.8 C 3.2 km/h
2782 19-02-2021 15:45:00 11.8 C 7.47 g/m*3 11.8 C 8.1 km/h
2783 19-02-2021 15:50:00 11.9 C 7.52 g/m*3 11.9 C 3.2 km/h
2784 19-02-2021 15:55:00 11.9 C 7.52 g/m*3 11.9 C 4.8 km/h
2785 19-02-2021 16:00:00 11.9 C 7.52 g/m*3 11.9 C 4.8 km/h
2786 19-02-2021 16:05:00 11.9 C 7.63 g/m*3 11.9 C 4.8 km/h
2787 19-02-2021 16:10:00 11.9 C 7.73 g/m*3 11.9 C 3.2 km/h
2788 19-02-2021 16:15:00 11.9 C 7.52 g/m*3 11.9 C 8.1 km/h
2789 19-02-2021 16:20:00 11.9 C 7.52 g/m*3 11.9 C 8.1 km/h
2790 19-02-2021 16:25:00 11.9 C 7.52 g/m*3 11.9 C 11.3 km/h
2791 19-02-2021 16:30:00 11.9 C 7.63 g/m*3 11.9 C 8.1 km/h
2792 19-02-2021 16:35:00 11.8 C 7.26 g/m*3 11.8 C 12.9 km/h
2793 19-02-2021 16:40:00 11.8 C 7.47 g/m*3 11.8 C 6.4 km/h
2794 19-02-2021 16:45:00 11.8 C 7.47 g/m*3 11.8 C 1.6 km/h
2795 19-02-2021 16:50:00 11.8 C 7.37 g/m*3 11.8 C 1.6 km/h
2796 19-02-2021 16:55:00 11.7 C 7.53 g/m*3 11.7 C 4.8 km/h
2797 19-02-2021 17:00:00 11.5 C 7.33 g/m*3 11.5 C 3.2 km/h
2798 19-02-2021 17:05:00 11.4 C 7.49 g/m*3 11.4 C 4.8 km/h
2799 19-02-2021 17:10:00 11.3 C 7.55 g/m*3 11.3 C 4.8 km/h
2800 19-02-2021 17:15:00 11 C 7.51 g/m*3 11 C 3.2 km/h
Sensor: Nr:Datum:Temp:Abs-Feuchte:Windchill:Wind:
Aussen-T/F 2801 19-02-2021 17:20:00 10.7 C 7.46 g/m*3 10.7 C 0 km/h
2802 19-02-2021 17:25:00 10.4 C 7.32 g/m*3 10.4 C 4.8 km/h
2803 19-02-2021 17:30:00 10.2 C 7.42 g/m*3 9.6 C 6.4 km/h
2804 19-02-2021 17:35:00 9.9 C 7.28 g/m*3 9.9 C 4.8 km/h
2805 19-02-2021 17:40:00 9.7 C 7.28 g/m*3 9.02 C 6.4 km/h
2806 19-02-2021 17:45:00 9.4 C 7.24 g/m*3 8.68 C 6.4 km/h
2807 19-02-2021 17:50:00 9.1 C 7.1 g/m*3 9.1 C 4.8 km/h
2808 19-02-2021 17:55:00 8.8 C 7.05 g/m*3 7.98 C 6.4 km/h
2809 19-02-2021 18:00:00 8.4 C 6.96 g/m*3 7.52 C 6.4 km/h
2810 19-02-2021 18:05:00 8.2 C 6.87 g/m*3 7.29 C 6.4 km/h
2811 19-02-2021 18:10:00 7.8 C 6.77 g/m*3 6.83 C 6.4 km/h
2812 19-02-2021 18:15:00 7.6 C 6.77 g/m*3 6.6 C 6.4 km/h
2813 19-02-2021 18:20:00 7.4 C 6.76 g/m*3 6.37 C 6.4 km/h
2814 19-02-2021 18:25:00 7.2 C 6.75 g/m*3 6.13 C 6.4 km/h
2815 19-02-2021 18:30:00 7.1 C 6.71 g/m*3 6.02 C 6.4 km/h
2816 19-02-2021 18:35:00 6.9 C 6.7 g/m*3 6.9 C 4.8 km/h
2817 19-02-2021 18:40:00 6.9 C 6.7 g/m*3 6.9 C 4.8 km/h
2818 19-02-2021 18:45:00 6.8 C 6.73 g/m*3 5.67 C 6.4 km/h
2819 19-02-2021 18:50:00 6.7 C 6.69 g/m*3 5.56 C 6.4 km/h
2820 19-02-2021 18:55:00 6.6 C 6.64 g/m*3 6.6 C 4.8 km/h
2821 19-02-2021 19:00:00 6.6 C 6.72 g/m*3 6.6 C 4.8 km/h
2822 19-02-2021 19:05:00 6.5 C 6.67 g/m*3 6.5 C 4.8 km/h
2823 19-02-2021 19:10:00 6.4 C 6.63 g/m*3 6.4 C 4.8 km/h
2824 19-02-2021 19:15:00 6.4 C 6.71 g/m*3 6.4 C 4.8 km/h
2825 19-02-2021 19:20:00 6.3 C 6.66 g/m*3 5.1 C 6.4 km/h
Sensor: Nr:Datum:Temp:Abs-Feuchte:Windchill:Wind:
Aussen-T/F 2826 19-02-2021 19:25:00 6.3 C 6.66 g/m*3 6.3 C 4.8 km/h
2827 19-02-2021 19:30:00 6.3 C 6.66 g/m*3 6.3 C 4.8 km/h
2828 19-02-2021 19:35:00 6.2 C 6.62 g/m*3 6.2 C 3.2 km/h
2829 19-02-2021 19:40:00 6.1 C 6.58 g/m*3 6.1 C 3.2 km/h
2830 19-02-2021 19:45:00 6.1 C 6.58 g/m*3 6.1 C 3.2 km/h
2831 19-02-2021 19:50:00 6.1 C 6.58 g/m*3 6.1 C 3.2 km/h
2832 19-02-2021 19:55:00 6 C 6.6 g/m*3 6 C 3.2 km/h
2833 19-02-2021 20:00:00 5.9 C 6.56 g/m*3 5.9 C 0 km/h
2834 19-02-2021 20:05:00 5.8 C 6.52 g/m*3 5.8 C 0 km/h
2835 19-02-2021 20:10:00 5.8 C 6.52 g/m*3 5.8 C 4.8 km/h
2836 19-02-2021 20:15:00 5.7 C 6.48 g/m*3 5.7 C 4.8 km/h
2837 19-02-2021 20:20:00 5.6 C 6.43 g/m*3 5.6 C 0 km/h
2838 19-02-2021 20:25:00 5.5 C 6.39 g/m*3 5.5 C 0 km/h
2839 19-02-2021 20:30:00 5.4 C 6.35 g/m*3 5.4 C 0 km/h
2840 19-02-2021 20:35:00 5.3 C 6.31 g/m*3 5.3 C 0 km/h
2841 19-02-2021 20:40:00 5.2 C 6.27 g/m*3 5.2 C 0 km/h
2842 19-02-2021 20:45:00 5 C 6.18 g/m*3 5 C 0 km/h
2843 19-02-2021 20:50:00 4.8 C 6.1 g/m*3 4.8 C 0 km/h
2844 19-02-2021 20:55:00 4.7 C 6.06 g/m*3 4.7 C 0 km/h
2845 19-02-2021 21:00:00 4.6 C 6.02 g/m*3 4.6 C 0 km/h
2846 19-02-2021 21:05:00 4.4 C 6.01 g/m*3 4.4 C 0 km/h
2847 19-02-2021 21:10:00 4.3 C 5.97 g/m*3 4.3 C 0 km/h
2848 19-02-2021 21:15:00 4.2 C 5.93 g/m*3 4.2 C 0 km/h
2849 19-02-2021 21:20:00 4.2 C 5.93 g/m*3 4.2 C 0 km/h
2850 19-02-2021 21:25:00 4.1 C 5.95 g/m*3 4.1 C 0 km/h
Sensor: Nr:Datum:Temp:Abs-Feuchte:Windchill:Wind:
Aussen-T/F 2851 19-02-2021 21:30:00 4.1 C 5.95 g/m*3 4.1 C 0 km/h
2852 19-02-2021 21:35:00 4.1 C 5.95 g/m*3 4.1 C 0 km/h
2853 19-02-2021 21:40:00 4.1 C 5.95 g/m*3 4.1 C 0 km/h
2854 19-02-2021 21:45:00 4.1 C 5.95 g/m*3 4.1 C 0 km/h
2855 19-02-2021 21:50:00 4 C 5.91 g/m*3 4 C 0 km/h
2856 19-02-2021 21:55:00 3.9 C 5.94 g/m*3 3.9 C 0 km/h
2857 19-02-2021 22:00:00 3.8 C 5.83 g/m*3 3.8 C 0 km/h
2858 19-02-2021 22:05:00 3.8 C 5.83 g/m*3 3.8 C 0 km/h
2859 19-02-2021 22:10:00 3.7 C 5.86 g/m*3 3.7 C 0 km/h
2860 19-02-2021 22:15:00 3.7 C 5.86 g/m*3 3.7 C 0 km/h
2861 19-02-2021 22:20:00 3.7 C 5.86 g/m*3 3.7 C 0 km/h
2862 19-02-2021 22:25:00 3.7 C 5.86 g/m*3 3.7 C 0 km/h
2863 19-02-2021 22:30:00 3.7 C 5.86 g/m*3 3.7 C 0 km/h
2864 19-02-2021 22:35:00 3.7 C 5.86 g/m*3 3.7 C 0 km/h
2865 19-02-2021 22:40:00 3.7 C 5.92 g/m*3 3.7 C 0 km/h
2866 19-02-2021 22:45:00 3.7 C 5.86 g/m*3 3.7 C 1.6 km/h
2867 19-02-2021 22:50:00 3.7 C 5.92 g/m*3 3.7 C 1.6 km/h
2868 19-02-2021 22:55:00 3.7 C 5.86 g/m*3 3.7 C 0 km/h
2869 19-02-2021 23:00:00 3.6 C 5.82 g/m*3 3.6 C 0 km/h
2870 19-02-2021 23:05:00 3.4 C 5.74 g/m*3 3.4 C 0 km/h
2871 19-02-2021 23:10:00 3.3 C 5.7 g/m*3 3.3 C 0 km/h
2872 19-02-2021 23:15:00 3.2 C 5.66 g/m*3 3.2 C 0 km/h
2873 19-02-2021 23:20:00 3.2 C 5.66 g/m*3 3.2 C 0 km/h
2874 19-02-2021 23:25:00 3.1 C 5.69 g/m*3 3.1 C 0 km/h
2875 19-02-2021 23:30:00 3.1 C 5.63 g/m*3 3.1 C 0 km/h
Sensor: Nr:Datum:Temp:Abs-Feuchte:Windchill:Wind:
Aussen-T/F 2876 19-02-2021 23:35:00 3.1 C 5.69 g/m*3 3.1 C 0 km/h
2877 19-02-2021 23:40:00 3.1 C 5.69 g/m*3 3.1 C 0 km/h
2878 19-02-2021 23:45:00 3 C 5.65 g/m*3 3 C 0 km/h
2879 19-02-2021 23:50:00 3.1 C 5.69 g/m*3 3.1 C 0 km/h
2880 19-02-2021 23:55:00 3.1 C 5.69 g/m*3 3.1 C 0 km/h
2881 20-02-2021 00:00:00 3.1 C 5.69 g/m*3 3.1 C 0 km/h
2882 20-02-2021 00:05:00 3.1 C 5.69 g/m*3 3.1 C 0 km/h
2883 20-02-2021 00:10:00 3 C 5.65 g/m*3 3 C 0 km/h
2884 20-02-2021 00:15:00 2.9 C 5.61 g/m*3 2.9 C 0 km/h
2885 20-02-2021 00:20:00 2.9 C 5.61 g/m*3 2.9 C 0 km/h
2886 20-02-2021 00:25:00 2.8 C 5.57 g/m*3 2.8 C 0 km/h
2887 20-02-2021 00:30:00 2.8 C 5.57 g/m*3 2.8 C 0 km/h
2888 20-02-2021 00:35:00 2.8 C 5.57 g/m*3 2.8 C 0 km/h
2889 20-02-2021 00:40:00 2.7 C 5.54 g/m*3 2.7 C 0 km/h
2890 20-02-2021 00:45:00 2.7 C 5.54 g/m*3 2.7 C 0 km/h
2891 20-02-2021 00:50:00 2.6 C 5.5 g/m*3 2.6 C 0 km/h
2892 20-02-2021 00:55:00 2.6 C 5.5 g/m*3 2.6 C 0 km/h
2893 20-02-2021 01:00:00 2.6 C 5.5 g/m*3 2.6 C 0 km/h
2894 20-02-2021 01:05:00 2.6 C 5.5 g/m*3 2.6 C 0 km/h
2895 20-02-2021 01:10:00 2.7 C 5.54 g/m*3 2.7 C 0 km/h
2896 20-02-2021 01:15:00 2.6 C 5.5 g/m*3 2.6 C 0 km/h
2897 20-02-2021 01:20:00 2.5 C 5.46 g/m*3 2.5 C 0 km/h
2898 20-02-2021 01:25:00 2.4 C 5.42 g/m*3 2.4 C 0 km/h
2899 20-02-2021 01:30:00 2.4 C 5.42 g/m*3 2.4 C 0 km/h
2900 20-02-2021 01:35:00 2.4 C 5.42 g/m*3 2.4 C 0 km/h
Sensor: Nr:Datum:Temp:Abs-Feuchte:Windchill:Wind:
Aussen-T/F 2901 20-02-2021 01:40:00 2.4 C 5.48 g/m*3 2.4 C 0 km/h
2902 20-02-2021 01:45:00 2.4 C 5.48 g/m*3 2.4 C 0 km/h
2903 20-02-2021 01:50:00 2.4 C 5.48 g/m*3 2.4 C 0 km/h
2904 20-02-2021 01:55:00 2.4 C 5.42 g/m*3 2.4 C 0 km/h
2905 20-02-2021 02:00:00 2.4 C 5.42 g/m*3 2.4 C 0 km/h
2906 20-02-2021 02:05:00 2.3 C 5.39 g/m*3 2.3 C 0 km/h
2907 20-02-2021 02:10:00 2.2 C 5.35 g/m*3 2.2 C 0 km/h
2908 20-02-2021 02:15:00 2.2 C 5.41 g/m*3 2.2 C 0 km/h
2909 20-02-2021 02:20:00 2.2 C 5.41 g/m*3 2.2 C 0 km/h
2910 20-02-2021 02:25:00 2.2 C 5.35 g/m*3 2.2 C 0 km/h
2911 20-02-2021 02:30:00 2.2 C 5.41 g/m*3 2.2 C 0 km/h
2912 20-02-2021 02:35:00 2.2 C 5.41 g/m*3 2.2 C 0 km/h
2913 20-02-2021 02:40:00 2.1 C 5.37 g/m*3 2.1 C 0 km/h
2914 20-02-2021 02:45:00 2.1 C 5.37 g/m*3 2.1 C 0 km/h
2915 20-02-2021 02:50:00 2.2 C 5.41 g/m*3 2.2 C 0 km/h
2916 20-02-2021 02:55:00 2.3 C 5.44 g/m*3 2.3 C 0 km/h
2917 20-02-2021 03:00:00 2.3 C 5.44 g/m*3 2.3 C 0 km/h
2918 20-02-2021 03:05:00 2.3 C 5.44 g/m*3 2.3 C 0 km/h
2919 20-02-2021 03:10:00 2.2 C 5.41 g/m*3 2.2 C 0 km/h
2920 20-02-2021 03:15:00 2.2 C 5.41 g/m*3 2.2 C 0 km/h
2921 20-02-2021 03:20:00 2.1 C 5.37 g/m*3 2.1 C 0 km/h
2922 20-02-2021 03:25:00 2.1 C 5.37 g/m*3 2.1 C 0 km/h
2923 20-02-2021 03:30:00 2.1 C 5.37 g/m*3 2.1 C 0 km/h
2924 20-02-2021 03:35:00 2.1 C 5.37 g/m*3 2.1 C 0 km/h
2925 20-02-2021 03:40:00 2.1 C 5.37 g/m*3 2.1 C 0 km/h
Sensor: Nr:Datum:Temp:Abs-Feuchte:Windchill:Wind:
Aussen-T/F 2926 20-02-2021 03:45:00 2.1 C 5.37 g/m*3 2.1 C 0 km/h
2927 20-02-2021 03:50:00 2 C 5.33 g/m*3 2 C 0 km/h
2928 20-02-2021 03:55:00 1.9 C 5.3 g/m*3 1.9 C 0 km/h
2929 20-02-2021 04:00:00 1.9 C 5.3 g/m*3 1.9 C 0 km/h
2930 20-02-2021 04:05:00 1.9 C 5.3 g/m*3 1.9 C 0 km/h
2931 20-02-2021 04:10:00 1.8 C 5.26 g/m*3 1.8 C 0 km/h
2932 20-02-2021 04:15:00 1.7 C 5.23 g/m*3 1.7 C 0 km/h
2933 20-02-2021 04:20:00 1.6 C 5.19 g/m*3 1.6 C 0 km/h
2934 20-02-2021 04:25:00 1.5 C 5.16 g/m*3 1.5 C 0 km/h
2935 20-02-2021 04:30:00 1.5 C 5.16 g/m*3 1.5 C 0 km/h
2936 20-02-2021 04:35:00 1.4 C 5.12 g/m*3 1.4 C 0 km/h
2937 20-02-2021 04:40:00 1.4 C 5.12 g/m*3 1.4 C 0 km/h
2938 20-02-2021 04:45:00 1.4 C 5.12 g/m*3 1.4 C 0 km/h
2939 20-02-2021 04:50:00 1.4 C 5.12 g/m*3 1.4 C 0 km/h
2940 20-02-2021 04:55:00 1.5 C 5.16 g/m*3 1.5 C 0 km/h
2941 20-02-2021 05:00:00 1.5 C 5.16 g/m*3 1.5 C 0 km/h
2942 20-02-2021 05:05:00 1.5 C 5.16 g/m*3 1.5 C 0 km/h
2943 20-02-2021 05:10:00 1.5 C 5.16 g/m*3 1.5 C 0 km/h
2944 20-02-2021 05:15:00 1.5 C 5.16 g/m*3 1.5 C 0 km/h
2945 20-02-2021 05:20:00 1.4 C 5.12 g/m*3 1.4 C 0 km/h
2946 20-02-2021 05:25:00 1.2 C 5.05 g/m*3 1.2 C 0 km/h
2947 20-02-2021 05:30:00 1.2 C 5.05 g/m*3 1.2 C 0 km/h
2948 20-02-2021 05:35:00 1.1 C 5.02 g/m*3 1.1 C 0 km/h
2949 20-02-2021 05:40:00 1 C 4.98 g/m*3 1 C 0 km/h
2950 20-02-2021 05:45:00 0.9 C 4.95 g/m*3 0.9 C 0 km/h
Sensor: Nr:Datum:Temp:Abs-Feuchte:Windchill:Wind:
Aussen-T/F 2951 20-02-2021 05:50:00 0.9 C 4.95 g/m*3 0.9 C 0 km/h
2952 20-02-2021 05:55:00 0.8 C 4.91 g/m*3 0.8 C 0 km/h
2953 20-02-2021 06:00:00 0.8 C 4.91 g/m*3 0.8 C 0 km/h
2954 20-02-2021 06:05:00 0.8 C 4.91 g/m*3 0.8 C 0 km/h
2955 20-02-2021 06:10:00 0.8 C 4.91 g/m*3 0.8 C 1.6 km/h
2956 20-02-2021 06:15:00 0.8 C 4.91 g/m*3 0.8 C 0 km/h
2957 20-02-2021 06:20:00 0.8 C 4.91 g/m*3 0.8 C 0 km/h
2958 20-02-2021 06:25:00 0.9 C 4.95 g/m*3 0.9 C 1.6 km/h
2959 20-02-2021 06:30:00 0.9 C 4.95 g/m*3 0.9 C 0 km/h
2960 20-02-2021 06:35:00 0.9 C 4.95 g/m*3 0.9 C 0 km/h
2961 20-02-2021 06:40:00 0.9 C 4.95 g/m*3 0.9 C 0 km/h
2962 20-02-2021 06:45:00 0.9 C 4.95 g/m*3 0.9 C 0 km/h
2963 20-02-2021 06:50:00 0.9 C 4.95 g/m*3 0.9 C 0 km/h
2964 20-02-2021 06:55:00 0.8 C 4.91 g/m*3 0.8 C 0 km/h
2965 20-02-2021 07:00:00 0.8 C 4.91 g/m*3 0.8 C 0 km/h
2966 20-02-2021 07:05:00 0.7 C 4.88 g/m*3 0.7 C 0 km/h
2967 20-02-2021 07:10:00 0.8 C 4.91 g/m*3 0.8 C 0 km/h
2968 20-02-2021 07:15:00 0.8 C 4.91 g/m*3 0.8 C 1.6 km/h
2969 20-02-2021 07:20:00 0.9 C 5 g/m*3 0.9 C 0 km/h
2970 20-02-2021 07:25:00 0.9 C 4.95 g/m*3 0.9 C 0 km/h
2971 20-02-2021 07:30:00 0.8 C 4.91 g/m*3 0.8 C 0 km/h
2972 20-02-2021 07:35:00 0.8 C 4.91 g/m*3 0.8 C 0 km/h
2973 20-02-2021 07:40:00 0.8 C 4.91 g/m*3 0.8 C 0 km/h
2974 20-02-2021 07:45:00 0.7 C 4.88 g/m*3 0.7 C 0 km/h
2975 20-02-2021 07:50:00 0.8 C 4.91 g/m*3 0.8 C 0 km/h
Sensor: Nr:Datum:Temp:Abs-Feuchte:Windchill:Wind:
Aussen-T/F 2976 20-02-2021 07:55:00 0.8 C 4.91 g/m*3 0.8 C 0 km/h
2977 20-02-2021 08:00:00 0.9 C 4.95 g/m*3 0.9 C 0 km/h
2978 20-02-2021 08:05:00 0.9 C 5 g/m*3 0.9 C 0 km/h
2979 20-02-2021 08:10:00 1.1 C 5.07 g/m*3 1.1 C 0 km/h
2980 20-02-2021 08:15:00 1.1 C 5.07 g/m*3 1.1 C 0 km/h
2981 20-02-2021 08:20:00 1.2 C 5.1 g/m*3 1.2 C 0 km/h
2982 20-02-2021 08:25:00 1.2 C 5.1 g/m*3 1.2 C 0 km/h
2983 20-02-2021 08:30:00 1.3 C 5.14 g/m*3 1.3 C 0 km/h
2984 20-02-2021 08:35:00 1.3 C 5.14 g/m*3 1.3 C 0 km/h
2985 20-02-2021 08:40:00 1.4 C 5.17 g/m*3 1.4 C 0 km/h
2986 20-02-2021 08:45:00 1.5 C 5.21 g/m*3 1.5 C 0 km/h
2987 20-02-2021 08:50:00 1.6 C 5.25 g/m*3 1.6 C 0 km/h
2988 20-02-2021 08:55:00 1.6 C 5.25 g/m*3 1.6 C 0 km/h
2989 20-02-2021 09:00:00 1.7 C 5.28 g/m*3 1.7 C 0 km/h
2990 20-02-2021 09:05:00 1.7 C 5.28 g/m*3 1.7 C 0 km/h
2991 20-02-2021 09:10:00 1.7 C 5.28 g/m*3 1.7 C 0 km/h
2992 20-02-2021 09:15:00 1.7 C 5.28 g/m*3 1.7 C 0 km/h
2993 20-02-2021 09:20:00 1.8 C 5.32 g/m*3 1.8 C 0 km/h
2994 20-02-2021 09:25:00 1.8 C 5.32 g/m*3 1.8 C 0 km/h
2995 20-02-2021 09:30:00 1.8 C 5.32 g/m*3 1.8 C 0 km/h
2996 20-02-2021 09:35:00 1.9 C 5.35 g/m*3 1.9 C 0 km/h
2997 20-02-2021 09:40:00 2 C 5.39 g/m*3 2 C 0 km/h
2998 20-02-2021 09:45:00 2.1 C 5.43 g/m*3 2.1 C 0 km/h
2999 20-02-2021 09:50:00 2.2 C 5.46 g/m*3 2.2 C 0 km/h
3000 20-02-2021 09:55:00 2.3 C 5.5 g/m*3 2.3 C 0 km/h
Sensor: Nr:Datum:Temp:Abs-Feuchte:Windchill:Wind:
Aussen-T/F 3001 20-02-2021 10:00:00 2.4 C 5.54 g/m*3 2.4 C 0 km/h
3002 20-02-2021 10:05:00 2.5 C 5.58 g/m*3 2.5 C 0 km/h
3003 20-02-2021 10:10:00 2.6 C 5.61 g/m*3 2.6 C 0 km/h
3004 20-02-2021 10:15:00 2.7 C 5.65 g/m*3 2.7 C 1.6 km/h
3005 20-02-2021 10:20:00 2.8 C 5.69 g/m*3 2.8 C 0 km/h
3006 20-02-2021 10:25:00 3.1 C 5.81 g/m*3 3.1 C 3.2 km/h
3007 20-02-2021 10:30:00 3.3 C 5.88 g/m*3 3.3 C 1.6 km/h
3008 20-02-2021 10:35:00 3.6 C 6 g/m*3 3.6 C 0 km/h
3009 20-02-2021 10:40:00 3.9 C 6.13 g/m*3 3.9 C 4.8 km/h
3010 20-02-2021 10:45:00 4.3 C 6.36 g/m*3 4.3 C 4.8 km/h
3011 20-02-2021 10:50:00 4.7 C 6.53 g/m*3 4.7 C 4.8 km/h
3012 20-02-2021 10:55:00 5.1 C 6.7 g/m*3 5.1 C 3.2 km/h
3013 20-02-2021 11:00:00 5.5 C 6.88 g/m*3 5.5 C 0 km/h
3014 20-02-2021 11:05:00 6.1 C 7.16 g/m*3 6.1 C 4.8 km/h
3015 20-02-2021 11:10:00 6.8 C 7.5 g/m*3 6.8 C 0 km/h
3016 20-02-2021 11:15:00 7.3 C 7.74 g/m*3 7.3 C 4.8 km/h
3017 20-02-2021 11:20:00 7.9 C 8.05 g/m*3 7.9 C 4.8 km/h
3018 20-02-2021 11:25:00 8.4 C 8.31 g/m*3 8.4 C 4.8 km/h
3019 20-02-2021 11:30:00 8.7 C 8.48 g/m*3 8.7 C 3.2 km/h
3020 20-02-2021 11:35:00 9 C 8.64 g/m*3 9 C 1.6 km/h
3021 20-02-2021 11:40:00 9.2 C 8.75 g/m*3 9.2 C 1.6 km/h
3022 20-02-2021 11:45:00 9.4 C 8.86 g/m*3 9.4 C 4.8 km/h
3023 20-02-2021 11:50:00 9.4 C 8.86 g/m*3 9.4 C 3.2 km/h
3024 20-02-2021 11:55:00 9.6 C 8.98 g/m*3 9.6 C 4.8 km/h
3025 20-02-2021 12:00:00 9.7 C 9.03 g/m*3 9.7 C 4.8 km/h
Sensor: Nr:Datum:Temp:Abs-Feuchte:Windchill:Wind:
Aussen-T/F 3026 20-02-2021 12:05:00 9.8 C 9.09 g/m*3 9.8 C 3.2 km/h
3027 20-02-2021 12:10:00 10 C 9.21 g/m*3 10 C 4.8 km/h
3028 20-02-2021 12:15:00 10.3 C 9.39 g/m*3 10.3 C 0 km/h
3029 20-02-2021 12:20:00 10.4 C 9.35 g/m*3 8.9 C 11.3 km/h
3030 20-02-2021 12:25:00 11 C 9.21 g/m*3 9.63 C 11.3 km/h
3031 20-02-2021 12:30:00 11.6 C 9.04 g/m*3 11.6 C 8.1 km/h
3032 20-02-2021 12:35:00 12.4 C 8.85 g/m*3 12.4 C 11.3 km/h
3033 20-02-2021 12:40:00 13.1 C 8.9 g/m*3 13.1 C 6.4 km/h
3034 20-02-2021 12:45:00 13.4 C 8.83 g/m*3 13.4 C 6.4 km/h
3035 20-02-2021 12:50:00 13.7 C 8.76 g/m*3 13.7 C 11.3 km/h
3036 20-02-2021 12:55:00 13.9 C 8.39 g/m*3 13.9 C 11.3 km/h
3037 20-02-2021 13:00:00 14.2 C 8.79 g/m*3 14.2 C 3.2 km/h
3038 20-02-2021 13:05:00 14.3 C 8.6 g/m*3 14.3 C 8.1 km/h
3039 20-02-2021 13:10:00 14.4 C 8.78 g/m*3 14.4 C 4.8 km/h
3040 20-02-2021 13:15:00 14.6 C 8.76 g/m*3 14.6 C 3.2 km/h
3041 20-02-2021 13:20:00 14.7 C 8.69 g/m*3 14.7 C 6.4 km/h
3042 20-02-2021 13:25:00 14.9 C 8.54 g/m*3 14.9 C 8.1 km/h
3043 20-02-2021 13:30:00 15.1 C 8.39 g/m*3 15.1 C 14.5 km/h
3044 20-02-2021 13:35:00 15.2 C 8.44 g/m*3 15.2 C 8.1 km/h
3045 20-02-2021 13:40:00 15.3 C 8.62 g/m*3 15.3 C 6.4 km/h
3046 20-02-2021 13:45:00 15.5 C 8.59 g/m*3 15.5 C 6.4 km/h
3047 20-02-2021 13:50:00 15.6 C 8.78 g/m*3 15.6 C 8.1 km/h
3048 20-02-2021 13:55:00 15.8 C 8.62 g/m*3 15.8 C 9.7 km/h
3049 20-02-2021 14:00:00 15.9 C 8.67 g/m*3 15.9 C 6.4 km/h
3050 20-02-2021 14:05:00 16.1 C 8.77 g/m*3 16.1 C 6.4 km/h
Sensor: Nr:Datum:Temp:Abs-Feuchte:Windchill:Wind:
Aussen-T/F 3051 20-02-2021 14:10:00 16.1 C 8.5 g/m*3 16.1 C 9.7 km/h
3052 20-02-2021 14:15:00 16.3 C 8.74 g/m*3 16.3 C 4.8 km/h
3053 20-02-2021 14:20:00 16.3 C 8.6 g/m*3 16.3 C 8.1 km/h
3054 20-02-2021 14:25:00 16.3 C 8.46 g/m*3 16.3 C 6.4 km/h
3055 20-02-2021 14:30:00 16.4 C 8.79 g/m*3 16.4 C 9.7 km/h
3056 20-02-2021 14:35:00 16.6 C 8.33 g/m*3 16.6 C 4.8 km/h
3057 20-02-2021 14:40:00 16.6 C 8.62 g/m*3 16.6 C 9.7 km/h
3058 20-02-2021 14:45:00 16.7 C 8.67 g/m*3 16.7 C 6.4 km/h
3059 20-02-2021 14:50:00 16.8 C 8.44 g/m*3 16.8 C 4.8 km/h
3060 20-02-2021 14:55:00 16.8 C 8.58 g/m*3 16.8 C 4.8 km/h
3061 20-02-2021 15:00:00 16.8 C 8.86 g/m*3 16.8 C 4.8 km/h
3062 20-02-2021 15:05:00 16.8 C 8.86 g/m*3 16.8 C 3.2 km/h
3063 20-02-2021 15:10:00 16.7 C 8.95 g/m*3 16.7 C 0 km/h
3064 20-02-2021 15:15:00 16.7 C 8.67 g/m*3 16.7 C 0 km/h
3065 20-02-2021 15:20:00 16.6 C 8.76 g/m*3 16.6 C 0 km/h
3066 20-02-2021 15:25:00 16.4 C 8.23 g/m*3 16.4 C 6.4 km/h
3067 20-02-2021 15:30:00 16.4 C 8.23 g/m*3 16.4 C 8.1 km/h
3068 20-02-2021 15:35:00 16.5 C 8.28 g/m*3 16.5 C 8.1 km/h
3069 20-02-2021 15:40:00 16.6 C 8.76 g/m*3 16.6 C 3.2 km/h
3070 20-02-2021 15:45:00 16.5 C 9.13 g/m*3 16.5 C 4.8 km/h
3071 20-02-2021 15:50:00 16.4 C 8.65 g/m*3 16.4 C 4.8 km/h
3072 20-02-2021 15:55:00 16.3 C 8.6 g/m*3 16.3 C 1.6 km/h
3073 20-02-2021 16:00:00 16.4 C 8.79 g/m*3 16.4 C 3.2 km/h
3074 20-02-2021 16:05:00 16.4 C 8.79 g/m*3 16.4 C 1.6 km/h
3075 20-02-2021 16:10:00 16.4 C 9.07 g/m*3 16.4 C 0 km/h
Sensor: Nr:Datum:Temp:Abs-Feuchte:Windchill:Wind:
Aussen-T/F 3076 20-02-2021 16:15:00 16.4 C 9.07 g/m*3 16.4 C 3.2 km/h
3077 20-02-2021 16:20:00 16.3 C 9.02 g/m*3 16.3 C 3.2 km/h
3078 20-02-2021 16:25:00 16 C 8.72 g/m*3 16 C 0 km/h
3079 20-02-2021 16:30:00 15.8 C 8.75 g/m*3 15.8 C 6.4 km/h
3080 20-02-2021 16:35:00 15.8 C 9.02 g/m*3 15.8 C 3.2 km/h
3081 20-02-2021 16:40:00 15.7 C 8.83 g/m*3 15.7 C 4.8 km/h
3082 20-02-2021 16:45:00 15.7 C 9.23 g/m*3 15.7 C 3.2 km/h
3083 20-02-2021 16:50:00 15.7 C 9.1 g/m*3 15.7 C 0 km/h
3084 20-02-2021 16:55:00 15.6 C 9.31 g/m*3 15.6 C 0 km/h
3085 20-02-2021 17:00:00 15.4 C 9.33 g/m*3 15.4 C 3.2 km/h
3086 20-02-2021 17:05:00 15.2 C 8.96 g/m*3 15.2 C 0 km/h
3087 20-02-2021 17:10:00 15 C 9.1 g/m*3 15 C 4.8 km/h
3088 20-02-2021 17:15:00 14.8 C 9.25 g/m*3 14.8 C 6.4 km/h
3089 20-02-2021 17:20:00 14.5 C 9.08 g/m*3 14.5 C 4.8 km/h
3090 20-02-2021 17:25:00 14.3 C 9.09 g/m*3 14.3 C 4.8 km/h
3091 20-02-2021 17:30:00 14.1 C 9.1 g/m*3 14.1 C 0 km/h
3092 20-02-2021 17:35:00 13.8 C 9.06 g/m*3 13.8 C 4.8 km/h
3093 20-02-2021 17:40:00 13.5 C 8.89 g/m*3 13.5 C 4.8 km/h
3094 20-02-2021 17:45:00 13.2 C 8.84 g/m*3 13.2 C 4.8 km/h
3095 20-02-2021 17:50:00 12.8 C 8.74 g/m*3 12.8 C 4.8 km/h
3096 20-02-2021 17:55:00 12.5 C 8.69 g/m*3 12.5 C 6.4 km/h
3097 20-02-2021 18:00:00 12.2 C 8.63 g/m*3 12.2 C 6.4 km/h
3098 20-02-2021 18:05:00 11.8 C 8.42 g/m*3 11.8 C 4.8 km/h
3099 20-02-2021 18:10:00 11.6 C 8.42 g/m*3 11.6 C 6.4 km/h
3100 20-02-2021 18:15:00 11.3 C 8.36 g/m*3 11.3 C 6.4 km/h
Sensor: Nr:Datum:Temp:Abs-Feuchte:Windchill:Wind:
Aussen-T/F 3101 20-02-2021 18:20:00 11.1 C 8.36 g/m*3 11.1 C 6.4 km/h
3102 20-02-2021 18:25:00 10.9 C 8.26 g/m*3 10.41 C 6.4 km/h
3103 20-02-2021 18:30:00 10.8 C 8.3 g/m*3 10.8 C 4.8 km/h
3104 20-02-2021 18:35:00 10.6 C 8.2 g/m*3 10.6 C 4.8 km/h
3105 20-02-2021 18:40:00 10.4 C 8.1 g/m*3 9.83 C 6.4 km/h
3106 20-02-2021 18:45:00 10.3 C 8.14 g/m*3 9.72 C 6.4 km/h
3107 20-02-2021 18:50:00 10.2 C 8.18 g/m*3 9.22 C 8.1 km/h
3108 20-02-2021 18:55:00 10.1 C 8.13 g/m*3 9.48 C 6.4 km/h
3109 20-02-2021 19:00:00 9.9 C 8.03 g/m*3 9.25 C 6.4 km/h
3110 20-02-2021 19:05:00 9.8 C 8.07 g/m*3 9.14 C 6.4 km/h
3111 20-02-2021 19:10:00 9.7 C 8.02 g/m*3 9.02 C 6.4 km/h
3112 20-02-2021 19:15:00 9.6 C 7.97 g/m*3 8.91 C 6.4 km/h
3113 20-02-2021 19:20:00 9.5 C 8.01 g/m*3 8.79 C 6.4 km/h
3114 20-02-2021 19:25:00 9.4 C 7.96 g/m*3 8.68 C 6.4 km/h
3115 20-02-2021 19:30:00 9.3 C 7.91 g/m*3 8.56 C 6.4 km/h
3116 20-02-2021 19:35:00 9.3 C 7.91 g/m*3 9.3 C 4.8 km/h
3117 20-02-2021 19:40:00 9.2 C 7.86 g/m*3 9.2 C 4.8 km/h
3118 20-02-2021 19:45:00 9.1 C 7.9 g/m*3 8.33 C 6.4 km/h
3119 20-02-2021 19:50:00 9 C 7.85 g/m*3 7.81 C 8.1 km/h
3120 20-02-2021 19:55:00 8.9 C 7.8 g/m*3 8.1 C 6.4 km/h
3121 20-02-2021 20:00:00 8.8 C 7.75 g/m*3 7.98 C 6.4 km/h
3122 20-02-2021 20:05:00 8.8 C 7.75 g/m*3 7.98 C 6.4 km/h
3123 20-02-2021 20:10:00 8.7 C 7.78 g/m*3 8.7 C 4.8 km/h
3124 20-02-2021 20:15:00 8.6 C 7.73 g/m*3 7.75 C 6.4 km/h
3125 20-02-2021 20:20:00 8.6 C 7.73 g/m*3 7.75 C 6.4 km/h
Sensor: Nr:Datum:Temp:Abs-Feuchte:Windchill:Wind:
Aussen-T/F 3126 20-02-2021 20:25:00 8.4 C 7.63 g/m*3 7.52 C 6.4 km/h
3127 20-02-2021 20:30:00 8.4 C 7.63 g/m*3 7.11 C 8.1 km/h
3128 20-02-2021 20:35:00 8.3 C 7.59 g/m*3 7.41 C 6.4 km/h
3129 20-02-2021 20:40:00 8.3 C 7.59 g/m*3 7.41 C 6.4 km/h
3130 20-02-2021 20:45:00 8.3 C 7.59 g/m*3 8.3 C 4.8 km/h
3131 20-02-2021 20:50:00 8.2 C 7.62 g/m*3 8.2 C 4.8 km/h
3132 20-02-2021 20:55:00 8.2 C 7.62 g/m*3 7.29 C 6.4 km/h
3133 20-02-2021 21:00:00 8.1 C 7.57 g/m*3 7.17 C 6.4 km/h
3134 20-02-2021 21:05:00 8.1 C 7.57 g/m*3 8.1 C 4.8 km/h
3135 20-02-2021 21:10:00 8 C 7.52 g/m*3 8 C 1.6 km/h
3136 20-02-2021 21:15:00 7.9 C 7.47 g/m*3 7.9 C 4.8 km/h
3137 20-02-2021 21:20:00 7.8 C 7.43 g/m*3 7.8 C 4.8 km/h
3138 20-02-2021 21:25:00 7.8 C 7.43 g/m*3 7.8 C 4.8 km/h
3139 20-02-2021 21:30:00 7.7 C 7.38 g/m*3 7.7 C 1.6 km/h
3140 20-02-2021 21:35:00 7.6 C 7.25 g/m*3 7.6 C 1.6 km/h
3141 20-02-2021 21:40:00 7.3 C 7.11 g/m*3 7.3 C 3.2 km/h
3142 20-02-2021 21:45:00 7.3 C 7.19 g/m*3 7.3 C 4.8 km/h
3143 20-02-2021 21:50:00 7.3 C 7.19 g/m*3 7.3 C 4.8 km/h
3144 20-02-2021 21:55:00 7.2 C 7.22 g/m*3 7.2 C 3.2 km/h
3145 20-02-2021 22:00:00 7.1 C 7.1 g/m*3 7.1 C 3.2 km/h
3146 20-02-2021 22:05:00 6.9 C 7.01 g/m*3 6.9 C 0 km/h
3147 20-02-2021 22:10:00 6.8 C 6.96 g/m*3 6.8 C 3.2 km/h
3148 20-02-2021 22:15:00 6.8 C 7.04 g/m*3 6.8 C 0 km/h
3149 20-02-2021 22:20:00 6.7 C 6.99 g/m*3 6.7 C 0 km/h
3150 20-02-2021 22:25:00 6.6 C 6.95 g/m*3 6.6 C 0 km/h
Sensor: Nr:Datum:Temp:Abs-Feuchte:Windchill:Wind:
Aussen-T/F 3151 20-02-2021 22:30:00 6.6 C 6.95 g/m*3 6.6 C 0 km/h
3152 20-02-2021 22:35:00 6.4 C 6.85 g/m*3 6.4 C 1.6 km/h
3153 20-02-2021 22:40:00 6.4 C 6.85 g/m*3 6.4 C 1.6 km/h
3154 20-02-2021 22:45:00 6.3 C 6.81 g/m*3 6.3 C 0 km/h
3155 20-02-2021 22:50:00 6.2 C 6.77 g/m*3 6.2 C 0 km/h
3156 20-02-2021 22:55:00 6.1 C 6.72 g/m*3 6.1 C 0 km/h
3157 20-02-2021 23:00:00 6 C 6.68 g/m*3 6 C 0 km/h
3158 20-02-2021 23:05:00 5.9 C 6.63 g/m*3 5.9 C 4.8 km/h
3159 20-02-2021 23:10:00 5.9 C 6.71 g/m*3 5.9 C 1.6 km/h
3160 20-02-2021 23:15:00 6.1 C 6.79 g/m*3 6.1 C 1.6 km/h
3161 20-02-2021 23:20:00 6.1 C 6.87 g/m*3 6.1 C 3.2 km/h
3162 20-02-2021 23:25:00 6.1 C 6.79 g/m*3 6.1 C 0 km/h
3163 20-02-2021 23:30:00 5.9 C 6.71 g/m*3 5.9 C 0 km/h
3164 20-02-2021 23:35:00 5.7 C 6.55 g/m*3 5.7 C 0 km/h
3165 20-02-2021 23:40:00 5.6 C 6.57 g/m*3 5.6 C 0 km/h
3166 20-02-2021 23:45:00 5.6 C 6.57 g/m*3 5.6 C 0 km/h
3167 20-02-2021 23:50:00 5.6 C 6.57 g/m*3 5.6 C 1.6 km/h
3168 20-02-2021 23:55:00 5.4 C 6.49 g/m*3 5.4 C 0 km/h
3169 21-02-2021 00:00:00 5.3 C 6.45 g/m*3 5.3 C 0 km/h
3170 21-02-2021 00:05:00 5.2 C 6.4 g/m*3 5.2 C 0 km/h
3171 21-02-2021 00:10:00 5 C 6.32 g/m*3 5 C 0 km/h
3172 21-02-2021 00:15:00 4.8 C 6.17 g/m*3 4.8 C 0 km/h
3173 21-02-2021 00:20:00 4.7 C 6.19 g/m*3 4.7 C 0 km/h
3174 21-02-2021 00:25:00 4.6 C 6.15 g/m*3 4.6 C 0 km/h
3175 21-02-2021 00:30:00 4.4 C 6.07 g/m*3 4.4 C 0 km/h
Sensor: Nr:Datum:Temp:Abs-Feuchte:Windchill:Wind:
Aussen-T/F 3176 21-02-2021 00:35:00 4.3 C 6.03 g/m*3 4.3 C 0 km/h
3177 21-02-2021 00:40:00 4.2 C 5.99 g/m*3 4.2 C 0 km/h
3178 21-02-2021 00:45:00 4.1 C 5.95 g/m*3 4.1 C 0 km/h
3179 21-02-2021 00:50:00 3.9 C 5.87 g/m*3 3.9 C 0 km/h
3180 21-02-2021 00:55:00 3.9 C 5.87 g/m*3 3.9 C 0 km/h
3181 21-02-2021 01:00:00 3.8 C 5.83 g/m*3 3.8 C 0 km/h
3182 21-02-2021 01:05:00 3.8 C 5.9 g/m*3 3.8 C 0 km/h
3183 21-02-2021 01:10:00 3.8 C 5.9 g/m*3 3.8 C 0 km/h
3184 21-02-2021 01:15:00 3.6 C 5.82 g/m*3 3.6 C 1.6 km/h
3185 21-02-2021 01:20:00 3.6 C 5.82 g/m*3 3.6 C 0 km/h
3186 21-02-2021 01:25:00 3.4 C 5.74 g/m*3 3.4 C 0 km/h
3187 21-02-2021 01:30:00 3.3 C 5.7 g/m*3 3.3 C 0 km/h
3188 21-02-2021 01:35:00 3.4 C 5.74 g/m*3 3.4 C 3.2 km/h
3189 21-02-2021 01:40:00 3.4 C 5.8 g/m*3 3.4 C 1.6 km/h
3190 21-02-2021 01:45:00 3.5 C 5.84 g/m*3 3.5 C 0 km/h
3191 21-02-2021 01:50:00 3.5 C 5.84 g/m*3 3.5 C 0 km/h
3192 21-02-2021 01:55:00 3.4 C 5.74 g/m*3 3.4 C 0 km/h
3193 21-02-2021 02:00:00 3.4 C 5.74 g/m*3 3.4 C 0 km/h
3194 21-02-2021 02:05:00 3.3 C 5.7 g/m*3 3.3 C 0 km/h
3195 21-02-2021 02:10:00 3.3 C 5.76 g/m*3 3.3 C 0 km/h
3196 21-02-2021 02:15:00 3.2 C 5.72 g/m*3 3.2 C 0 km/h
3197 21-02-2021 02:20:00 3.2 C 5.72 g/m*3 3.2 C 0 km/h
3198 21-02-2021 02:25:00 3.1 C 5.63 g/m*3 3.1 C 0 km/h
3199 21-02-2021 02:30:00 3.1 C 5.69 g/m*3 3.1 C 0 km/h
3200 21-02-2021 02:35:00 3.2 C 5.72 g/m*3 3.2 C 0 km/h
Sensor: Nr:Datum:Temp:Abs-Feuchte:Windchill:Wind:
Aussen-T/F 3201 21-02-2021 02:40:00 3.3 C 5.76 g/m*3 3.3 C 0 km/h
3202 21-02-2021 02:45:00 3.3 C 5.76 g/m*3 3.3 C 0 km/h
3203 21-02-2021 02:50:00 3.4 C 5.8 g/m*3 3.4 C 0 km/h
3204 21-02-2021 02:55:00 3.5 C 5.9 g/m*3 3.5 C 0 km/h
3205 21-02-2021 03:00:00 3.5 C 5.84 g/m*3 3.5 C 0 km/h
3206 21-02-2021 03:05:00 3.3 C 5.76 g/m*3 3.3 C 0 km/h
3207 21-02-2021 03:10:00 3.2 C 5.72 g/m*3 3.2 C 0 km/h
3208 21-02-2021 03:15:00 2.9 C 5.61 g/m*3 2.9 C 0 km/h
3209 21-02-2021 03:20:00 2.8 C 5.57 g/m*3 2.8 C 0 km/h
3210 21-02-2021 03:25:00 3.1 C 5.69 g/m*3 3.1 C 0 km/h
3211 21-02-2021 03:30:00 3.2 C 5.72 g/m*3 3.2 C 0 km/h
3212 21-02-2021 03:35:00 3.1 C 5.69 g/m*3 3.1 C 0 km/h
3213 21-02-2021 03:40:00 3 C 5.65 g/m*3 3 C 0 km/h
3214 21-02-2021 03:45:00 2.9 C 5.61 g/m*3 2.9 C 0 km/h
3215 21-02-2021 03:50:00 2.8 C 5.57 g/m*3 2.8 C 0 km/h
3216 21-02-2021 03:55:00 2.7 C 5.54 g/m*3 2.7 C 0 km/h
3217 21-02-2021 04:00:00 2.6 C 5.5 g/m*3